Provisional Data: Lititz Run near Lititz, PA


Please select a monitoring station.
Please select start date.
Please select start date.

Toggle Unit: C/F Toggle Unit: C/F
Sample Time Temperature (C) Temperature (F) Specific Conductivity (mS/cm) pH   Turbidity (NTU+) DO (mg/L)
3/7/2021 12:00:00 AM 8.01 46.418 0.76 7.87 6.68 10.52
3/7/2021 12:15:00 AM 7.99 46.382 0.758 7.87 5.98 10.53
3/7/2021 12:30:00 AM 7.98 46.364 0.756 7.87 6.93 10.54
3/7/2021 12:45:00 AM 7.96 46.328 0.754 7.87 6.31 10.55
3/7/2021 1:00:00 AM 7.95 46.31 0.752 7.87 6.23 10.55
3/7/2021 1:15:00 AM 7.93 46.274 0.751 7.87 6.37 10.56
3/7/2021 1:30:00 AM 7.92 46.256 0.75 7.87 6.2 10.57
3/7/2021 1:45:00 AM 7.91 46.238 0.75 7.87 6.42 10.58
3/7/2021 2:00:00 AM 7.89 46.202 0.749 7.87 6.95 10.58
3/7/2021 2:15:00 AM 7.88 46.184 0.747 7.87 6.57 10.59
3/7/2021 2:30:00 AM 7.88 46.184 0.746 7.88 6.61 10.59
3/7/2021 2:45:00 AM 7.88 46.184 0.746 7.88 7.13 10.6
3/7/2021 3:00:00 AM 7.87 46.166 0.745 7.88 7.16 10.59
3/7/2021 3:15:00 AM 7.86 46.148 0.744 7.88 6.74 10.61
3/7/2021 3:30:00 AM 7.85 46.13 0.742 7.88 7.31 10.61
3/7/2021 3:45:00 AM 7.83 46.094 0.741 7.88 6.53 10.62
3/7/2021 4:00:00 AM 7.81 46.058 0.739 7.88 6.38 10.64
3/7/2021 4:15:00 AM 7.78 46.004 0.737 7.88 6.84 10.65
3/7/2021 4:30:00 AM 7.75 45.95 0.735 7.88 7.49 10.66
3/7/2021 4:45:00 AM 7.73 45.914 0.735 7.88 7.1 10.67
3/7/2021 5:00:00 AM 7.7 45.86 0.734 7.89 7.08 10.67
3/7/2021 5:15:00 AM 7.67 45.806 0.734 7.89 6.77 10.69
3/7/2021 5:30:00 AM 7.65 45.77 0.734 7.89 6.96 10.7
3/7/2021 5:45:00 AM 7.62 45.716 0.735 7.89 7.01 10.71
3/7/2021 6:00:00 AM 7.59 45.662 0.736 7.89 6.78 10.72
3/7/2021 6:15:00 AM 7.56 45.608 0.738 7.89 6.84 10.73
3/7/2021 6:30:00 AM 7.53 45.554 0.74 7.89 6.26 10.73
3/7/2021 6:45:00 AM 7.49 45.482 0.741 7.89 6.61 10.76
3/7/2021 7:00:00 AM 7.46 45.428 0.741 7.89 6.76 10.81
3/7/2021 7:15:00 AM 7.44 45.392 0.74 7.9 6.35 10.88
3/7/2021 7:30:00 AM 7.41 45.338 0.739 7.91 5.71 10.96
3/7/2021 7:45:00 AM 7.4 45.32 0.738 7.91 4.94 11.06
3/7/2021 8:00:00 AM 7.39 45.302 0.738 7.92 4.94 11.2
3/7/2021 8:15:00 AM 7.39 45.302 0.737 7.94 4.87 11.38
3/7/2021 8:30:00 AM 7.41 45.338 0.735 7.95 4.48 11.56
3/7/2021 8:45:00 AM 7.43 45.374 0.733 7.97 4.42 11.76
3/7/2021 9:00:00 AM 7.49 45.482 0.733 7.99 4.19 11.97
3/7/2021 9:15:00 AM 7.55 45.59 0.733 8.01 4.33 12.2
3/7/2021 9:30:00 AM 7.64 45.752 0.734 8.03 4.43 12.41
3/7/2021 9:45:00 AM 7.75 45.95 0.735 8.05 4.18 12.61
3/7/2021 10:00:00 AM 7.87 46.166 0.735 8.07 4.06 12.8
3/7/2021 10:15:00 AM 8.01 46.418 0.737 8.09 3.98 12.97
3/7/2021 10:30:00 AM 8.16 46.688 0.742 8.11 4.03 13.14
3/7/2021 10:45:00 AM 8.33 46.994 0.748 8.13 4.5 13.32
3/7/2021 11:00:00 AM 8.52 47.336 0.754 8.16 4.2 13.49
3/7/2021 11:15:00 AM 8.73 47.714 0.761 8.18 3.97 13.63
3/7/2021 11:30:00 AM 8.93 48.074 0.768 8.2 4.21 13.79
3/7/2021 11:45:00 AM 9.14 48.452 0.773 8.22 3.95 13.89
3/7/2021 12:00:00 PM 9.35 48.83 0.776 8.24 4.54 13.98
3/7/2021 12:15:00 PM 9.55 49.19 0.776 8.26 3.94 14.07
3/7/2021 12:30:00 PM 9.73 49.514 0.775 8.27 3.9 14.12
3/7/2021 12:45:00 PM 9.9 49.82 0.775 8.29 4.31 14.13
3/7/2021 1:00:00 PM 10.07 50.126 0.776 8.3 4.5 14.14
3/7/2021 1:15:00 PM 10.23 50.414 0.78 8.31 4.38 14.15
3/7/2021 1:30:00 PM 10.39 50.702 0.783 8.32 4.03 14.13
3/7/2021 1:45:00 PM 10.52 50.936 0.782 8.32 3.76 14.1
3/7/2021 2:00:00 PM 10.63 51.134 0.781 8.33 4.5 14.05
3/7/2021 2:15:00 PM 10.73 51.314 0.782 8.33 3.76 13.99
3/7/2021 2:30:00 PM 10.8 51.44 0.782 8.33 3.98 13.92
3/7/2021 2:45:00 PM 10.85 51.53 0.782 8.33 4.41 13.81
3/7/2021 3:00:00 PM 10.88 51.584 0.781 8.32 4.09 13.68
3/7/2021 3:15:00 PM 10.9 51.62 0.781 8.31 4.06 13.52
3/7/2021 3:30:00 PM 10.9 51.62 0.781 8.3 4.27 13.38
3/7/2021 3:45:00 PM 10.9 51.62 0.781 8.28 4.23 13.18
3/7/2021 4:00:00 PM 10.88 51.584 0.781 8.27 4.26 12.98
3/7/2021 4:15:00 PM 10.85 51.53 0.78 8.25 4.14 12.78
3/7/2021 4:30:00 PM 10.82 51.476 0.78 8.22 4.3 12.55
3/7/2021 4:45:00 PM 10.77 51.386 0.781 8.2 4.78 12.3
3/7/2021 5:00:00 PM 10.71 51.278 0.782 8.17 4.79 12.05
3/7/2021 5:15:00 PM 10.63 51.134 0.782 8.15 4.54 11.82
3/7/2021 5:30:00 PM 10.57 51.026 0.782 8.12 4.48 11.62
3/7/2021 5:45:00 PM 10.5 50.9 0.781 8.1 4.72 11.45
3/7/2021 6:00:00 PM 10.43 50.774 0.78 8.08 4.34 11.3
3/7/2021 6:15:00 PM 10.35 50.63 0.779 8.06 4.58 11.16
3/7/2021 6:30:00 PM 10.26 50.468 0.779 8.04 4.81 11.04
3/7/2021 6:45:00 PM 10.17 50.306 0.778 8.03 4.81 10.94
3/7/2021 7:00:00 PM 10.07 50.126 0.778 8.01 5.05 10.83
3/7/2021 7:15:00 PM 9.97 49.946 0.777 8 4.98 10.72
3/7/2021 7:30:00 PM 9.86 49.748 0.777 7.98 5.55 10.63
3/7/2021 7:45:00 PM 9.75 49.55 0.778 7.97 5.37 10.55
3/7/2021 8:00:00 PM 9.65 49.37 0.778 7.95 5.31 10.49
3/7/2021 8:15:00 PM 9.55 49.19 0.777 7.94 5.74 10.43
3/7/2021 8:30:00 PM 9.44 48.992 0.776 7.93 6.59 10.38
3/7/2021 8:45:00 PM 9.34 48.812 0.776 7.92 6.17 10.34
3/7/2021 9:00:00 PM 9.24 48.632 0.777 7.91 6.05 10.31
3/7/2021 9:15:00 PM 9.15 48.47 0.78 7.91 6.09 10.3
3/7/2021 9:30:00 PM 9.07 48.326 0.782 7.9 6.51 10.28
3/7/2021 9:45:00 PM 8.98 48.164 0.784 7.89 5.95 10.28
3/7/2021 10:00:00 PM 8.9 48.02 0.784 7.89 6.03 10.28
3/7/2021 10:15:00 PM 8.81 47.858 0.784 7.88 6.12 10.28
3/7/2021 10:30:00 PM 8.73 47.714 0.785 7.88 6.87 10.27
3/7/2021 10:45:00 PM 8.64 47.552 0.787 7.87 6.45 10.27
3/7/2021 11:00:00 PM 8.57 47.426 0.788 7.87 6.1 10.3
3/7/2021 11:15:00 PM 8.49 47.282 0.787 7.87 6.32 10.32
3/7/2021 11:30:00 PM 8.41 47.138 0.785 7.87 6.62 10.33
3/7/2021 11:45:00 PM 8.35 47.03 0.784 7.86 6.98 10.34
3/8/2021 12:00:00 AM 8.28 46.904 0.783 7.86 7.12 10.37
3/8/2021 12:15:00 AM 8.21 46.778 0.781 7.86 6.72 10.38
3/8/2021 12:30:00 AM 8.15 46.67 0.779 7.86 6.48 10.39
3/8/2021 12:45:00 AM 8.08 46.544 0.776 7.86 6.63 10.41
3/8/2021 1:00:00 AM 8.02 46.436 0.774 7.87 7.25 10.43
3/8/2021 1:15:00 AM 7.96 46.328 0.771 7.87 6.8 10.45
3/8/2021 1:30:00 AM 7.9 46.22 0.768 7.86 7.25 10.48
3/8/2021 1:45:00 AM 7.84 46.112 0.766 7.87 6.98 10.5
3/8/2021 2:00:00 AM 7.78 46.004 0.764 7.87 7.45 10.52
3/8/2021 2:15:00 AM 7.72 45.896 0.761 7.87 7.57 10.54
3/8/2021 2:30:00 AM 7.67 45.806 0.759 7.87 7.01 10.56
3/8/2021 2:45:00 AM 7.62 45.716 0.757 7.87 7.27 10.59
3/8/2021 3:00:00 AM 7.56 45.608 0.755 7.87 7.49 10.6
3/8/2021 3:15:00 AM 7.51 45.518 0.752 7.88 7.13 10.62
3/8/2021 3:30:00 AM 7.45 45.41 0.751 7.88 7.2 10.64
3/8/2021 3:45:00 AM 7.41 45.338 0.75 7.88 7.45 10.66
3/8/2021 4:00:00 AM 7.36 45.248 0.747 7.88 7.03 10.68
3/8/2021 4:15:00 AM 7.31 45.158 0.745 7.88 6.91 10.7
3/8/2021 4:30:00 AM 7.27 45.086 0.744 7.88 6.87 10.72
3/8/2021 4:45:00 AM 7.23 45.014 0.743 7.89 6.75 10.74
3/8/2021 5:00:00 AM 7.19 44.942 0.742 7.89 6.56 10.76
3/8/2021 5:15:00 AM 7.15 44.87 0.742 7.89 6.61 10.78
3/8/2021 5:30:00 AM 7.11 44.798 0.742 7.89 6.74 10.8
3/8/2021 5:45:00 AM 7.08 44.744 0.743 7.89 6.78 10.81
3/8/2021 6:00:00 AM 7.06 44.708 0.745 7.89 6.47 10.81
3/8/2021 6:15:00 AM 7.03 44.654 0.746 7.89 6.5 10.82
3/8/2021 6:30:00 AM 7 44.6 0.747 7.89 6.46 10.85
3/8/2021 6:45:00 AM 6.98 44.564 0.749 7.89 7.02 10.87
3/8/2021 7:00:00 AM 6.96 44.528 0.75 7.9 6.43 10.93
3/8/2021 7:15:00 AM 6.94 44.492 0.75 7.9 6.41 11
3/8/2021 7:30:00 AM 6.93 44.474 0.75 7.91 5.92 11.07
3/8/2021 7:45:00 AM 6.94 44.492 0.75 7.91 5.27 11.19
3/8/2021 8:00:00 AM 6.96 44.528 0.749 7.93 5.2 11.34
3/8/2021 8:15:00 AM 6.99 44.582 0.748 7.94 4.36 11.52
3/8/2021 8:30:00 AM 7.04 44.672 0.748 7.95 4.01 11.71
3/8/2021 8:45:00 AM 7.11 44.798 0.749 7.97 4.13 11.92
3/8/2021 9:00:00 AM 7.19 44.942 0.75 7.99 3.99 12.14
3/8/2021 9:15:00 AM 7.3 45.14 0.751 8.01 4.33 12.37
3/8/2021 9:30:00 AM 7.41 45.338 0.753 8.03 4.19 12.59
3/8/2021 9:45:00 AM 7.55 45.59 0.758 8.05 4.22 12.79
3/8/2021 10:00:00 AM 7.7 45.86 0.763 8.07 4.06 13
3/8/2021 10:15:00 AM 7.87 46.166 0.769 8.09 4.29 13.17
3/8/2021 10:30:00 AM 8.06 46.508 0.777 8.12 4.71 13.35
3/8/2021 10:45:00 AM 8.27 46.886 0.784 8.14 4.69 13.55
3/8/2021 11:00:00 AM 8.51 47.318 0.79 8.17 4.41 13.75
3/8/2021 11:15:00 AM 8.74 47.732 0.794 8.19 4.7 13.91
3/8/2021 11:30:00 AM 8.99 48.182 0.797 8.22 4.51 14.09
3/8/2021 11:45:00 AM 9.21 48.578 0.798 8.25 3.87 14.23
3/8/2021 12:00:00 PM 9.43 48.974 0.797 8.27 4.31 14.34
3/8/2021 12:15:00 PM 9.63 49.334 0.795 8.29 4.14 14.45
3/8/2021 12:30:00 PM 9.83 49.694 0.795 8.31 4.3 14.5
3/8/2021 12:45:00 PM 10.03 50.054 0.794 8.33 3.94 14.52
3/8/2021 1:00:00 PM 10.21 50.378 0.794 8.35 3.89 14.56
3/8/2021 1:15:00 PM 10.4 50.72 0.793 8.36 3.92 14.56
3/8/2021 1:30:00 PM 10.56 51.008 0.793 8.37 3.95 14.54
3/8/2021 1:45:00 PM 10.71 51.278 0.792 8.38 4.1 14.53
3/8/2021 2:00:00 PM 10.85 51.53 0.792 8.39 3.97 14.5
3/8/2021 2:15:00 PM 10.95 51.71 0.792 8.39 4.36 14.43
3/8/2021 2:30:00 PM 11.03 51.854 0.792 8.39 4.15 14.34
3/8/2021 2:45:00 PM 11.09 51.962 0.793 8.39 3.76 14.25
3/8/2021 3:00:00 PM 11.14 52.052 0.793 8.39 3.73 14.13
3/8/2021 3:15:00 PM 11.18 52.124 0.791 8.38 4 14.01
3/8/2021 3:30:00 PM 11.22 52.196 0.788 8.37 3.95 13.87
3/8/2021 3:45:00 PM 11.22 52.196 0.787 8.36 4.29 13.68
3/8/2021 4:00:00 PM 11.22 52.196 0.785 8.34 4.31 13.46
3/8/2021 4:15:00 PM 11.2 52.16 0.784 8.32 3.82 13.26
3/8/2021 4:30:00 PM 11.17 52.106 0.784 8.3 3.85 13.01
3/8/2021 4:45:00 PM 11.14 52.052 0.784 8.28 3.76 12.74
3/8/2021 5:00:00 PM 11.1 51.98 0.785 8.25 3.99 12.46
3/8/2021 5:15:00 PM 11.05 51.89 0.785 8.22 4.52 12.22
3/8/2021 5:30:00 PM 10.99 51.782 0.785 8.19 4.06 11.99
3/8/2021 5:45:00 PM 10.94 51.692 0.784 8.17 4.21 11.77
3/8/2021 6:00:00 PM 10.87 51.566 0.784 8.14 4.12 11.56
3/8/2021 6:15:00 PM 10.79 51.422 0.784 8.12 4.11 11.37
3/8/2021 6:30:00 PM 10.71 51.278 0.782 8.09 4.5 11.18
3/8/2021 6:45:00 PM 10.63 51.134 0.782 8.07 4.67 11.03
3/8/2021 7:00:00 PM 10.54 50.972 0.783 8.05 5.03 10.88
3/8/2021 7:15:00 PM 10.45 50.81 0.783 8.03 4.91 10.76
3/8/2021 7:30:00 PM 10.36 50.648 0.784 8.02 5.33 10.65
3/8/2021 7:45:00 PM 10.27 50.486 0.786 8 5.27 10.54
3/8/2021 8:00:00 PM 10.18 50.324 0.788 7.98 5.81 10.45
3/8/2021 8:15:00 PM 10.09 50.162 0.79 7.97 5.52 10.37
3/8/2021 8:30:00 PM 10 50 0.793 7.96 5.71 10.29
3/8/2021 8:45:00 PM 9.92 49.856 0.796 7.95 5.44 10.24
3/8/2021 9:00:00 PM 9.84 49.712 0.799 7.94 5.74 10.2
3/8/2021 9:15:00 PM 9.76 49.568 0.801 7.93 5.93 10.17
3/8/2021 9:30:00 PM 9.68 49.424 0.802 7.92 6.01 10.15
3/8/2021 9:45:00 PM 9.6 49.28 0.804 7.91 6.07 10.13
3/8/2021 10:00:00 PM 9.53 49.154 0.807 7.91 6.27 10.12
3/8/2021 10:15:00 PM 9.46 49.028 0.809 7.9 6.03 10.12
3/8/2021 10:30:00 PM 9.38 48.884 0.81 7.9 6.26 10.11
3/8/2021 10:45:00 PM 9.31 48.758 0.811 7.89 6.2 10.11
3/8/2021 11:00:00 PM 9.25 48.65 0.813 7.89 6.06 10.11
3/8/2021 11:15:00 PM 9.19 48.542 0.816 7.89 6.06 10.12
3/8/2021 11:30:00 PM 9.13 48.434 0.819 7.88 6.21 10.13
3/8/2021 11:45:00 PM 9.07 48.326 0.819 7.88 6.32 10.14
3/9/2021 12:00:00 AM 9.01 48.218 0.819 7.88 6.44 10.16
3/9/2021 12:15:00 AM 8.95 48.11 0.818 7.88 6.17 10.17
3/9/2021 12:30:00 AM 8.89 48.002 0.817 7.88 6.3 10.19
3/9/2021 12:45:00 AM 8.83 47.894 0.815 7.88 6.61 10.2
3/9/2021 1:00:00 AM 8.77 47.786 0.813 7.88 6.67 10.21
3/9/2021 1:15:00 AM 8.72 47.696 0.81 7.88 6.61 10.23
3/9/2021 1:30:00 AM 8.67 47.606 0.807 7.88 6.66 10.25
3/9/2021 1:45:00 AM 8.62 47.516 0.805 7.88 6.73 10.26
3/9/2021 2:00:00 AM 8.57 47.426 0.803 7.88 6.89 10.28
3/9/2021 2:15:00 AM 8.52 47.336 0.802 7.89 7.04 10.29
3/9/2021 2:30:00 AM 8.48 47.264 0.801 7.88 6.92 10.31
3/9/2021 2:45:00 AM 8.44 47.192 0.797 7.89 6.48 10.33
3/9/2021 3:00:00 AM 8.39 47.102 0.793 7.89 6.62 10.34
3/9/2021 3:15:00 AM 8.35 47.03 0.789 7.89 6.27 10.35
3/9/2021 3:30:00 AM 8.31 46.958 0.786 7.89 6.12 10.37
3/9/2021 3:45:00 AM 8.29 46.922 0.783 7.89 6.12 10.39
3/9/2021 4:00:00 AM 8.27 46.886 0.78 7.89 6.16 10.4
3/9/2021 4:15:00 AM 8.25 46.85 0.777 7.9 6.58 10.42
3/9/2021 4:30:00 AM 8.24 46.832 0.776 7.9 5.96 10.42
3/9/2021 4:45:00 AM 8.22 46.796 0.775 7.89 7.06 10.43
3/9/2021 5:00:00 AM 8.21 46.778 0.775 7.9 6.76 10.43
3/9/2021 5:15:00 AM 8.2 46.76 0.774 7.9 6.77 10.43
3/9/2021 5:30:00 AM 8.2 46.76 0.774 7.9 7.07 10.44
3/9/2021 5:45:00 AM 8.19 46.742 0.773 7.9 6.4 10.44
3/9/2021 6:00:00 AM 8.19 46.742 0.772 7.9 6.21 10.45
3/9/2021 6:15:00 AM 8.2 46.76 0.773 7.9 6.16 10.45
3/9/2021 6:30:00 AM 8.2 46.76 0.776 7.9 6.05 10.44
3/9/2021 6:45:00 AM 8.2 46.76 0.777 7.9 6.25 10.47
3/9/2021 7:00:00 AM 8.2 46.76 0.778 7.9 5.57 10.52
3/9/2021 7:15:00 AM 8.2 46.76 0.778 7.91 4.76 10.59
3/9/2021 7:30:00 AM 8.21 46.778 0.779 7.91 4.73 10.7
3/9/2021 7:45:00 AM 8.23 46.814 0.778 7.92 4.3 10.83
3/9/2021 8:00:00 AM 8.26 46.868 0.777 7.94 3.98 11
3/9/2021 8:15:00 AM 8.31 46.958 0.776 7.95 3.98 11.21
3/9/2021 8:30:00 AM 8.37 47.066 0.776 7.97 4.02 11.43
3/9/2021 8:45:00 AM 8.46 47.228 0.775 7.99 4.29 11.67
3/9/2021 9:00:00 AM 8.54 47.372 0.775 8.01 3.91 11.84
3/9/2021 9:15:00 AM 8.65 47.57 0.777 8.03 3.83 12.14
3/9/2021 9:30:00 AM 8.78 47.804 0.781 8.06 3.96 12.42
3/9/2021 9:45:00 AM 8.93 48.074 0.785 8.08 3.97 12.68
3/9/2021 10:00:00 AM 9.11 48.398 0.791 8.11 3.82 12.92
3/9/2021 10:15:00 AM 9.31 48.758 0.798 8.13 3.72 13.17
3/9/2021 10:30:00 AM 9.52 49.136 0.805 8.16 3.66 13.41
3/9/2021 10:45:00 AM 9.74 49.532 0.811 8.19 3.87 13.64
3/9/2021 11:00:00 AM 9.97 49.946 0.816 8.22 3.95 13.87
3/9/2021 11:15:00 AM 10.21 50.378 0.82 8.26 3.61 14.13
3/9/2021 11:30:00 AM 10.43 50.774 0.821 8.29 3.59 14.32
3/9/2021 11:45:00 AM 10.66 51.188 0.821 8.32 3.67 14.48
3/9/2021 12:00:00 PM 10.89 51.602 0.819 8.35 3.79 14.66
3/9/2021 12:15:00 PM 11.09 51.962 0.82 8.37 3.64 14.76
3/9/2021 12:30:00 PM 11.3 52.34 0.824 8.4 3.86 14.84
3/9/2021 12:45:00 PM 11.49 52.682 0.83 8.41 3.99 14.91
3/9/2021 1:00:00 PM 11.68 53.024 0.833 8.43 3.67 14.95
3/9/2021 1:15:00 PM 11.83 53.294 0.836 8.44 4.12 14.86
3/9/2021 1:30:00 PM 11.99 53.582 0.836 8.45 3.74 14.86
3/9/2021 1:45:00 PM 12.15 53.87 0.836 8.46 3.76 14.92
3/9/2021 2:00:00 PM 12.29 54.122 0.835 8.47 4.13 14.83
3/9/2021 2:15:00 PM 12.39 54.302 0.834 8.46 3.58 14.68
3/9/2021 2:30:00 PM 12.47 54.446 0.834 8.46 4.01 14.53
3/9/2021 2:45:00 PM 12.53 54.554 0.834 8.45 3.77 14.38
3/9/2021 3:00:00 PM 12.58 54.644 0.832 8.45 3.73 14.21
3/9/2021 3:15:00 PM 12.63 54.734 0.829 8.44 3.82 14.04
3/9/2021 3:30:00 PM 12.67 54.806 0.826 8.43 3.8 13.9
3/9/2021 3:45:00 PM 12.7 54.86 0.822 8.42 3.93 13.71
3/9/2021 4:00:00 PM 12.73 54.914 0.817 8.4 4.24 13.53
3/9/2021 4:15:00 PM 12.73 54.914 0.814 8.38 3.9 13.29
3/9/2021 4:30:00 PM 12.72 54.896 0.812 8.36 4.11 13.02
3/9/2021 4:45:00 PM 12.69 54.842 0.811 8.33 3.98 12.72
3/9/2021 5:00:00 PM 12.64 54.752 0.811 8.29 4.36 12.38
3/9/2021 5:15:00 PM 12.59 54.662 0.813 8.26 3.88 12.08
3/9/2021 5:30:00 PM 12.54 54.572 0.815 8.23 4.11 11.82
3/9/2021 5:45:00 PM 12.48 54.464 0.816 8.2 4.29 11.55
3/9/2021 6:00:00 PM 12.4 54.32 0.815 8.17 4.09 11.3
3/9/2021 6:15:00 PM 12.32 54.176 0.813 8.14 4.29 11.08
3/9/2021 6:30:00 PM 12.24 54.032 0.811 8.11 4.37 10.87
3/9/2021 6:45:00 PM 12.14 53.852 0.81 8.09 4.68 10.69
3/9/2021 7:00:00 PM 12.04 53.672 0.809 8.07 5.11 10.53
3/9/2021 7:15:00 PM 11.93 53.474 0.81 8.04 5.48 10.37
3/9/2021 7:30:00 PM 11.82 53.276 0.81 8.02 4.98 10.23
3/9/2021 7:45:00 PM 11.72 53.096 0.811 8 4.95 10.12
3/9/2021 8:00:00 PM 11.61 52.898 0.812 7.98 5.12 10.02
3/9/2021 8:15:00 PM 11.5 52.7 0.813 7.97 5.17 9.93
3/9/2021 8:30:00 PM 11.4 52.52 0.813 7.95 5.64 9.86
3/9/2021 8:45:00 PM 11.29 52.322 0.815 7.94 5.28 9.79
3/9/2021 9:00:00 PM 11.19 52.142 0.815 7.93 5.39 9.74
3/9/2021 9:15:00 PM 11.09 51.962 0.815 7.92 5.55 9.71
3/9/2021 9:30:00 PM 10.99 51.782 0.815 7.91 5.86 9.69
3/9/2021 9:45:00 PM 10.9 51.62 0.816 7.9 6.11 9.68
3/9/2021 10:00:00 PM 10.81 51.458 0.818 7.9 5.65 9.67
3/9/2021 10:15:00 PM 10.72 51.296 0.818 7.89 6.46 9.67
3/9/2021 10:30:00 PM 10.64 51.152 0.819 7.89 5.89 9.66
3/9/2021 10:45:00 PM 10.55 50.99 0.82 7.88 5.88 9.66
3/9/2021 11:00:00 PM 10.47 50.846 0.822 7.88 5.77 9.68
3/9/2021 11:15:00 PM 10.38 50.684 0.824 7.88 5.65 9.69
3/9/2021 11:30:00 PM 10.31 50.558 0.825 7.87 5.81 9.71
3/9/2021 11:45:00 PM 10.23 50.414 0.824 7.87 6.01 9.73
3/10/2021 12:00:00 AM 10.15 50.27 0.823 7.87 6.34 9.74
3/10/2021 12:15:00 AM 10.08 50.144 0.821 7.87 5.92 9.76
3/10/2021 12:30:00 AM 10.01 50.018 0.819 7.87 6.5 9.77
3/10/2021 12:45:00 AM 9.94 49.892 0.817 7.87 5.88 9.79
3/10/2021 1:00:00 AM 9.87 49.766 0.816 7.87 6 9.82
3/10/2021 1:15:00 AM 9.8 49.64 0.813 7.87 6.3 9.84
3/10/2021 1:30:00 AM 9.74 49.532 0.81 7.88 5.79 9.86
3/10/2021 1:45:00 AM 9.67 49.406 0.808 7.87 6.27 9.9
3/10/2021 2:00:00 AM 9.61 49.298 0.806 7.88 6.22 9.92
3/10/2021 2:15:00 AM 9.55 49.19 0.804 7.88 7.33 9.94
3/10/2021 2:30:00 AM 9.5 49.1 0.801 7.88 6.1 9.96
3/10/2021 2:45:00 AM 9.44 48.992 0.798 7.88 6.03 9.98
3/10/2021 3:00:00 AM 9.39 48.902 0.795 7.88 6.74 9.99
3/10/2021 3:15:00 AM 9.34 48.812 0.792 7.88 6.61 10.01
3/10/2021 3:30:00 AM 9.28 48.704 0.789 7.88 7.56 10.04
3/10/2021 3:45:00 AM 9.23 48.614 0.786 7.89 7.06 10.06
3/10/2021 4:00:00 AM 9.18 48.524 0.782 7.89 7.84 10.08
3/10/2021 4:15:00 AM 9.13 48.434 0.78 7.89 6.57 10.11
3/10/2021 4:30:00 AM 9.09 48.362 0.778 7.89 6.79 10.13
3/10/2021 4:45:00 AM 9.04 48.272 0.776 7.89 6.89 10.14
3/10/2021 5:00:00 AM 9.01 48.218 0.775 7.89 6.79 10.16
3/10/2021 5:15:00 AM 8.97 48.146 0.774 7.9 6.63 10.17
3/10/2021 5:30:00 AM 8.93 48.074 0.775 7.9 6.72 10.18
3/10/2021 5:45:00 AM 8.9 48.02 0.776 7.9 6.16 10.19
3/10/2021 6:00:00 AM 8.87 47.966 0.777 7.9 5.97 10.2
3/10/2021 6:15:00 AM 8.84 47.912 0.779 7.9 5.83 10.21
3/10/2021 6:30:00 AM 8.82 47.876 0.781 7.89 6.07 10.22
3/10/2021 6:45:00 AM 8.8 47.84 0.784 7.9 5.39 10.26
3/10/2021 7:00:00 AM 8.78 47.804 0.785 7.9 4.86 10.33
3/10/2021 7:15:00 AM 8.76 47.768 0.784 7.91 4.76 10.4
3/10/2021 7:30:00 AM 8.75 47.75 0.782 7.91 4.77 10.51
3/10/2021 7:45:00 AM 8.75 47.75 0.781 7.92 4.21 10.66
3/10/2021 8:00:00 AM 8.77 47.786 0.78 7.94 4.32 10.85
3/10/2021 8:15:00 AM 8.81 47.858 0.78 7.95 4.23 11.07
3/10/2021 8:30:00 AM 8.87 47.966 0.78 7.97 3.91 11.33
3/10/2021 8:45:00 AM 8.94 48.092 0.78 8 4.3 11.6
3/10/2021 9:00:00 AM 9.03 48.254 0.779 8.02 4.4 11.86
3/10/2021 9:15:00 AM 9.13 48.434 0.779 8.04 3.78 12.16
3/10/2021 9:30:00 AM 9.25 48.65 0.781 8.07 3.94 12.44
3/10/2021 9:45:00 AM 9.4 48.92 0.786 8.1 4.38 12.72
3/10/2021 10:00:00 AM 9.56 49.208 0.79 8.12 4.42 13
3/10/2021 10:15:00 AM 9.74 49.532 0.795 8.16 4.01 13.27
3/10/2021 10:30:00 AM 9.95 49.91 0.803 8.18 3.67 13.51
3/10/2021 10:45:00 AM 10.17 50.306 0.81 8.22 4.31 13.78
3/10/2021 11:00:00 AM 10.41 50.738 0.817 8.25 4.26 14.02
3/10/2021 11:15:00 AM 10.65 51.17 0.823 8.28 3.99 14.25
3/10/2021 11:30:00 AM 10.9 51.62 0.825 8.31 4.65 14.51
3/10/2021 11:45:00 AM 11.14 52.052 0.827 8.35 4.22 14.68
3/10/2021 12:00:00 PM 11.38 52.484 0.829 8.38 3.63 14.84
3/10/2021 12:15:00 PM 11.61 52.898 0.828 8.41 3.58 14.98
3/10/2021 12:30:00 PM 11.84 53.312 0.826 8.43 3.56 15.06
3/10/2021 12:45:00 PM 12.05 53.69 0.826 8.45 3.63 15.13
3/10/2021 1:00:00 PM 12.25 54.05 0.826 8.47 3.61 15.17
3/10/2021 1:15:00 PM 12.44 54.392 0.824 8.49 3.63 15.16
3/10/2021 1:30:00 PM 12.63 54.734 0.823 8.5 3.31 15.15
3/10/2021 1:45:00 PM 12.8 55.04 0.824 8.51 3.57 15.16
3/10/2021 2:00:00 PM 12.95 55.31 0.83 8.51 3.8 15.08
3/10/2021 2:15:00 PM 13.08 55.544 0.836 8.51 3.69 15
3/10/2021 2:30:00 PM 13.2 55.76 0.84 8.51 3.94 14.88
3/10/2021 2:45:00 PM 13.28 55.904 0.842 8.51 3.61 14.74
3/10/2021 3:00:00 PM 13.35 56.03 0.841 8.5 3.69 14.57
3/10/2021 3:15:00 PM 13.4 56.12 0.84 8.49 3.92 14.38
3/10/2021 3:30:00 PM 13.44 56.192 0.839 8.48 4.11 14.17
3/10/2021 3:45:00 PM 13.45 56.21 0.837 8.46 3.86 13.92
3/10/2021 4:00:00 PM 13.46 56.228 0.836 8.44 4.04 13.63
3/10/2021 4:15:00 PM 13.45 56.21 0.836 8.41 4.47 13.35
3/10/2021 4:30:00 PM 13.43 56.174 0.836 8.38 3.84 13.03
3/10/2021 4:45:00 PM 13.4 56.12 0.834 8.35 4.15 12.72
3/10/2021 5:00:00 PM 13.36 56.048 0.83 8.32 4.33 12.37
3/10/2021 5:15:00 PM 13.3 55.94 0.825 8.28 4.49 12.03
3/10/2021 5:30:00 PM 13.24 55.832 0.82 8.25 4.53 11.73
3/10/2021 5:45:00 PM 13.17 55.706 0.817 8.22 4.84 11.46
3/10/2021 6:00:00 PM 13.1 55.58 0.815 8.19 4.71 11.22
3/10/2021 6:15:00 PM 13.02 55.436 0.814 8.16 5.12 10.99
3/10/2021 6:30:00 PM 12.94 55.292 0.814 8.13 4.97 10.8
3/10/2021 6:45:00 PM 12.85 55.13 0.816 8.11 5.3 10.63
3/10/2021 7:00:00 PM 12.76 54.968 0.821 8.08 5.35 10.46
3/10/2021 7:15:00 PM 12.65 54.77 0.826 8.06 5.5 10.3
3/10/2021 7:30:00 PM 12.54 54.572 0.828 8.04 5.56 10.13
3/10/2021 7:45:00 PM 12.42 54.356 0.826 8.01 5.59 10
3/10/2021 8:00:00 PM 12.31 54.158 0.824 7.99 5.23 9.88
3/10/2021 8:15:00 PM 12.2 53.96 0.822 7.98 5.6 9.77
3/10/2021 8:30:00 PM 12.09 53.762 0.821 7.96 5.7 9.68
3/10/2021 8:45:00 PM 11.98 53.564 0.821 7.95 5.54 9.6
3/10/2021 9:00:00 PM 11.88 53.384 0.821 7.94 5.9 9.54
3/10/2021 9:15:00 PM 11.79 53.222 0.821 7.92 6 9.49
3/10/2021 9:30:00 PM 11.69 53.042 0.822 7.92 6.32 9.47
3/10/2021 9:45:00 PM 11.6 52.88 0.823 7.91 6.12 9.44
3/10/2021 10:00:00 PM 11.51 52.718 0.825 7.9 5.81 9.43
3/10/2021 10:15:00 PM 11.43 52.574 0.826 7.89 5.99 9.42
3/10/2021 10:30:00 PM 11.34 52.412 0.826 7.89 6.38 9.42
3/10/2021 10:45:00 PM 11.25 52.25 0.827 7.89 6.17 9.41
3/10/2021 11:00:00 PM 11.17 52.106 0.829 7.88 6.31 9.41
3/10/2021 11:15:00 PM 11.09 51.962 0.831 7.88 6.19 9.43
3/10/2021 11:30:00 PM 11.01 51.818 0.831 7.88 6.26 9.44
3/10/2021 11:45:00 PM 10.94 51.692 0.829 7.87 6.22 9.45
3/11/2021 12:00:00 AM 10.86 51.548 0.829 7.87 6.39 9.48
3/11/2021 12:15:00 AM 10.8 51.44 0.828 7.87 6.48 9.49
3/11/2021 12:30:00 AM 10.73 51.314 0.828 7.87 6.51 9.5
3/11/2021 12:45:00 AM 10.68 51.224 0.827 7.87 6.32 9.52
3/11/2021 1:00:00 AM 10.63 51.134 0.825 7.87 6.57 9.53
3/11/2021 1:15:00 AM 10.57 51.026 0.824 7.87 6.45 9.55
3/11/2021 1:30:00 AM 10.51 50.918 0.823 7.87 6.19 9.57
3/11/2021 1:45:00 AM 10.46 50.828 0.821 7.88 5.75 9.59
3/11/2021 2:00:00 AM 10.4 50.72 0.819 7.88 6.29 9.61
3/11/2021 2:15:00 AM 10.35 50.63 0.816 7.88 6.14 9.63
3/11/2021 2:30:00 AM 10.29 50.522 0.814 7.88 6.14 9.64
3/11/2021 2:45:00 AM 10.24 50.432 0.812 7.88 6.11 9.66
3/11/2021 3:00:00 AM 10.18 50.324 0.809 7.88 6.21 9.68
3/11/2021 3:15:00 AM 10.13 50.234 0.807 7.88 6.93 9.69
3/11/2021 3:30:00 AM 10.08 50.144 0.805 7.88 6.5 9.71
3/11/2021 3:45:00 AM 10.03 50.054 0.803 7.89 6.82 9.72
3/11/2021 4:00:00 AM 9.99 49.982 0.801 7.89 6.54 9.73
3/11/2021 4:15:00 AM 9.94 49.892 0.799 7.89 6.16 9.75
3/11/2021 4:30:00 AM 9.9 49.82 0.799 7.89 6.38 9.76
3/11/2021 4:45:00 AM 9.86 49.748 0.798 7.89 6.92 9.78
3/11/2021 5:00:00 AM 9.82 49.676 0.797 7.89 6.91 9.79
3/11/2021 5:15:00 AM 9.78 49.604 0.797 7.89 6.9 9.8
3/11/2021 5:30:00 AM 9.74 49.532 0.797 7.89 6.11 9.81
3/11/2021 5:45:00 AM 9.71 49.478 0.797 7.89 6.37 9.83
3/11/2021 6:00:00 AM 9.67 49.406 0.797 7.89 6.26 9.84
3/11/2021 6:15:00 AM 9.64 49.352 0.798 7.89 6.33 9.85
3/11/2021 6:30:00 AM 9.62 49.316 0.8 7.89 5.99 9.87
3/11/2021 6:45:00 AM 9.6 49.28 0.802 7.9 5.84 9.91
3/11/2021 7:00:00 AM 9.59 49.262 0.803 7.9 5.26 9.95
3/11/2021 7:15:00 AM 9.59 49.262 0.803 7.9 5.07 10.02
3/11/2021 7:30:00 AM 9.6 49.28 0.802 7.91 4.68 10.15
3/11/2021 7:45:00 AM 9.61 49.298 0.803 7.92 4.67 10.34
3/11/2021 8:00:00 AM 9.62 49.316 0.801 7.93 4.33 10.47
3/11/2021 8:15:00 AM 9.66 49.388 0.798 7.95 3.91 10.73
3/11/2021 8:30:00 AM 9.72 49.496 0.795 7.97 4.08 11.02
3/11/2021 8:45:00 AM 9.81 49.658 0.794 8 3.67 11.36
3/11/2021 9:00:00 AM 9.9 49.82 0.795 8.02 3.93 11.59
3/11/2021 9:15:00 AM 9.97 49.946 0.796 8.03 3.91 11.64
3/11/2021 9:30:00 AM 10.1 50.18 0.798 8.07 3.78 12.12
3/11/2021 9:45:00 AM 10.26 50.468 0.803 8.1 3.88 12.49
3/11/2021 10:00:00 AM 10.44 50.792 0.808 8.13 3.54 12.77
3/11/2021 10:15:00 AM 10.62 51.116 0.813 8.16 3.72 13.05
3/11/2021 10:30:00 AM 10.82 51.476 0.821 8.19 3.6 13.35
3/11/2021 10:45:00 AM 11.05 51.89 0.83 8.23 4 13.64
3/11/2021 11:00:00 AM 11.29 52.322 0.839 8.26 3.53 13.92
3/11/2021 11:15:00 AM 11.53 52.754 0.847 8.3 3.68 14.21
3/11/2021 11:30:00 AM 11.79 53.222 0.851 8.33 3.63 14.46
3/11/2021 11:45:00 AM 12.04 53.672 0.852 8.37 3.71 14.67
3/11/2021 12:00:00 PM 12.3 54.14 0.851 8.4 4.16 14.85
3/11/2021 12:15:00 PM 12.54 54.572 0.851 8.43 3.87 14.99
3/11/2021 12:30:00 PM 12.78 55.004 0.851 8.46 3.63 15.14
3/11/2021 12:45:00 PM 13.02 55.436 0.852 8.48 3.45 15.23
3/11/2021 1:00:00 PM 13.24 55.832 0.858 8.5 3.48 15.26
3/11/2021 1:15:00 PM 13.44 56.192 0.864 8.52 4.19 15.3
3/11/2021 1:30:00 PM 13.61 56.498 0.868 8.52 3.97 15.26
3/11/2021 1:45:00 PM 13.8 56.84 0.871 8.54 4.26 15.3
3/11/2021 2:00:00 PM 13.96 57.128 0.873 8.55 4.14 15.25
3/11/2021 2:15:00 PM 14.11 57.398 0.873 8.55 3.92 15.17
3/11/2021 2:30:00 PM 14.23 57.614 0.873 8.56 3.97 15.05
3/11/2021 2:45:00 PM 14.33 57.794 0.872 8.55 4.28 14.91
3/11/2021 3:00:00 PM 14.4 57.92 0.871 8.55 3.83 14.72
3/11/2021 3:15:00 PM 14.46 58.028 0.869 8.54 4.02 14.5
3/11/2021 3:30:00 PM 14.49 58.082 0.868 8.52 4.32 14.23
3/11/2021 3:45:00 PM 14.53 58.154 0.866 8.51 3.93 14.14
3/11/2021 4:00:00 PM 14.53 58.154 0.866 8.49 5.32 13.8
3/11/2021 4:15:00 PM 14.55 58.19 0.864 8.48 4.28 13.61
3/11/2021 4:30:00 PM 14.52 58.136 0.86 8.45 4.27 13.24
3/11/2021 4:45:00 PM 14.5 58.1 0.856 8.42 4.27 12.93
3/11/2021 5:00:00 PM 14.48 58.064 0.851 8.39 4.35 12.65
3/11/2021 5:15:00 PM 14.44 57.992 0.847 8.36 4.22 12.28
3/11/2021 5:30:00 PM 14.39 57.902 0.844 8.32 4.63 11.89
3/11/2021 5:45:00 PM 14.34 57.812 0.843 8.28 4.77 11.53
3/11/2021 6:00:00 PM 14.28 57.704 0.842 8.24 4.44 11.25
3/11/2021 6:15:00 PM 14.22 57.596 0.841 8.21 4.58 10.98
3/11/2021 6:30:00 PM 14.16 57.488 0.841 8.17 4.85 10.73
3/11/2021 6:45:00 PM 14.09 57.362 0.841 8.14 5.17 10.51
3/11/2021 7:00:00 PM 13.99 57.182 0.84 8.12 5.92 10.3
3/11/2021 7:15:00 PM 13.88 56.984 0.841 8.09 6.11 10.1
3/11/2021 7:30:00 PM 13.76 56.768 0.841 8.06 6.05 9.9
3/11/2021 7:45:00 PM 13.64 56.552 0.842 8.03 5.49 9.72
3/11/2021 8:00:00 PM 13.52 56.336 0.844 8.01 5.4 9.56
3/11/2021 8:15:00 PM 13.4 56.12 0.847 7.99 5.62 9.41
3/11/2021 8:30:00 PM 13.28 55.904 0.848 7.97 5.78 9.29
3/11/2021 8:45:00 PM 13.17 55.706 0.85 7.95 5.93 9.18
3/11/2021 9:00:00 PM 13.05 55.49 0.855 7.94 6.88 9.12
3/11/2021 9:15:00 PM 12.94 55.292 0.86 7.92 6.15 9.07
3/11/2021 9:30:00 PM 12.84 55.112 0.864 7.91 7.93 9.02
3/11/2021 9:45:00 PM 12.73 54.914 0.867 7.9 6.09 9
3/11/2021 10:00:00 PM 12.63 54.734 0.871 7.9 6.37 8.98
3/11/2021 10:15:00 PM 12.53 54.554 0.876 7.89 6.12 8.97
3/11/2021 10:30:00 PM 12.44 54.392 0.88 7.88 6.13 8.96
3/11/2021 10:45:00 PM 12.34 54.212 0.879 7.88 6.16 8.99
3/11/2021 11:00:00 PM 12.24 54.032 0.877 7.88 6.4 9.02
3/11/2021 11:15:00 PM 12.16 53.888 0.875 7.87 5.75 9.04
3/11/2021 11:30:00 PM 12.08 53.744 0.874 7.87 6.22 9.05
3/11/2021 11:45:00 PM 12.01 53.618 0.873 7.87 6.32 9.06
3/12/2021 12:00:00 AM 11.94 53.492 0.873 7.87 7.28 9.07
3/12/2021 12:15:00 AM 11.87 53.366 0.871 7.86 6.54 9.09
3/12/2021 12:30:00 AM 11.81 53.258 0.867 7.86 6.53 9.11
3/12/2021 12:45:00 AM 11.75 53.15 0.864 7.86 6.72 9.13
3/12/2021 1:00:00 AM 11.69 53.042 0.861 7.86 6.06 9.15
3/12/2021 1:15:00 AM 11.65 52.97 0.859 7.86 6.04 9.16
3/12/2021 1:30:00 AM 11.62 52.916 0.857 7.86 7.13 9.18
3/12/2021 1:45:00 AM 11.59 52.862 0.856 7.86 6.33 9.19
3/12/2021 2:00:00 AM 11.56 52.808 0.854 7.86 6.35 9.2
3/12/2021 2:15:00 AM 11.54 52.772 0.851 7.86 6.25 9.21
3/12/2021 2:30:00 AM 11.51 52.718 0.847 7.87 6.15 9.22
3/12/2021 2:45:00 AM 11.48 52.664 0.843 7.87 5.94 9.23
3/12/2021 3:00:00 AM 11.46 52.628 0.839 7.87 6.23 9.24
3/12/2021 3:15:00 AM 11.44 52.592 0.835 7.87 6.11 9.25
3/12/2021 3:30:00 AM 11.42 52.556 0.832 7.87 5.96 9.26
3/12/2021 3:45:00 AM 11.4 52.52 0.83 7.87 5.94 9.26
3/12/2021 4:00:00 AM 11.39 52.502 0.827 7.87 6.51 9.27
3/12/2021 4:15:00 AM 11.38 52.484 0.823 7.87 6.06 9.28
3/12/2021 4:30:00 AM 11.37 52.466 0.82 7.87 6.41 9.28
3/12/2021 4:45:00 AM 11.36 52.448 0.817 7.87 5.87 9.29
3/12/2021 5:00:00 AM 11.36 52.448 0.815 7.87 5.9 9.29
3/12/2021 5:15:00 AM 11.36 52.448 0.813 7.87 5.81 9.3
3/12/2021 5:30:00 AM 11.36 52.448 0.812 7.88 5.85 9.3
3/12/2021 5:45:00 AM 11.36 52.448 0.812 7.88 5.86 9.3
3/12/2021 6:00:00 AM 11.37 52.466 0.813 7.88 5.8 9.3
3/12/2021 6:15:00 AM 11.38 52.484 0.814 7.88 5.99 9.31
3/12/2021 6:30:00 AM 11.39 52.502 0.815 7.88 5.7 9.31
3/12/2021 6:45:00 AM 11.4 52.52 0.817 7.88 5.17 9.32
3/12/2021 7:00:00 AM 11.41 52.538 0.819 7.88 5.14 9.39
3/12/2021 7:15:00 AM 11.42 52.556 0.82 7.89 5.09 9.46
3/12/2021 7:30:00 AM 11.45 52.61 0.821 7.89 4.72 9.58
3/12/2021 7:45:00 AM 11.48 52.664 0.819 7.91 4.51 9.77
3/12/2021 8:00:00 AM 11.53 52.754 0.818 7.92 4.51 9.98
3/12/2021 8:15:00 AM 11.57 52.826 0.818 7.94 4.12 10.15
3/12/2021 8:30:00 AM 11.6 52.88 0.817 7.94 3.65 10.12
3/12/2021 8:45:00 AM 11.65 52.97 0.814 7.96 3.99 10.47
3/12/2021 9:00:00 AM 11.69 53.042 0.812 7.97 3.76 10.57
3/12/2021 9:15:00 AM 11.74 53.132 0.813 8 3.92 10.9
3/12/2021 9:30:00 AM 11.8 53.24 0.815 8.03 3.7 11.23
3/12/2021 9:45:00 AM 11.87 53.366 0.818 8.06 3.65 11.62
3/12/2021 10:00:00 AM 11.93 53.474 0.823 8.08 3.66 11.81
3/12/2021 10:15:00 AM 12.02 53.636 0.83 8.11 3.85 12.05
3/12/2021 10:30:00 AM 12.19 53.942 0.837 8.16 3.76 12.65
3/12/2021 10:45:00 AM 12.39 54.302 0.843 8.2 3.71 13.09
3/12/2021 11:00:00 AM 12.5 54.5 0.85 8.22 3.72 13.12
3/12/2021 11:15:00 AM 12.65 54.77 0.857 8.26 3.99 13.46
3/12/2021 11:30:00 AM 12.83 55.094 0.862 8.3 3.73 13.9
3/12/2021 11:45:00 AM 13.01 55.418 0.867 8.34 3.9 14.18
3/12/2021 12:00:00 PM 13.2 55.76 0.87 8.38 3.78 14.41
3/12/2021 12:15:00 PM 13.38 56.084 0.872 8.41 3.4 14.67
3/12/2021 12:30:00 PM 13.55 56.39 0.874 8.44 3.6 14.84
3/12/2021 12:45:00 PM 13.71 56.678 0.874 8.47 3.6 14.98
3/12/2021 1:00:00 PM 13.88 56.984 0.874 8.5 3.94 15.09
3/12/2021 1:15:00 PM 14.04 57.272 0.874 8.52 3.65 15.22
3/12/2021 1:30:00 PM 14.18 57.524 0.875 8.55 3.71 15.3
3/12/2021 1:45:00 PM 14.28 57.704 0.877 8.56 4.25 15.29
3/12/2021 2:00:00 PM 14.38 57.884 0.878 8.58 4.19 15.29
3/12/2021 2:15:00 PM 14.45 58.01 0.878 8.59 3.96 15.27
3/12/2021 2:30:00 PM 14.49 58.082 0.877 8.59 4.21 15.17
3/12/2021 2:45:00 PM 14.51 58.118 0.876 8.6 3.99 15.08
3/12/2021 3:00:00 PM 14.53 58.154 0.876 8.6 4.47 14.97
3/12/2021 3:15:00 PM 14.52 58.136 0.876 8.59 4.26 14.65
3/12/2021 3:30:00 PM 14.51 58.118 0.876 8.57 4.24 14.41
3/12/2021 3:45:00 PM 14.48 58.064 0.875 8.56 4.18 14.19
3/12/2021 4:00:00 PM 14.44 57.992 0.874 8.54 4.4 13.91
3/12/2021 4:15:00 PM 14.39 57.902 0.873 8.52 4.37 13.65
3/12/2021 4:30:00 PM 14.33 57.794 0.872 8.49 4.22 13.39
3/12/2021 4:45:00 PM 14.26 57.668 0.87 8.46 4.77 13.04
3/12/2021 5:00:00 PM 14.18 57.524 0.868 8.43 4.54 12.7
3/12/2021 5:15:00 PM 14.08 57.344 0.868 8.39 4.66 12.31
3/12/2021 5:30:00 PM 13.98 57.164 0.87 8.35 5 11.95
3/12/2021 5:45:00 PM 13.89 57.002 0.87 8.31 5.21 11.64
3/12/2021 6:00:00 PM 13.78 56.804 0.87 8.27 5.05 11.37
3/12/2021 6:15:00 PM 13.67 56.606 0.87 8.24 4.82 11.12
3/12/2021 6:30:00 PM 13.57 56.426 0.869 8.21 5.08 10.89
3/12/2021 6:45:00 PM 13.46 56.228 0.87 8.18 5.52 10.7
3/12/2021 7:00:00 PM 13.35 56.03 0.871 8.15 5.39 10.51
3/12/2021 7:15:00 PM 13.24 55.832 0.874 8.12 5.48 10.33
3/12/2021 7:30:00 PM 13.12 55.616 0.876 8.09 5.62 10.15
3/12/2021 7:45:00 PM 13 55.4 0.876 8.07 5.66 9.98
3/12/2021 8:00:00 PM 12.89 55.202 0.874 8.04 5.8 9.82
3/12/2021 8:15:00 PM 12.76 54.968 0.872 8.02 5.8 9.69
3/12/2021 8:30:00 PM 12.64 54.752 0.871 8 6.22 9.56
3/12/2021 8:45:00 PM 12.51 54.518 0.87 7.98 5.9 9.45
3/12/2021 9:00:00 PM 12.39 54.302 0.871 7.97 5.83 9.38
3/12/2021 9:15:00 PM 12.26 54.068 0.871 7.95 6 9.32
3/12/2021 9:30:00 PM 12.14 53.852 0.872 7.94 6.05 9.28
3/12/2021 9:45:00 PM 12.02 53.636 0.872 7.93 6.13 9.25
3/12/2021 10:00:00 PM 11.91 53.438 0.874 7.93 6.35 9.22
3/12/2021 10:15:00 PM 11.81 53.258 0.876 7.92 6.41 9.21
3/12/2021 10:30:00 PM 11.69 53.042 0.876 7.91 7.26 9.21
3/12/2021 10:45:00 PM 11.57 52.826 0.875 7.91 6.16 9.21
3/12/2021 11:00:00 PM 11.46 52.628 0.874 7.9 5.9 9.23
3/12/2021 11:15:00 PM 11.35 52.43 0.873 7.91 6.35 9.24
3/12/2021 11:30:00 PM 11.24 52.232 0.871 7.9 6.67 9.25
3/12/2021 11:45:00 PM 11.14 52.052 0.869 7.9 6.48 9.27
3/13/2021 12:00:00 AM 11.05 51.89 0.869 7.9 6.58 9.29
3/13/2021 12:15:00 AM 10.95 51.71 0.868 7.9 6.69 9.32
3/13/2021 12:30:00 AM 10.86 51.548 0.865 7.9 6.45 9.35
3/13/2021 12:45:00 AM 10.78 51.404 0.863 7.9 6.21 9.37
3/13/2021 1:00:00 AM 10.69 51.242 0.862 7.9 6.59 9.39
3/13/2021 1:15:00 AM 10.61 51.098 0.861 7.9 7.27 9.41
3/13/2021 1:30:00 AM 10.52 50.936 0.86 7.9 7.4 9.44
3/13/2021 1:45:00 AM 10.43 50.774 0.858 7.9 7.34 9.47
3/13/2021 2:00:00 AM 10.35 50.63 0.855 7.9 7.53 9.5
3/13/2021 2:15:00 AM 10.27 50.486 0.853 7.9 7.73 9.53
3/13/2021 2:30:00 AM 10.19 50.342 0.852 7.9 7.32 9.55
3/13/2021 2:45:00 AM 10.12 50.216 0.852 7.9 6.57 9.58
3/13/2021 3:00:00 AM 10.05 50.09 0.852 7.91 7.03 9.59
3/13/2021 3:15:00 AM 9.97 49.946 0.85 7.91 7.08 9.61
3/13/2021 3:30:00 AM 9.88 49.784 0.847 7.91 6.87 9.64
3/13/2021 3:45:00 AM 9.8 49.64 0.843 7.91 7.98 9.67
3/13/2021 4:00:00 AM 9.74 49.532 0.841 7.91 7.47 9.68
3/13/2021 4:15:00 AM 9.68 49.424 0.839 7.91 6.92 9.71
3/13/2021 4:30:00 AM 9.61 49.298 0.834 7.91 7.59 9.74
3/13/2021 4:45:00 AM 9.53 49.154 0.829 7.91 7.28 9.77
3/13/2021 5:00:00 AM 9.45 49.01 0.823 7.92 7.78 9.79
3/13/2021 5:15:00 AM 9.39 48.902 0.818 7.92 7.46 9.82
3/13/2021 5:30:00 AM 9.33 48.794 0.815 7.92 6.9 9.84
3/13/2021 5:45:00 AM 9.27 48.686 0.814 7.92 7.05 9.86
3/13/2021 6:00:00 AM 9.21 48.578 0.814 7.92 7.03 9.88
3/13/2021 6:15:00 AM 9.15 48.47 0.814 7.92 6.91 9.91
3/13/2021 6:30:00 AM 9.09 48.362 0.814 7.92 6.73 9.94
3/13/2021 6:45:00 AM 9.02 48.236 0.815 7.93 6.08 10
3/13/2021 7:00:00 AM 8.98 48.164 0.817 7.93 6.23 10.08
3/13/2021 7:15:00 AM 8.95 48.11 0.818 7.94 5.68 10.18
3/13/2021 7:30:00 AM 8.9 48.02 0.818 7.94 5.26 10.3
3/13/2021 7:45:00 AM 8.84 47.912 0.816 7.96 5.14 10.46
3/13/2021 8:00:00 AM 8.83 47.894 0.816 7.97 5.17 10.66
3/13/2021 8:15:00 AM 8.83 47.894 0.816 7.99 4.78 10.9
3/13/2021 8:30:00 AM 8.85 47.93 0.814 8.01 4.68 11.18
3/13/2021 8:45:00 AM 8.88 47.984 0.812 8.03 4.75 11.47
3/13/2021 9:00:00 AM 8.94 48.092 0.81 8.05 4.64 11.78
3/13/2021 9:15:00 AM 9 48.2 0.808 8.08 4.66 12.09
3/13/2021 9:30:00 AM 9.08 48.344 0.806 8.11 4.57 12.41
3/13/2021 9:45:00 AM 9.17 48.506 0.805 8.14 4.5 12.73
3/13/2021 10:00:00 AM 9.29 48.722 0.807 8.17 4.32 13.03
3/13/2021 10:15:00 AM 9.43 48.974 0.81 8.2 4.44 13.33
3/13/2021 10:30:00 AM 9.6 49.28 0.816 8.24 4.46 13.64
3/13/2021 10:45:00 AM 9.79 49.622 0.823 8.27 4.25 13.95
3/13/2021 11:00:00 AM 10 50 0.83 8.31 4.35 14.23
3/13/2021 11:15:00 AM 10.23 50.414 0.836 8.35 4.06 14.54
3/13/2021 11:30:00 AM 10.47 50.846 0.843 8.39 4.68 14.81
3/13/2021 11:45:00 AM 10.72 51.296 0.85 8.42 4.49 15.07
3/13/2021 12:00:00 PM 10.96 51.728 0.859 8.46 4.24 15.28
3/13/2021 12:15:00 PM 11.19 52.142 0.867 8.49 4.32 15.45
3/13/2021 12:30:00 PM 11.41 52.538 0.873 8.51 4.69 15.6
3/13/2021 12:45:00 PM 11.62 52.916 0.876 8.54 4.64 15.71
3/13/2021 1:00:00 PM 11.81 53.258 0.878 8.56 4.46 15.76
3/13/2021 1:15:00 PM 12 53.6 0.883 8.57 4.79 15.81
3/13/2021 1:30:00 PM 12.17 53.906 0.887 8.59 4.84 15.84
3/13/2021 1:45:00 PM 12.32 54.176 0.89 8.6 5.07 15.83
3/13/2021 2:00:00 PM 12.44 54.392 0.892 8.61 4.6 15.78
3/13/2021 2:15:00 PM 12.55 54.59 0.895 8.61 5.1 15.72
3/13/2021 2:30:00 PM 12.64 54.752 0.897 8.62 4.67 15.62
3/13/2021 2:45:00 PM 12.72 54.896 0.899 8.61 4.92 15.51
3/13/2021 3:00:00 PM 12.76 54.968 0.899 8.61 5.4 15.35
3/13/2021 3:15:00 PM 12.79 55.022 0.899 8.6 4.6 15.16
3/13/2021 3:30:00 PM 12.81 55.058 0.899 8.59 4.74 14.95
3/13/2021 3:45:00 PM 12.8 55.04 0.898 8.58 4.54 14.71
3/13/2021 4:00:00 PM 12.77 54.986 0.898 8.56 4.52 14.43
3/13/2021 4:15:00 PM 12.73 54.914 0.897 8.54 4.54 14.09
3/13/2021 4:30:00 PM 12.69 54.842 0.894 8.51 4.67 13.78
3/13/2021 4:45:00 PM 12.63 54.734 0.892 8.48 4.79 13.45
3/13/2021 5:00:00 PM 12.57 54.626 0.89 8.45 4.88 13.08
3/13/2021 5:15:00 PM 12.5 54.5 0.891 8.41 4.86 12.74
3/13/2021 5:30:00 PM 12.43 54.374 0.892 8.37 4.95 12.4
3/13/2021 5:45:00 PM 12.35 54.23 0.891 8.34 5.1 12.11
3/13/2021 6:00:00 PM 12.26 54.068 0.89 8.3 4.95 11.84
3/13/2021 6:15:00 PM 12.17 53.906 0.889 8.27 4.88 11.59
3/13/2021 6:30:00 PM 12.06 53.708 0.888 8.24 4.94 11.36
3/13/2021 6:45:00 PM 11.95 53.51 0.888 8.21 5.73 11.14
3/13/2021 7:00:00 PM 11.83 53.294 0.886 8.18 5.38 10.94
3/13/2021 7:15:00 PM 11.72 53.096 0.885 8.15 5.48 10.77
3/13/2021 7:30:00 PM 11.59 52.862 0.885 8.12 5.81 10.58
3/13/2021 7:45:00 PM 11.45 52.61 0.884 8.09 5.57 10.4
3/13/2021 8:00:00 PM 11.32 52.376 0.883 8.07 5.93 10.23
3/13/2021 8:15:00 PM 11.19 52.142 0.882 8.04 5.82 10.08
3/13/2021 8:30:00 PM 11.07 51.926 0.883 8.02 6.04 9.96
3/13/2021 8:45:00 PM 10.95 51.71 0.884 8 6.44 9.86
3/13/2021 9:00:00 PM 10.84 51.512 0.884 7.99 6.65 9.77
3/13/2021 9:15:00 PM 10.74 51.332 0.884 7.97 7.19 9.69
3/13/2021 9:30:00 PM 10.64 51.152 0.884 7.96 6.75 9.62
3/13/2021 9:45:00 PM 10.54 50.972 0.884 7.95 8 9.58
3/13/2021 10:00:00 PM 10.45 50.81 0.885 7.94 6.7 9.55
3/13/2021 10:15:00 PM 10.36 50.648 0.886 7.93 6.64 9.53
3/13/2021 10:30:00 PM 10.27 50.486 0.886 7.92 6.94 9.52
3/13/2021 10:45:00 PM 10.2 50.36 0.886 7.92 7.95 9.51
3/13/2021 11:00:00 PM 10.12 50.216 0.885 7.91 7.55 9.5
3/13/2021 11:15:00 PM 10.05 50.09 0.885 7.91 7.25 9.5
3/13/2021 11:30:00 PM 9.99 49.982 0.885 7.91 7.55 9.5
3/13/2021 11:45:00 PM 9.94 49.892 0.884 7.9 7.2 9.5
3/14/2021 12:00:00 AM 9.88 49.784 0.882 7.9 6.73 9.51
3/14/2021 12:15:00 AM 9.82 49.676 0.88 7.9 7.08 9.54
3/14/2021 12:30:00 AM 9.76 49.568 0.877 7.9 7.11 9.55
3/14/2021 12:45:00 AM 9.71 49.478 0.875 7.9 6.8 9.56
3/14/2021 1:00:00 AM 9.66 49.388 0.872 7.9 7.12 9.58
3/14/2021 1:15:00 AM 9.62 49.316 0.871 7.9 6.77 9.6
3/14/2021 1:30:00 AM 9.58 49.244 0.87 7.9 7.53 9.61
3/14/2021 1:45:00 AM 9.54 49.172 0.868 7.9 7.04 9.62
3/14/2021 3:00:00 AM 9.3 48.74 0.858 7.91 7.07 9.69
3/14/2021 4:30:00 AM 9.23 48.614 0.857 7.9 7.93 9.71
3/14/2021 4:45:00 AM 9.19 48.542 0.854 7.91 7.67 9.73
3/14/2021 5:00:00 AM 9.14 48.452 0.85 7.91 7.92 9.74
3/14/2021 5:15:00 AM 9.1 48.38 0.845 7.91 8.3 9.76
3/14/2021 5:30:00 AM 9.06 48.308 0.842 7.91 8.19 9.77
3/14/2021 5:45:00 AM 9.02 48.236 0.839 7.91 7.83 9.79
3/14/2021 6:00:00 AM 8.98 48.164 0.834 7.91 8.29 9.81
3/14/2021 6:15:00 AM 8.95 48.11 0.828 7.91 7.37 9.83
3/14/2021 6:30:00 AM 8.92 48.056 0.824 7.92 7.11 9.85
3/14/2021 6:45:00 AM 8.89 48.002 0.821 7.92 7.39 9.86
3/14/2021 7:00:00 AM 8.87 47.966 0.82 7.92 7.21 9.87
3/14/2021 7:15:00 AM 8.85 47.93 0.82 7.92 6.93 9.87
3/14/2021 7:30:00 AM 8.83 47.894 0.821 7.92 6.9 9.9
3/14/2021 7:45:00 AM 8.81 47.858 0.821 7.92 6.32 9.95
3/14/2021 8:00:00 AM 8.8 47.84 0.821 7.93 5.93 10.03
3/14/2021 8:15:00 AM 8.79 47.822 0.821 7.93 5.88 10.12
3/14/2021 8:30:00 AM 8.8 47.84 0.822 7.94 5.64 10.23
3/14/2021 8:45:00 AM 8.83 47.894 0.821 7.95 5.41 10.38
3/14/2021 9:00:00 AM 8.87 47.966 0.82 7.97 5.49 10.58
3/14/2021 9:15:00 AM 8.92 48.056 0.818 7.98 5.41 10.82
3/14/2021 9:30:00 AM 8.99 48.182 0.816 8 5.17 11.08
3/14/2021 9:45:00 AM 9.07 48.326 0.814 8.03 4.83 11.37
3/14/2021 10:00:00 AM 9.15 48.47 0.813 8.05 4.98 11.65
3/14/2021 10:15:00 AM 9.26 48.668 0.812 8.08 5.04 11.94
3/14/2021 10:30:00 AM 9.39 48.902 0.814 8.1 5.64 12.29
3/14/2021 10:45:00 AM 9.56 49.208 0.819 8.14 5.07 12.63
3/14/2021 11:00:00 AM 9.77 49.586 0.824 8.18 5.14 13.11
3/14/2021 11:15:00 AM 9.99 49.982 0.827 8.22 4.9 13.49
3/14/2021 11:30:00 AM 10.19 50.342 0.831 8.25 4.78 13.69
3/14/2021 11:45:00 AM 10.4 50.72 0.835 8.28 4.72 13.95
3/14/2021 12:00:00 PM 10.61 51.098 0.84 8.32 4.71 14.25
3/14/2021 12:15:00 PM 10.85 51.53 0.846 8.36 4.45 14.58
3/14/2021 12:30:00 PM 11.08 51.944 0.85 8.4 5.2 14.89
3/14/2021 12:45:00 PM 11.32 52.376 0.854 8.44 4.69 15.12
3/14/2021 1:00:00 PM 11.57 52.826 0.858 8.48 4.65 15.37
3/14/2021 1:15:00 PM 11.81 53.258 0.861 8.51 4.89 15.55
3/14/2021 1:30:00 PM 12.04 53.672 0.863 8.55 4.85 15.72
3/14/2021 1:45:00 PM 12.24 54.032 0.865 8.57 4.95 15.82
3/14/2021 2:00:00 PM 12.41 54.338 0.869 8.59 4.96 15.87
3/14/2021 2:15:00 PM 12.57 54.626 0.873 8.61 5.07 15.9
3/14/2021 2:30:00 PM 12.73 54.914 0.875 8.62 5.08 15.95
3/14/2021 2:45:00 PM 12.88 55.184 0.876 8.64 4.92 15.95
3/14/2021 3:00:00 PM 13.01 55.418 0.879 8.64 4.95 15.9
3/14/2021 3:15:00 PM 13.11 55.598 0.882 8.65 4.83 15.82
3/14/2021 3:30:00 PM 13.18 55.724 0.883 8.65 5.06 15.73
3/14/2021 3:45:00 PM 13.22 55.796 0.883 8.65 5.04 15.63
3/14/2021 4:00:00 PM 13.24 55.832 0.883 8.65 5.14 15.45
3/14/2021 4:15:00 PM 13.24 55.832 0.884 8.64 5.03 15.27
3/14/2021 4:30:00 PM 13.2 55.76 0.884 8.63 5.09 15.04
3/14/2021 4:45:00 PM 13.17 55.706 0.883 8.62 5.04 14.8
3/14/2021 5:00:00 PM 13.12 55.616 0.884 8.6 5.16 14.52
3/14/2021 5:15:00 PM 13.05 55.49 0.886 8.58 5.58 14.24
3/14/2021 5:30:00 PM 12.97 55.346 0.888 8.55 5.96 13.92
3/14/2021 5:45:00 PM 12.87 55.166 0.888 8.52 5.85 13.57
3/14/2021 6:00:00 PM 12.75 54.95 0.888 8.49 5.25 13.21
3/14/2021 6:15:00 PM 12.65 54.77 0.888 8.45 5.54 12.85
3/14/2021 6:30:00 PM 12.52 54.536 0.888 8.42 5.97 12.5
3/14/2021 6:45:00 PM 12.37 54.266 0.889 8.38 5.86 12.21
3/14/2021 7:00:00 PM 12.23 54.014 0.889 8.34 5.91 11.93
3/14/2021 7:15:00 PM 12.09 53.762 0.888 8.31 6.26 11.67
3/14/2021 7:30:00 PM 11.96 53.528 0.888 8.27 6.65 11.42
3/14/2021 7:45:00 PM 11.83 53.294 0.887 8.24 6.84 11.21
3/14/2021 8:00:00 PM 11.7 53.06 0.888 8.21 6.32 11.02
3/14/2021 8:15:00 PM 11.56 52.808 0.887 8.18 6.21 10.85
3/14/2021 8:30:00 PM 11.41 52.538 0.887 8.15 6.81 10.67
3/14/2021 8:45:00 PM 11.27 52.286 0.887 8.12 6.72 10.48
3/14/2021 9:00:00 PM 11.12 52.016 0.888 8.09 6.91 10.3
3/14/2021 9:15:00 PM 10.97 51.746 0.889 8.07 8.47 10.15
3/14/2021 9:30:00 PM 10.82 51.476 0.89 8.05 7.2 10.02
3/14/2021 9:45:00 PM 10.68 51.224 0.89 8.02 6.83 9.9
3/14/2021 10:00:00 PM 10.55 50.99 0.889 8.01 7.27 9.8
3/14/2021 10:15:00 PM 10.41 50.738 0.89 7.99 7.35 9.72
3/14/2021 10:30:00 PM 10.28 50.504 0.89 7.98 6.82 9.67
3/14/2021 10:45:00 PM 10.14 50.252 0.891 7.97 7.25 9.63
3/14/2021 11:00:00 PM 10.01 50.018 0.891 7.96 7.61 9.59
3/14/2021 11:15:00 PM 9.87 49.766 0.89 7.95 7.11 9.59
3/14/2021 11:30:00 PM 9.74 49.532 0.892 7.94 7.41 9.58
3/14/2021 11:45:00 PM 9.63 49.334 0.895 7.93 7.27 9.58
3/15/2021 12:00:00 AM 9.52 49.136 0.899 7.93 7.45 9.58
3/15/2021 12:15:00 AM 9.41 48.938 0.901 7.92 7.08 9.59
3/15/2021 12:30:00 AM 9.31 48.758 0.904 7.92 7.57 9.58
3/15/2021 12:45:00 AM 9.2 48.56 0.905 7.92 7.31 9.6
3/15/2021 1:00:00 AM 9.11 48.398 0.904 7.92 7.02 9.62
3/15/2021 1:15:00 AM 9.01 48.218 0.9 7.91 7.34 9.65
3/15/2021 1:30:00 AM 8.92 48.056 0.897 7.91 8.18 9.68
3/15/2021 1:45:00 AM 8.84 47.912 0.894 7.91 7.69 9.7
3/15/2021 2:00:00 AM 8.75 47.75 0.892 7.91 7.92 9.72
3/15/2021 2:15:00 AM 8.65 47.57 0.89 7.91 7.72 9.75
3/15/2021 2:30:00 AM 8.56 47.408 0.887 7.92 7.05 9.78
3/15/2021 2:45:00 AM 8.48 47.264 0.882 7.92 7.14 9.82
3/15/2021 3:00:00 AM 8.4 47.12 0.876 7.92 7.07 9.85
3/15/2021 3:15:00 AM 8.32 46.976 0.871 7.92 7.47 9.89
3/15/2021 3:30:00 AM 8.25 46.85 0.867 7.92 7.38 9.93
3/15/2021 3:45:00 AM 8.18 46.724 0.862 7.92 7.28 9.96
3/15/2021 4:00:00 AM 8.12 46.616 0.858 7.93 7.18 9.98
3/15/2021 4:15:00 AM 8.05 46.49 0.854 7.93 7.28 10
3/15/2021 4:30:00 AM 7.97 46.346 0.849 7.93 7.59 10.04
3/15/2021 4:45:00 AM 7.9 46.22 0.846 7.93 7.71 10.07
3/15/2021 5:00:00 AM 7.84 46.112 0.843 7.93 7.57 10.1
3/15/2021 5:15:00 AM 7.78 46.004 0.84 7.93 7.76 10.13
3/15/2021 5:30:00 AM 7.74 45.932 0.837 7.94 7.54 10.15
3/15/2021 5:45:00 AM 7.7 45.86 0.833 7.94 7.55 10.17
3/15/2021 6:00:00 AM 7.65 45.77 0.83 7.94 7.57 10.2
3/15/2021 6:15:00 AM 7.6 45.68 0.828 7.94 7.46 10.22
3/15/2021 6:30:00 AM 7.55 45.59 0.826 7.94 7.2 10.24
3/15/2021 6:45:00 AM 7.51 45.518 0.825 7.94 7.5 10.25
3/15/2021 7:00:00 AM 7.48 45.464 0.825 7.94 7.3 10.26
3/15/2021 7:15:00 AM 7.45 45.41 0.825 7.94 7.25 10.28
3/15/2021 7:30:00 AM 7.44 45.392 0.825 7.94 7.1 10.31
3/15/2021 7:45:00 AM 7.43 45.374 0.827 7.95 6.95 10.36
3/15/2021 8:00:00 AM 7.42 45.356 0.828 7.95 6.6 10.43
3/15/2021 8:15:00 AM 7.42 45.356 0.83 7.96 6.3 10.51
3/15/2021 8:30:00 AM 7.42 45.356 0.83 7.96 6.59 10.62
3/15/2021 8:45:00 AM 7.43 45.374 0.831 7.97 6.11 10.77
3/15/2021 9:00:00 AM 7.44 45.392 0.831 7.98 5.78 10.97
3/15/2021 9:15:00 AM 7.48 45.464 0.83 8 5.53 11.2
3/15/2021 9:30:00 AM 7.52 45.536 0.829 8.02 5.79 11.46
3/15/2021 9:45:00 AM 7.59 45.662 0.83 8.04 5.65 11.74
3/15/2021 10:00:00 AM 7.69 45.842 0.833 8.06 5.41 12.02
3/15/2021 10:15:00 AM 7.81 46.058 0.838 8.08 5.48 12.3
3/15/2021 10:30:00 AM 7.95 46.31 0.845 8.11 5.67 12.6
3/15/2021 10:45:00 AM 8.12 46.616 0.852 8.13 5.48 12.89
3/15/2021 11:00:00 AM 8.29 46.922 0.859 8.16 5.55 13.22
3/15/2021 11:15:00 AM 8.45 47.21 0.865 8.19 5.38 13.54
3/15/2021 11:30:00 AM 8.63 47.534 0.87 8.23 5.44 13.85
3/15/2021 11:45:00 AM 8.82 47.876 0.874 8.27 5.31 14.2
3/15/2021 12:00:00 PM 9.04 48.272 0.875 8.31 5.34 14.55
3/15/2021 12:15:00 PM 9.24 48.632 0.873 8.35 5.65 14.89
3/15/2021 12:30:00 PM 9.47 49.046 0.872 8.4 5.41 15.24
3/15/2021 12:45:00 PM 9.71 49.478 0.87 8.44 5.27 15.56
3/15/2021 1:00:00 PM 9.96 49.928 0.869 8.48 5.54 15.83
3/15/2021 1:15:00 PM 10.18 50.324 0.867 8.52 5.48 16.07
3/15/2021 1:30:00 PM 10.39 50.702 0.866 8.56 5.38 16.25
3/15/2021 1:45:00 PM 10.61 51.098 0.865 8.58 5.55 16.38
3/15/2021 2:00:00 PM 10.8 51.44 0.866 8.61 5.49 16.49
3/15/2021 2:15:00 PM 10.99 51.782 0.865 8.63 5.11 16.55
3/15/2021 2:30:00 PM 11.15 52.07 0.864 8.65 5.15 16.63
3/15/2021 2:45:00 PM 11.3 52.34 0.861 8.66 5.25 16.63
3/15/2021 3:00:00 PM 11.4 52.52 0.859 8.68 5.36 16.64
3/15/2021 3:15:00 PM 11.5 52.7 0.856 8.69 5.15 16.58
3/15/2021 3:30:00 PM 11.56 52.808 0.854 8.69 5.1 16.48
3/15/2021 3:45:00 PM 11.63 52.934 0.853 8.7 5.21 16.43
3/15/2021 4:00:00 PM 11.64 52.952 0.852 8.7 5.21 16.17
3/15/2021 4:15:00 PM 11.67 53.006 0.852 8.69 5.39 16.03
3/15/2021 4:30:00 PM 11.69 53.042 0.851 8.69 5.23 15.87
3/15/2021 4:45:00 PM 11.68 53.024 0.849 8.67 5.27 15.63
3/15/2021 5:00:00 PM 11.65 52.97 0.848 8.66 5.68 15.35
3/15/2021 5:15:00 PM 11.61 52.898 0.848 8.64 5.23 15.06
3/15/2021 5:30:00 PM 11.56 52.808 0.848 8.62 5.42 14.77
3/15/2021 5:45:00 PM 11.5 52.7 0.849 8.59 5.48 14.47
3/15/2021 6:00:00 PM 11.44 52.592 0.849 8.56 5.49 14.14
3/15/2021 6:15:00 PM 11.38 52.484 0.85 8.53 5.48 13.8
3/15/2021 6:30:00 PM 11.31 52.358 0.851 8.49 5.62 13.43
3/15/2021 6:45:00 PM 11.23 52.214 0.851 8.45 5.66 13.08
3/15/2021 7:00:00 PM 11.17 52.106 0.853 8.42 5.76 12.76
3/15/2021 7:15:00 PM 11.09 51.962 0.855 8.38 6.14 12.45
3/15/2021 7:30:00 PM 11 51.8 0.857 8.34 5.99 12.16
3/15/2021 7:45:00 PM 10.9 51.62 0.858 8.3 6.48 11.91
3/15/2021 8:00:00 PM 10.79 51.422 0.859 8.27 6.84 11.68
3/15/2021 8:15:00 PM 10.68 51.224 0.86 8.23 6.58 11.44
3/15/2021 8:30:00 PM 10.57 51.026 0.863 8.2 6.55 11.22
3/15/2021 8:45:00 PM 10.45 50.81 0.866 8.17 6.49 11
3/15/2021 9:00:00 PM 10.34 50.612 0.869 8.13 7.04 10.79
3/15/2021 9:15:00 PM 10.23 50.414 0.872 8.1 6.79 10.59
3/15/2021 9:30:00 PM 10.12 50.216 0.875 8.07 6.86 10.41
3/15/2021 9:45:00 PM 10.02 50.036 0.878 8.05 7.39 10.24
3/15/2021 10:00:00 PM 9.92 49.856 0.88 8.02 6.97 10.1
3/15/2021 10:15:00 PM 9.84 49.712 0.882 8 7.32 9.99
3/15/2021 10:30:00 PM 9.77 49.586 0.885 7.99 7.2 9.9
3/15/2021 10:45:00 PM 9.7 49.46 0.887 7.97 7.12 9.82
3/15/2021 11:00:00 PM 9.64 49.352 0.889 7.96 7 9.77
3/15/2021 11:15:00 PM 9.58 49.244 0.891 7.95 7.37 9.73
3/15/2021 11:30:00 PM 9.53 49.154 0.892 7.94 7.43 9.69
3/15/2021 11:45:00 PM 9.49 49.082 0.896 7.93 7.35 9.65
3/16/2021 12:00:00 AM 9.45 49.01 0.899 7.93 7.59 9.62
3/16/2021 12:15:00 AM 9.42 48.956 0.9 7.92 7.61 9.6
3/16/2021 12:30:00 AM 9.39 48.902 0.901 7.92 7.34 9.58
3/16/2021 12:45:00 AM 9.36 48.848 0.901 7.91 7.37 9.56
3/16/2021 1:00:00 AM 9.34 48.812 0.899 7.91 7.09 9.55
3/16/2021 1:15:00 AM 9.31 48.758 0.897 7.91 7.55 9.55
3/16/2021 1:30:00 AM 9.29 48.722 0.895 7.91 7.44 9.54
3/16/2021 1:45:00 AM 9.27 48.686 0.892 7.9 7.21 9.55
3/16/2021 2:00:00 AM 9.25 48.65 0.889 7.9 7.18 9.55
3/16/2021 2:15:00 AM 9.24 48.632 0.886 7.9 7.54 9.56
3/16/2021 2:30:00 AM 9.22 48.596 0.882 7.9 7.2 9.56
3/16/2021 2:45:00 AM 9.18 48.524 0.879 7.9 7.3 9.57
3/16/2021 3:00:00 AM 9.15 48.47 0.876 7.9 7.96 9.57
3/16/2021 3:15:00 AM 9.12 48.416 0.874 7.9 7.46 9.58
3/16/2021 3:30:00 AM 9.1 48.38 0.875 7.9 7.24 9.58
3/16/2021 3:45:00 AM 9.09 48.362 0.876 7.9 7.66 9.58
3/16/2021 4:00:00 AM 9.08 48.344 0.874 7.9 7.85 9.58
3/16/2021 4:15:00 AM 9.06 48.308 0.87 7.9 7.32 9.58
3/16/2021 4:30:00 AM 9.04 48.272 0.86 7.9 7.94 9.6
3/16/2021 4:45:00 AM 9 48.2 0.85 7.91 8.62 9.63
3/16/2021 5:00:00 AM 8.96 48.128 0.841 7.91 7.92 9.66
3/16/2021 5:15:00 AM 8.93 48.074 0.834 7.91 8.24 9.68
3/16/2021 5:30:00 AM 8.89 48.002 0.828 7.92 8.53 9.7
3/16/2021 5:45:00 AM 8.87 47.966 0.824 7.92 8.19 9.72
3/16/2021 6:00:00 AM 8.85 47.93 0.822 7.92 8.01 9.73
3/16/2021 6:15:00 AM 8.83 47.894 0.819 7.92 8.61 9.75
3/16/2021 6:30:00 AM 8.82 47.876 0.816 7.92 7.38 9.76
3/16/2021 6:45:00 AM 8.81 47.858 0.815 7.92 7.51 9.76
3/16/2021 7:00:00 AM 8.8 47.84 0.815 7.92 7.48 9.77
3/16/2021 7:15:00 AM 8.8 47.84 0.815 7.93 7.39 9.77
3/16/2021 7:30:00 AM 8.79 47.822 0.815 7.93 6.93 9.78
3/16/2021 7:45:00 AM 8.79 47.822 0.816 7.93 6.83 9.79
3/16/2021 8:00:00 AM 8.79 47.822 0.818 7.93 6.73 9.81
3/16/2021 8:15:00 AM 8.78 47.804 0.819 7.93 6.41 9.85
3/16/2021 8:30:00 AM 8.79 47.822 0.82 7.93 6.26 9.9
3/16/2021 8:45:00 AM 8.79 47.822 0.821 7.94 6.22 9.95
3/16/2021 9:00:00 AM 8.79 47.822 0.82 7.94 6.35 10.08
3/16/2021 9:15:00 AM 8.81 47.858 0.82 7.95 5.87 10.2
3/16/2021 9:30:00 AM 8.82 47.876 0.821 7.96 5.69 10.37
3/16/2021 9:45:00 AM 8.84 47.912 0.821 7.97 5.81 10.52
3/16/2021 10:00:00 AM 8.85 47.93 0.822 7.99 5.64 10.73
3/16/2021 10:15:00 AM 8.88 47.984 0.824 8 5.55 10.91
3/16/2021 10:30:00 AM 8.92 48.056 0.829 8.01 5.22 11.06
3/16/2021 10:45:00 AM 8.96 48.128 0.837 8.03 5.53 11.3
3/16/2021 11:00:00 AM 9.01 48.218 0.844 8.05 5.25 11.56
3/16/2021 11:15:00 AM 9.08 48.344 0.851 8.07 5.67 11.86
3/16/2021 11:30:00 AM 9.11 48.398 0.858 8.09 5.25 11.94
3/16/2021 11:45:00 AM 9.16 48.488 0.862 8.1 5.25 12.09
3/16/2021 12:00:00 PM 9.2 48.56 0.865 8.12 5.43 12.34
3/16/2021 12:15:00 PM 9.26 48.668 0.867 8.15 5.26 12.67
3/16/2021 12:30:00 PM 9.32 48.776 0.867 8.18 5.54 12.98
3/16/2021 12:45:00 PM 9.37 48.866 0.866 8.21 5.42 13.11
3/16/2021 1:00:00 PM 9.42 48.956 0.863 8.23 5.29 13.28
3/16/2021 1:15:00 PM 9.47 49.046 0.861 8.26 5.53 13.54
3/16/2021 1:30:00 PM 9.51 49.118 0.859 8.28 5.55 13.64
3/16/2021 1:45:00 PM 9.54 49.172 0.858 8.29 5.66 13.62
3/16/2021 2:00:00 PM 9.56 49.208 0.859 8.29 5.66 13.52
3/16/2021 2:15:00 PM 9.57 49.226 0.861 8.29 5.61 13.48
3/16/2021 2:30:00 PM 9.59 49.262 0.864 8.3 5.48 13.44
3/16/2021 2:45:00 PM 9.62 49.316 0.869 8.29 5.68 13.34
3/16/2021 3:00:00 PM 9.65 49.37 0.873 8.29 5.73 13.23
3/16/2021 3:15:00 PM 9.68 49.424 0.877 8.28 5.66 13.15
3/16/2021 3:30:00 PM 9.72 49.496 0.878 8.29 5.84 13.16
3/16/2021 3:45:00 PM 9.76 49.568 0.877 8.29 5.9 13.22
3/16/2021 4:00:00 PM 9.81 49.658 0.876 8.31 5.66 13.32
3/16/2021 4:15:00 PM 9.85 49.73 0.875 8.31 5.79 13.33
3/16/2021 4:30:00 PM 9.88 49.784 0.875 8.32 5.98 13.34
3/16/2021 4:45:00 PM 9.9 49.82 0.874 8.31 5.97 13.28
3/16/2021 5:00:00 PM 9.91 49.838 0.873 8.3 5.7 13.15
3/16/2021 5:15:00 PM 9.93 49.874 0.872 8.29 5.69 12.99
3/16/2021 5:30:00 PM 9.93 49.874 0.871 8.28 5.84 12.8
3/16/2021 5:45:00 PM 9.92 49.856 0.87 8.26 5.95 12.65
3/16/2021 6:00:00 PM 9.92 49.856 0.868 8.25 5.79 12.53
3/16/2021 6:15:00 PM 9.91 49.838 0.866 8.24 6.14 12.36
3/16/2021 6:30:00 PM 9.91 49.838 0.864 8.23 5.69 12.28
3/16/2021 6:45:00 PM 9.89 49.802 0.862 8.22 6.32 12.13
3/16/2021 7:00:00 PM 9.88 49.784 0.861 8.21 6.55 11.97
3/16/2021 7:15:00 PM 9.86 49.748 0.858 8.19 6.22 11.79
3/16/2021 7:30:00 PM 9.84 49.712 0.857 8.17 5.98 11.61
3/16/2021 7:45:00 PM 9.83 49.694 0.856 8.15 6.34 11.43
3/16/2021 8:00:00 PM 9.81 49.658 0.855 8.14 6.38 11.24
3/16/2021 8:15:00 PM 9.79 49.622 0.854 8.11 6.45 11.06
3/16/2021 8:30:00 PM 9.76 49.568 0.854 8.09 6.42 10.88
3/16/2021 8:45:00 PM 9.75 49.55 0.855 8.07 6.42 10.69
3/16/2021 9:00:00 PM 9.74 49.532 0.855 8.05 6.35 10.53
3/16/2021 9:15:00 PM 9.74 49.532 0.856 8.04 6.6 10.38
3/16/2021 9:30:00 PM 9.73 49.514 0.858 8.02 6.79 10.26
3/16/2021 9:45:00 PM 9.73 49.514 0.861 8.01 7.41 10.13
3/16/2021 10:00:00 PM 9.72 49.496 0.864 7.99 6.89 10.03
3/16/2021 10:15:00 PM 9.72 49.496 0.868 7.98 6.77 9.93
3/16/2021 10:30:00 PM 9.73 49.514 0.87 7.97 6.95 9.85
3/16/2021 10:45:00 PM 9.72 49.496 0.872 7.96 6.93 9.8
3/16/2021 11:00:00 PM 9.72 49.496 0.874 7.95 6.96 9.74
3/16/2021 11:15:00 PM 9.72 49.496 0.878 7.95 7.13 9.7
3/16/2021 11:30:00 PM 9.72 49.496 0.881 7.94 7.11 9.67
3/16/2021 11:45:00 PM 9.72 49.496 0.883 7.94 7.15 9.64
3/17/2021 12:00:00 AM 9.72 49.496 0.884 7.93 6.7 9.61
3/17/2021 12:15:00 AM 9.71 49.478 0.887 7.93 7.05 9.6
3/17/2021 12:30:00 AM 9.71 49.478 0.889 7.93 6.96 9.58
3/17/2021 12:45:00 AM 9.71 49.478 0.893 7.92 7.19 9.57
3/17/2021 1:00:00 AM 9.71 49.478 0.895 7.92 7.42 9.55
3/17/2021 1:15:00 AM 9.7 49.46 0.895 7.92 7.42 9.55
3/17/2021 1:30:00 AM 9.69 49.442 0.894 7.92 7.44 9.54
3/17/2021 1:45:00 AM 9.69 49.442 0.892 7.92 6.93 9.55
3/17/2021 2:00:00 AM 9.67 49.406 0.889 7.92 7 9.55
3/17/2021 2:15:00 AM 9.66 49.388 0.887 7.92 7.13 9.56
3/17/2021 2:30:00 AM 9.65 49.37 0.885 7.92 7.02 9.55
3/17/2021 2:45:00 AM 9.64 49.352 0.882 7.92 7.11 9.56
3/17/2021 3:00:00 AM 9.63 49.334 0.879 7.93 7.38 9.56
3/17/2021 3:15:00 AM 9.62 49.316 0.875 7.93 7.64 9.58
3/17/2021 3:30:00 AM 9.61 49.298 0.871 7.93 6.9 9.59
3/17/2021 3:45:00 AM 9.6 49.28 0.868 7.93 7.14 9.6
3/17/2021 4:00:00 AM 9.59 49.262 0.865 7.93 7.66 9.6
3/17/2021 4:15:00 AM 9.59 49.262 0.861 7.93 7.63 9.61
3/17/2021 4:30:00 AM 9.57 49.226 0.857 7.93 7.71 9.62
3/17/2021 4:45:00 AM 9.56 49.208 0.854 7.93 7.29 9.63
3/17/2021 5:00:00 AM 9.56 49.208 0.85 7.93 8.57 9.63
3/17/2021 5:15:00 AM 9.55 49.19 0.846 7.94 7.58 9.64
3/17/2021 5:30:00 AM 9.54 49.172 0.842 7.94 7.21 9.64
3/17/2021 5:45:00 AM 9.53 49.154 0.839 7.94 7.17 9.66
3/17/2021 6:00:00 AM 9.52 49.136 0.836 7.94 7.33 9.67
3/17/2021 6:15:00 AM 9.51 49.118 0.835 7.94 7.32 9.67
3/17/2021 6:30:00 AM 9.51 49.118 0.833 7.94 7.42 9.68
3/17/2021 6:45:00 AM 9.5 49.1 0.833 7.94 7.25 9.68
3/17/2021 7:00:00 AM 9.5 49.1 0.834 7.94 7.11 9.68
3/17/2021 7:15:00 AM 9.5 49.1 0.837 7.94 6.94 9.68
3/17/2021 7:30:00 AM 9.51 49.118 0.84 7.94 6.79 9.68
3/17/2021 7:45:00 AM 9.52 49.136 0.841 7.94 6.67 9.71
3/17/2021 8:00:00 AM 9.54 49.172 0.843 7.94 6.31 9.74
3/17/2021 8:15:00 AM 9.55 49.19 0.845 7.95 6.47 9.81
3/17/2021 8:30:00 AM 9.57 49.226 0.846 7.95 6.29 9.92
3/17/2021 8:45:00 AM 9.59 49.262 0.848 7.96 6.04 10.03
3/17/2021 9:00:00 AM 9.62 49.316 0.849 7.97 5.65 10.15
3/17/2021 9:15:00 AM 9.65 49.37 0.848 7.98 5.54 10.34
3/17/2021 9:30:00 AM 9.69 49.442 0.847 7.99 5.51 10.52
3/17/2021 9:45:00 AM 9.73 49.514 0.848 8 5.38 10.64
3/17/2021 10:00:00 AM 9.76 49.568 0.849 8.02 5.41 10.8
3/17/2021 10:15:00 AM 9.8 49.64 0.853 8.03 5.59 10.93
3/17/2021 10:30:00 AM 9.86 49.748 0.859 8.04 5.36 11.14
3/17/2021 10:45:00 AM 9.93 49.874 0.866 8.06 5.45 11.44
3/17/2021 11:00:00 AM 10.01 50.018 0.875 8.08 5.51 11.7
3/17/2021 11:15:00 AM 10.08 50.144 0.882 8.1 5.28 11.86
3/17/2021 11:30:00 AM 10.15 50.27 0.888 8.12 5.22 12.04
3/17/2021 11:45:00 AM 10.23 50.414 0.892 8.14 5.2 12.28
3/17/2021 12:00:00 PM 10.31 50.558 0.895 8.16 5.35 12.56
3/17/2021 12:15:00 PM 10.37 50.666 0.897 8.18 5.46 12.74
3/17/2021 12:30:00 PM 10.45 50.81 0.897 8.21 5.45 13.01
3/17/2021 12:45:00 PM 10.52 50.936 0.897 8.24 5.5 13.22
3/17/2021 1:00:00 PM 10.59 51.062 0.894 8.26 5.34 13.36
3/17/2021 1:15:00 PM 10.66 51.188 0.891 8.28 5.33 13.56
3/17/2021 1:30:00 PM 10.71 51.278 0.889 8.29 5.49 13.52
3/17/2021 1:45:00 PM 10.78 51.404 0.888 8.31 5.3 13.64
3/17/2021 2:00:00 PM 10.83 51.494 0.888 8.33 5.34 13.72
3/17/2021 2:15:00 PM 10.91 51.638 0.889 8.35 5.61 13.95
3/17/2021 2:30:00 PM 11 51.8 0.89 8.38 5.43 14.13
3/17/2021 2:45:00 PM 11.06 51.908 0.892 8.38 5.53 13.99
3/17/2021 3:00:00 PM 11.12 52.016 0.892 8.38 5.56 14
3/17/2021 3:15:00 PM 11.16 52.088 0.892 8.39 5.62 13.99
3/17/2021 3:30:00 PM 11.2 52.16 0.893 8.38 5.62 13.76
3/17/2021 3:45:00 PM 11.24 52.232 0.898 8.37 5.61 13.59
3/17/2021 4:00:00 PM 11.27 52.286 0.903 8.37 5.51 13.44
3/17/2021 4:15:00 PM 11.32 52.376 0.907 8.36 5.81 13.34
3/17/2021 4:30:00 PM 11.35 52.43 0.909 8.34 5.57 13.17
3/17/2021 4:45:00 PM 11.38 52.484 0.909 8.33 5.54 13.02
3/17/2021 5:00:00 PM 11.4 52.52 0.908 8.32 5.73 12.9
3/17/2021 5:15:00 PM 11.42 52.556 0.906 8.31 5.52 12.73
3/17/2021 5:30:00 PM 11.42 52.556 0.906 8.29 6.07 12.5
3/17/2021 5:45:00 PM 11.43 52.574 0.905 8.27 5.7 12.28
3/17/2021 6:00:00 PM 11.41 52.538 0.904 8.25 5.71 12.02
3/17/2021 6:15:00 PM 11.4 52.52 0.902 8.22 5.84 11.76
3/17/2021 6:30:00 PM 11.38 52.484 0.9 8.2 5.81 11.51
3/17/2021 6:45:00 PM 11.35 52.43 0.896 8.18 5.8 11.27
3/17/2021 7:00:00 PM 11.33 52.394 0.89 8.15 6.22 11.07
3/17/2021 7:15:00 PM 11.3 52.34 0.885 8.13 6.05 10.87
3/17/2021 7:30:00 PM 11.27 52.286 0.881 8.11 6.49 10.69
3/17/2021 7:45:00 PM 11.25 52.25 0.878 8.1 6.42 10.54
3/17/2021 8:00:00 PM 11.22 52.196 0.877 8.08 6.6 10.39
3/17/2021 8:15:00 PM 11.2 52.16 0.877 8.06 6.61 10.24
3/17/2021 8:30:00 PM 11.17 52.106 0.878 8.04 6.82 10.09
3/17/2021 8:45:00 PM 11.15 52.07 0.881 8.02 6.53 9.95
3/17/2021 9:00:00 PM 11.13 52.034 0.886 8 6.93 9.81
3/17/2021 9:15:00 PM 11.11 51.998 0.893 7.98 6.7 9.67
3/17/2021 9:30:00 PM 11.09 51.962 0.896 7.97 6.71 9.57
3/17/2021 9:45:00 PM 11.07 51.926 0.898 7.96 6.93 9.47
3/17/2021 10:00:00 PM 11.05 51.89 0.901 7.95 7.31 9.4
3/17/2021 10:15:00 PM 11.04 51.872 0.904 7.94 6.77 9.33
3/17/2021 10:30:00 PM 11.03 51.854 0.907 7.93 6.91 9.28
3/17/2021 10:45:00 PM 11.02 51.836 0.909 7.93 7.23 9.23
3/17/2021 11:00:00 PM 11 51.8 0.912 7.92 6.81 9.19
3/17/2021 11:15:00 PM 10.99 51.782 0.914 7.92 7.46 9.16
3/17/2021 11:30:00 PM 10.99 51.782 0.919 7.92 7.09 9.14
3/17/2021 11:45:00 PM 10.98 51.764 0.923 7.91 7.18 9.11
3/18/2021 12:00:00 AM 10.97 51.746 0.925 7.91 7 9.09
3/18/2021 12:15:00 AM 10.96 51.728 0.925 7.91 7.25 9.08
3/18/2021 12:30:00 AM 10.95 51.71 0.926 7.91 7.88 9.08
3/18/2021 12:45:00 AM 10.95 51.71 0.925 7.9 7.28 9.07
3/18/2021 1:00:00 AM 10.94 51.692 0.926 7.9 7.51 9.06
3/18/2021 1:15:00 AM 10.93 51.674 0.926 7.9 7 9.05
3/18/2021 1:30:00 AM 10.92 51.656 0.924 7.9 7.46 9.05
3/18/2021 1:45:00 AM 10.91 51.638 0.92 7.9 7.12 9.05
3/18/2021 2:00:00 AM 10.9 51.62 0.916 7.9 7.3 9.05
3/18/2021 2:15:00 AM 10.89 51.602 0.912 7.9 7.37 9.07
3/18/2021 2:30:00 AM 10.87 51.566 0.908 7.91 8.37 9.07
3/18/2021 2:45:00 AM 10.86 51.548 0.906 7.91 7.29 9.07
3/18/2021 3:00:00 AM 10.85 51.53 0.903 7.91 8.16 9.08
3/18/2021 3:15:00 AM 10.84 51.512 0.899 7.91 8.21 9.09
3/18/2021 3:30:00 AM 10.83 51.494 0.893 7.91 7.53 9.09
3/18/2021 3:45:00 AM 10.81 51.458 0.886 7.91 7.3 9.11
3/18/2021 4:00:00 AM 10.8 51.44 0.879 7.91 7.16 9.12
3/18/2021 4:15:00 AM 10.78 51.404 0.872 7.91 8.15 9.13
3/18/2021 4:30:00 AM 10.76 51.368 0.865 7.92 7.47 9.15
3/18/2021 4:45:00 AM 10.75 51.35 0.859 7.92 7.66 9.15
3/18/2021 5:00:00 AM 10.73 51.314 0.855 7.92 7.22 9.16
3/18/2021 5:15:00 AM 10.72 51.296 0.852 7.92 7.35 9.17
3/18/2021 5:30:00 AM 10.71 51.278 0.849 7.92 7.18 9.17
3/18/2021 5:45:00 AM 10.69 51.242 0.846 7.92 7.53 9.18
3/18/2021 6:00:00 AM 10.68 51.224 0.842 7.93 7.43 9.18
3/18/2021 6:15:00 AM 10.67 51.206 0.839 7.93 8.4 9.2
3/18/2021 6:30:00 AM 10.65 51.17 0.837 7.93 7.2 9.2
3/18/2021 6:45:00 AM 10.64 51.152 0.834 7.93 7.18 9.21
3/18/2021 7:00:00 AM 10.63 51.134 0.833 7.93 7.24 9.22
3/18/2021 7:15:00 AM 10.62 51.116 0.833 7.93 7.05 9.22
3/18/2021 7:30:00 AM 10.62 51.116 0.833 7.93 7.22 9.23
3/18/2021 7:45:00 AM 10.61 51.098 0.832 7.93 6.62 9.25
3/18/2021 8:00:00 AM 10.61 51.098 0.831 7.93 6.53 9.26
3/18/2021 8:15:00 AM 10.61 51.098 0.831 7.93 6.21 9.3
3/18/2021 8:30:00 AM 10.61 51.098 0.831 7.93 6.21 9.32
3/18/2021 8:45:00 AM 10.61 51.098 0.83 7.94 6.25 9.34
3/18/2021 9:00:00 AM 10.6 51.08 0.827 7.94 6.26 9.39
3/18/2021 9:15:00 AM 10.59 51.062 0.825 7.94 6.34 9.46
3/18/2021 9:30:00 AM 10.58 51.044 0.821 7.94 6.86 9.54
3/18/2021 9:45:00 AM 10.58 51.044 0.819 7.95 6.49 9.6
3/18/2021 10:00:00 AM 10.59 51.062 0.818 7.95 6.19 9.72
3/18/2021 10:15:00 AM 10.59 51.062 0.819 7.95 6.59 9.74
3/18/2021 10:30:00 AM 10.6 51.08 0.821 7.96 6.78 9.81
3/18/2021 10:45:00 AM 10.61 51.098 0.826 7.96 7.22 9.88
3/18/2021 11:00:00 AM 10.62 51.116 0.829 7.96 9.1 9.99
3/18/2021 11:15:00 AM 10.66 51.188 0.837 7.96 9.53 10
3/18/2021 11:30:00 AM 10.69 51.242 0.846 7.95 11.87 10.02
3/18/2021 11:45:00 AM 10.73 51.314 0.851 7.95 9.76 10.08
3/18/2021 12:00:00 PM 10.76 51.368 0.851 7.95 11.12 10.13
3/18/2021 12:15:00 PM 10.79 51.422 0.846 7.95 10.41 10.25
3/18/2021 12:30:00 PM 10.8 51.44 0.835 7.94 12.64 10.31
3/18/2021 12:45:00 PM 10.79 51.422 0.821 7.93 13.19 10.34
3/18/2021 1:00:00 PM 10.77 51.386 0.809 7.91 13.43 10.33
3/18/2021 1:15:00 PM 10.74 51.332 0.797 7.89 12.39 10.25
3/18/2021 1:30:00 PM 10.69 51.242 0.779 7.86 12.58 10.2
3/18/2021 1:45:00 PM 10.63 51.134 0.757 7.84 14.01 10.17
3/18/2021 2:00:00 PM 10.57 51.026 0.739 7.83 12.86 10.14
3/18/2021 2:15:00 PM 10.53 50.954 0.727 7.82 12.04 10.14
3/18/2021 2:30:00 PM 10.51 50.918 0.719 7.81 11.28 10.17
3/18/2021 2:45:00 PM 10.48 50.864 0.714 7.81 11.88 10.19
3/18/2021 3:00:00 PM 10.47 50.846 0.712 7.81 11.33 10.22
3/18/2021 3:15:00 PM 10.45 50.81 0.712 7.82 11.33 10.24
3/18/2021 3:30:00 PM 10.44 50.792 0.712 7.82 13.19 10.24
3/18/2021 3:45:00 PM 10.43 50.774 0.712 7.82 11.92 10.26
3/18/2021 4:00:00 PM 10.44 50.792 0.712 7.83 11.01 10.26
3/18/2021 4:15:00 PM 10.44 50.792 0.712 7.83 10.86 10.26
3/18/2021 4:30:00 PM 10.46 50.828 0.717 7.84 11.03 10.31
3/18/2021 4:45:00 PM 10.48 50.864 0.722 7.84 10.93 10.28
3/18/2021 5:00:00 PM 10.5 50.9 0.724 7.85 12.18 10.26
3/18/2021 5:15:00 PM 10.5 50.9 0.725 7.85 20.87 10.25
3/18/2021 5:30:00 PM 10.5 50.9 0.725 7.84 14.67 10.21
3/18/2021 5:45:00 PM 10.5 50.9 0.726 7.84 13.03 10.16
3/18/2021 6:00:00 PM 10.51 50.918 0.724 7.84 14.13 10.13
3/18/2021 6:15:00 PM 10.5 50.9 0.717 7.83 13.15 10.1
3/18/2021 6:30:00 PM 10.49 50.882 0.711 7.83 13.76 10.06
3/18/2021 6:45:00 PM 10.48 50.864 0.706 7.82 13.07 10.01
3/18/2021 7:00:00 PM 10.47 50.846 0.704 7.82 16.22 9.95
3/18/2021 7:15:00 PM 10.44 50.792 0.7 7.8 16.66 9.91
3/18/2021 7:30:00 PM 10.41 50.738 0.697 7.79 16.5 9.85
3/18/2021 7:45:00 PM 10.39 50.702 0.697 7.79 16.69 9.81
3/18/2021 8:00:00 PM 10.37 50.666 0.696 7.78 16.28 9.78
3/18/2021 8:15:00 PM 10.35 50.63 0.693 7.78 14.58 9.76
3/18/2021 8:30:00 PM 10.33 50.594 0.693 7.78 14.68 9.73
3/18/2021 8:45:00 PM 10.32 50.576 0.696 7.78 13.41 9.71
3/18/2021 9:00:00 PM 10.31 50.558 0.699 7.77 13.93 9.68
3/18/2021 9:15:00 PM 10.29 50.522 0.7 7.77 13.86 9.64
3/18/2021 9:30:00 PM 10.26 50.468 0.699 7.77 12.71 9.61
3/18/2021 9:45:00 PM 10.23 50.414 0.701 7.76 13.67 9.59
3/18/2021 10:00:00 PM 10.21 50.378 0.705 7.76 12.79 9.59
3/18/2021 10:15:00 PM 10.19 50.342 0.713 7.76 12.3 9.59
3/18/2021 10:30:00 PM 10.18 50.324 0.722 7.77 11.56 9.58
3/18/2021 10:45:00 PM 10.18 50.324 0.734 7.77 11.91 9.57
3/18/2021 11:00:00 PM 10.2 50.36 0.747 7.78 11.69 9.57
3/18/2021 11:15:00 PM 10.21 50.378 0.757 7.79 11.17 9.56
3/18/2021 11:30:00 PM 10.22 50.396 0.766 7.79 11.25 9.57
3/18/2021 11:45:00 PM 10.23 50.414 0.774 7.8 11.11 9.57
3/19/2021 12:00:00 AM 10.24 50.432 0.779 7.8 10.95 9.57
3/19/2021 12:15:00 AM 10.24 50.432 0.782 7.81 10.28 9.57
3/19/2021 12:30:00 AM 10.23 50.414 0.782 7.81 9.89 9.58
3/19/2021 12:45:00 AM 10.23 50.414 0.782 7.81 9.96 9.59
3/19/2021 1:00:00 AM 10.21 50.378 0.783 7.82 9.63 9.59
3/19/2021 1:15:00 AM 10.19 50.342 0.783 7.82 9.5 9.59
3/19/2021 1:30:00 AM 10.17 50.306 0.782 7.82 9.42 9.58
3/19/2021 1:45:00 AM 10.15 50.27 0.778 7.81 8.93 9.58
3/19/2021 2:00:00 AM 10.11 50.198 0.773 7.81 9.29 9.58
3/19/2021 2:15:00 AM 10.07 50.126 0.768 7.81 8.8 9.58
3/19/2021 2:30:00 AM 10.03 50.054 0.765 7.81 9.23 9.59
3/19/2021 2:45:00 AM 9.98 49.964 0.761 7.81 8.98 9.6
3/19/2021 3:00:00 AM 9.94 49.892 0.759 7.81 9.02 9.62
3/19/2021 3:15:00 AM 9.89 49.802 0.757 7.82 8.58 9.65
3/19/2021 3:30:00 AM 9.85 49.73 0.758 7.82 8.38 9.67
3/19/2021 3:45:00 AM 9.8 49.64 0.757 7.83 8.44 9.7
3/19/2021 4:00:00 AM 9.74 49.532 0.755 7.84 8.54 9.72
3/19/2021 4:15:00 AM 9.69 49.442 0.754 7.84 8.23 9.74
3/19/2021 4:30:00 AM 9.65 49.37 0.753 7.84 8.33 9.76
3/19/2021 4:45:00 AM 9.6 49.28 0.753 7.85 8.09 9.77
3/19/2021 5:00:00 AM 9.55 49.19 0.752 7.85 8.62 9.79
3/19/2021 5:15:00 AM 9.5 49.1 0.753 7.85 8.1 9.81
3/19/2021 5:30:00 AM 9.44 48.992 0.753 7.86 7.86 9.83
3/19/2021 5:45:00 AM 9.39 48.902 0.754 7.86 7.94 9.84
3/19/2021 6:00:00 AM 9.32 48.776 0.756 7.86 7.74 9.86
3/19/2021 6:15:00 AM 9.26 48.668 0.757 7.87 7.88 9.88
3/19/2021 6:30:00 AM 9.19 48.542 0.76 7.87 7.55 9.9
3/19/2021 6:45:00 AM 9.12 48.416 0.762 7.87 7.72 9.92
3/19/2021 7:00:00 AM 9.06 48.308 0.763 7.87 7.74 9.94
3/19/2021 7:15:00 AM 8.99 48.182 0.765 7.88 7.19 9.98
3/19/2021 7:30:00 AM 8.93 48.074 0.769 7.88 6.82 10.03
3/19/2021 7:45:00 AM 8.89 48.002 0.773 7.89 6.45 10.1
3/19/2021 8:00:00 AM 8.85 47.93 0.774 7.89 6.44 10.2
3/19/2021 8:15:00 AM 8.81 47.858 0.776 7.9 5.75 10.32
3/19/2021 8:30:00 AM 8.77 47.786 0.777 7.92 5.61 10.46
3/19/2021 8:45:00 AM 8.75 47.75 0.778 7.93 5.43 10.64
3/19/2021 9:00:00 AM 8.75 47.75 0.78 7.94 5.15 10.88
3/19/2021 9:15:00 AM 8.74 47.732 0.783 7.96 5.17 11.03
3/19/2021 9:30:00 AM 8.77 47.786 0.785 7.98 5.16 11.27
3/19/2021 9:45:00 AM 8.82 47.876 0.787 8 5.33 11.58
3/19/2021 10:00:00 AM 8.84 47.912 0.792 8.01 5.39 11.66
3/19/2021 10:15:00 AM 8.92 48.056 0.8 8.03 4.97 11.9
3/19/2021 10:30:00 AM 9 48.2 0.808 8.06 4.93 12.18
3/19/2021 10:45:00 AM 9.14 48.452 0.815 8.08 5.08 12.45
3/19/2021 11:00:00 AM 9.3 48.74 0.821 8.11 5.17 12.72
3/19/2021 11:15:00 AM 9.46 49.028 0.826 8.14 5.16 12.99
3/19/2021 11:30:00 AM 9.62 49.316 0.831 8.17 4.98 13.22
3/19/2021 11:45:00 AM 9.8 49.64 0.833 8.2 4.76 13.47
3/19/2021 12:00:00 PM 9.95 49.91 0.833 8.23 4.49 13.64
3/19/2021 12:15:00 PM 10.1 50.18 0.832 8.26 4.63 13.82
3/19/2021 12:30:00 PM 10.25 50.45 0.833 8.28 4.67 13.97
3/19/2021 12:45:00 PM 10.45 50.81 0.835 8.31 4.58 14.12
3/19/2021 1:00:00 PM 10.65 51.17 0.838 8.34 4.7 14.25
3/19/2021 1:15:00 PM 10.86 51.548 0.84 8.36 4.4 14.38
3/19/2021 1:30:00 PM 11.08 51.944 0.842 8.38 4.45 14.46
3/19/2021 1:45:00 PM 11.27 52.286 0.842 8.4 5.24 14.52
3/19/2021 2:00:00 PM 11.45 52.61 0.841 8.42 5 14.57
3/19/2021 2:15:00 PM 11.62 52.916 0.84 8.43 4.34 14.58
3/19/2021 2:30:00 PM 11.77 53.186 0.84 8.44 5.3 14.57
3/19/2021 2:45:00 PM 11.9 53.42 0.841 8.45 4.77 14.53
3/19/2021 3:00:00 PM 12.02 53.636 0.841 8.46 4.53 14.49
3/19/2021 3:15:00 PM 12.13 53.834 0.841 8.46 4.57 14.44
3/19/2021 3:30:00 PM 12.21 53.978 0.84 8.46 4.58 14.36
3/19/2021 3:45:00 PM 12.27 54.086 0.839 8.46 4.77 14.25
3/19/2021 4:00:00 PM 12.31 54.158 0.839 8.45 4.62 14.11
3/19/2021 4:15:00 PM 12.33 54.194 0.84 8.45 5.17 13.98
3/19/2021 4:30:00 PM 12.35 54.23 0.838 8.44 4.52 13.82
3/19/2021 4:45:00 PM 12.35 54.23 0.838 8.43 4.21 13.64
3/19/2021 5:00:00 PM 12.34 54.212 0.839 8.41 4.82 13.43
3/19/2021 5:15:00 PM 12.3 54.14 0.839 8.39 4.88 13.21
3/19/2021 5:30:00 PM 12.25 54.05 0.84 8.37 4.57 12.98
3/19/2021 5:45:00 PM 12.19 53.942 0.841 8.34 4.43 12.72
3/19/2021 6:00:00 PM 12.11 53.798 0.841 8.31 4.85 12.44
3/19/2021 6:15:00 PM 12.03 53.654 0.839 8.29 4.89 12.16
3/19/2021 6:30:00 PM 11.95 53.51 0.838 8.26 4.97 11.9
3/19/2021 6:45:00 PM 11.84 53.312 0.837 8.23 5.18 11.67
3/19/2021 7:00:00 PM 11.74 53.132 0.838 8.2 6.57 11.46
3/19/2021 7:15:00 PM 11.64 52.952 0.838 8.18 5.65 11.25
3/19/2021 7:30:00 PM 11.55 52.79 0.839 8.15 5.52 11.07
3/19/2021 7:45:00 PM 11.45 52.61 0.84 8.13 5.96 10.92
3/19/2021 8:00:00 PM 11.34 52.412 0.841 8.11 6.26 10.78
3/19/2021 8:15:00 PM 11.23 52.214 0.842 8.09 5.64 10.65
3/19/2021 8:30:00 PM 11.11 51.998 0.844 8.07 5.76 10.52
3/19/2021 8:45:00 PM 10.98 51.764 0.846 8.05 6.12 10.4
3/19/2021 9:00:00 PM 10.85 51.53 0.846 8.03 5.94 10.28
3/19/2021 9:15:00 PM 10.72 51.296 0.845 8.01 5.95 10.17
3/19/2021 9:30:00 PM 10.6 51.08 0.844 7.99 6.24 10.07
3/19/2021 9:45:00 PM 10.48 50.864 0.845 7.98 6 10
3/19/2021 10:00:00 PM 10.36 50.648 0.846 7.97 6.59 9.94
3/19/2021 10:15:00 PM 10.26 50.468 0.847 7.96 6.33 9.89
3/19/2021 10:30:00 PM 10.15 50.27 0.848 7.95 6.05 9.85
3/19/2021 10:45:00 PM 10.05 50.09 0.847 7.94 6.16 9.82
3/19/2021 11:00:00 PM 9.96 49.928 0.847 7.93 6.58 9.8
3/19/2021 11:15:00 PM 9.87 49.766 0.847 7.93 6.7 9.79
3/19/2021 11:30:00 PM 9.78 49.604 0.847 7.92 7.16 9.79
3/19/2021 11:45:00 PM 9.7 49.46 0.847 7.92 6.39 9.79
3/20/2021 12:00:00 AM 9.62 49.316 0.846 7.91 6.19 9.8
3/20/2021 12:15:00 AM 9.54 49.172 0.846 7.91 6.55 9.82
3/20/2021 12:30:00 AM 9.47 49.046 0.845 7.91 7.28 9.82
3/20/2021 12:45:00 AM 9.4 48.92 0.845 7.91 7.21 9.83
3/20/2021 1:00:00 AM 9.33 48.794 0.844 7.91 7.04 9.84
3/20/2021 1:15:00 AM 9.27 48.686 0.843 7.91 7.04 9.86
3/20/2021 1:30:00 AM 9.21 48.578 0.841 7.91 7.37 9.87
3/20/2021 1:45:00 AM 9.15 48.47 0.839 7.91 6.93 9.89
3/20/2021 2:00:00 AM 9.09 48.362 0.838 7.91 7.02 9.92
3/20/2021 2:15:00 AM 9.03 48.254 0.836 7.91 6.97 9.94
3/20/2021 2:30:00 AM 8.98 48.164 0.834 7.91 6.98 9.95
3/20/2021 2:45:00 AM 8.92 48.056 0.834 7.91 6.79 9.97
3/20/2021 3:00:00 AM 8.87 47.966 0.833 7.91 6.55 9.98
3/20/2021 3:15:00 AM 8.82 47.876 0.832 7.91 6.38 10
3/20/2021 3:30:00 AM 8.76 47.768 0.829 7.91 6.92 10.01
3/20/2021 3:45:00 AM 8.71 47.678 0.825 7.91 6.74 10.03
3/20/2021 4:00:00 AM 8.65 47.57 0.821 7.91 7.12 10.05
3/20/2021 4:15:00 AM 8.6 47.48 0.818 7.91 7.08 10.06
3/20/2021 4:30:00 AM 8.54 47.372 0.815 7.91 7.08 10.09
3/20/2021 4:45:00 AM 8.48 47.264 0.81 7.92 7.16 10.11
3/20/2021 5:00:00 AM 8.43 47.174 0.805 7.92 6.79 10.14
3/20/2021 5:15:00 AM 8.38 47.084 0.801 7.92 7.6 10.15
3/20/2021 5:30:00 AM 8.33 46.994 0.798 7.92 7.23 10.18
3/20/2021 5:45:00 AM 8.28 46.904 0.795 7.92 7.39 10.2
3/20/2021 6:00:00 AM 8.24 46.832 0.793 7.92 6.82 10.22
3/20/2021 6:15:00 AM 8.21 46.778 0.793 7.92 6.87 10.22
3/20/2021 6:30:00 AM 8.17 46.706 0.793 7.92 7.05 10.24
3/20/2021 6:45:00 AM 8.14 46.652 0.793 7.92 6.38 10.25
3/20/2021 7:00:00 AM 8.11 46.598 0.793 7.92 6.37 10.25
3/20/2021 7:15:00 AM 8.08 46.544 0.794 7.93 5.87 10.27
3/20/2021 7:30:00 AM 8.06 46.508 0.796 7.93 5.85 10.31
3/20/2021 7:45:00 AM 8.04 46.472 0.797 7.93 5.81 10.38
3/20/2021 8:00:00 AM 8.03 46.454 0.799 7.94 5.85 10.45
3/20/2021 8:15:00 AM 8.04 46.472 0.801 7.94 5.42 10.55
3/20/2021 8:30:00 AM 8.04 46.472 0.801 7.95 5.04 10.66
3/20/2021 8:45:00 AM 8.06 46.508 0.8 7.96 4.98 10.82
3/20/2021 9:00:00 AM 8.09 46.562 0.799 7.97 5.16 11
3/20/2021 9:15:00 AM 8.15 46.67 0.798 7.99 5.13 11.2
3/20/2021 9:30:00 AM 8.24 46.832 0.797 8.01 4.81 11.43
3/20/2021 9:45:00 AM 8.34 47.012 0.795 8.02 4.8 11.64
3/20/2021 10:00:00 AM 8.45 47.21 0.794 8.04 4.6 11.88
3/20/2021 10:15:00 AM 8.59 47.462 0.793 8.07 4.77 12.1
3/20/2021 10:30:00 AM 8.74 47.732 0.793 8.09 4.57 12.34
3/20/2021 10:45:00 AM 8.91 48.038 0.795 8.11 4.55 12.59
3/20/2021 11:00:00 AM 9.12 48.416 0.8 8.14 4.52 12.81
3/20/2021 11:15:00 AM 9.34 48.812 0.808 8.16 4.32 13.01
3/20/2021 11:30:00 AM 9.6 49.28 0.819 8.19 4.52 13.26
3/20/2021 11:45:00 AM 9.86 49.748 0.828 8.21 4.62 13.46
3/20/2021 12:00:00 PM 10.15 50.27 0.835 8.24 4.76 13.68
3/20/2021 12:15:00 PM 10.43 50.774 0.842 8.27 4.6 13.88
3/20/2021 12:30:00 PM 10.73 51.314 0.848 8.3 4.33 14.06
3/20/2021 12:45:00 PM 11.04 51.872 0.854 8.33 4.57 14.23
3/20/2021 1:00:00 PM 11.33 52.394 0.859 8.35 4.35 14.38
3/20/2021 1:15:00 PM 11.61 52.898 0.862 8.38 4.22 14.51
3/20/2021 1:30:00 PM 11.88 53.384 0.866 8.4 4.14 14.6
3/20/2021 1:45:00 PM 12.14 53.852 0.874 8.41 4.12 14.68
3/20/2021 2:00:00 PM 12.37 54.266 0.88 8.43 4.26 14.7
3/20/2021 2:15:00 PM 12.6 54.68 0.883 8.44 4.79 14.71
3/20/2021 2:30:00 PM 12.8 55.04 0.881 8.46 4.47 14.73
3/20/2021 2:45:00 PM 12.98 55.364 0.878 8.47 4.54 14.7
3/20/2021 3:00:00 PM 13.14 55.652 0.875 8.48 4.32 14.64
3/20/2021 3:15:00 PM 13.28 55.904 0.874 8.48 4.47 14.58
3/20/2021 3:30:00 PM 13.4 56.12 0.873 8.48 4.39 14.5
3/20/2021 3:45:00 PM 13.49 56.282 0.872 8.48 4.4 14.4
3/20/2021 4:00:00 PM 13.54 56.372 0.87 8.48 4.37 14.25
3/20/2021 4:15:00 PM 13.58 56.444 0.869 8.47 4.36 14.09
3/20/2021 4:30:00 PM 13.6 56.48 0.869 8.46 4.52 13.91
3/20/2021 4:45:00 PM 13.61 56.498 0.868 8.45 4.75 13.71
3/20/2021 5:00:00 PM 13.6 56.48 0.865 8.44 4.67 13.49
3/20/2021 5:15:00 PM 13.58 56.444 0.863 8.42 4.73 13.24
3/20/2021 5:30:00 PM 13.55 56.39 0.863 8.4 5.01 12.97
3/20/2021 5:45:00 PM 13.5 56.3 0.864 8.37 5.28 12.69
3/20/2021 6:00:00 PM 13.44 56.192 0.866 8.34 5.15 12.37
3/20/2021 6:15:00 PM 13.37 56.066 0.866 8.31 4.67 12.08
3/20/2021 6:30:00 PM 13.29 55.922 0.866 8.27 5.37 11.79
3/20/2021 6:45:00 PM 13.19 55.742 0.865 8.24 5.1 11.52
3/20/2021 7:00:00 PM 13.08 55.544 0.864 8.21 5.05 11.27
3/20/2021 7:15:00 PM 12.97 55.346 0.864 8.18 5.73 11.02
3/20/2021 7:30:00 PM 12.86 55.148 0.865 8.15 5.32 10.81
3/20/2021 7:45:00 PM 12.74 54.932 0.867 8.13 5.91 10.62
3/20/2021 8:00:00 PM 12.61 54.698 0.867 8.1 6.32 10.44
3/20/2021 8:15:00 PM 12.49 54.482 0.866 8.08 6.1 10.28
3/20/2021 8:30:00 PM 12.35 54.23 0.865 8.06 5.91 10.14
3/20/2021 8:45:00 PM 12.22 53.996 0.864 8.04 5.88 10
3/20/2021 9:00:00 PM 12.07 53.726 0.865 8.02 5.95 9.86
3/20/2021 9:15:00 PM 11.92 53.456 0.866 8 6.07 9.71
3/20/2021 9:30:00 PM 11.76 53.168 0.868 7.98 5.96 9.6
3/20/2021 9:45:00 PM 11.61 52.898 0.869 7.97 5.93 9.51
3/20/2021 10:00:00 PM 11.47 52.646 0.87 7.95 5.98 9.44
3/20/2021 10:15:00 PM 11.33 52.394 0.871 7.94 6.24 9.37
3/20/2021 10:30:00 PM 11.19 52.142 0.873 7.93 5.93 9.32
3/20/2021 10:45:00 PM 11.06 51.908 0.873 7.92 5.76 9.29
3/20/2021 11:00:00 PM 10.94 51.692 0.873 7.92 5.78 9.28
3/20/2021 11:15:00 PM 10.82 51.476 0.871 7.91 5.89 9.28
3/20/2021 11:30:00 PM 10.71 51.278 0.871 7.9 5.97 9.27
3/20/2021 11:45:00 PM 10.6 51.08 0.871 7.9 6.23 9.27
3/21/2021 12:00:00 AM 10.49 50.882 0.872 7.9 5.99 9.28
3/21/2021 12:15:00 AM 10.38 50.684 0.874 7.89 6.05 9.29
3/21/2021 12:30:00 AM 10.28 50.504 0.875 7.89 6.05 9.3
3/21/2021 12:45:00 AM 10.19 50.342 0.876 7.89 6.04 9.31
3/21/2021 1:00:00 AM 10.1 50.18 0.875 7.88 6.12 9.33
3/21/2021 1:15:00 AM 10.01 50.018 0.873 7.88 6.02 9.34
3/21/2021 1:30:00 AM 9.93 49.874 0.871 7.88 6.24 9.36
3/21/2021 1:45:00 AM 9.85 49.73 0.868 7.88 5.94 9.38
3/21/2021 2:00:00 AM 9.77 49.586 0.867 7.88 6.7 9.4
3/21/2021 2:15:00 AM 9.68 49.424 0.867 7.88 6.54 9.42
3/21/2021 2:30:00 AM 9.61 49.298 0.864 7.88 6.59 9.46
3/21/2021 2:45:00 AM 9.53 49.154 0.859 7.88 6.92 9.48
3/21/2021 3:00:00 AM 9.45 49.01 0.854 7.88 7.39 9.52
3/21/2021 3:15:00 AM 9.37 48.866 0.85 7.89 7.22 9.53
3/21/2021 3:30:00 AM 9.3 48.74 0.847 7.89 6.5 9.56
3/21/2021 3:45:00 AM 9.23 48.614 0.844 7.89 6.44 9.59
3/21/2021 4:00:00 AM 9.17 48.506 0.841 7.89 6.2 9.62
3/21/2021 4:15:00 AM 9.1 48.38 0.837 7.89 6.42 9.64
3/21/2021 4:30:00 AM 9.04 48.272 0.832 7.89 6.7 9.67
3/21/2021 4:45:00 AM 8.98 48.164 0.827 7.9 6.71 9.71
3/21/2021 5:00:00 AM 8.92 48.056 0.823 7.9 6.72 9.74
3/21/2021 5:15:00 AM 8.86 47.948 0.82 7.9 6.64 9.76
3/21/2021 5:30:00 AM 8.81 47.858 0.817 7.9 6.41 9.79
3/21/2021 5:45:00 AM 8.75 47.75 0.814 7.9 6.26 9.81
3/21/2021 6:00:00 AM 8.7 47.66 0.811 7.9 6.53 9.83
3/21/2021 6:15:00 AM 8.65 47.57 0.81 7.9 6.54 9.86
3/21/2021 6:30:00 AM 8.61 47.498 0.808 7.9 6.95 9.88
3/21/2021 6:45:00 AM 8.57 47.426 0.808 7.91 7.03 9.9
3/21/2021 7:00:00 AM 8.53 47.354 0.809 7.91 6.37 9.92
3/21/2021 7:15:00 AM 8.5 47.3 0.81 7.91 6.03 9.95
3/21/2021 7:30:00 AM 8.46 47.228 0.812 7.91 5.68 10
3/21/2021 7:45:00 AM 8.44 47.192 0.813 7.91 5.55 10.07
3/21/2021 8:00:00 AM 8.42 47.156 0.814 7.92 5.45 10.15
3/21/2021 8:15:00 AM 8.41 47.138 0.815 7.92 4.97 10.25
3/21/2021 8:30:00 AM 8.41 47.138 0.816 7.93 4.48 10.36
3/21/2021 8:45:00 AM 8.43 47.174 0.817 7.94 4.51 10.53
3/21/2021 9:00:00 AM 8.47 47.246 0.817 7.96 4.81 10.7
3/21/2021 9:15:00 AM 8.54 47.372 0.816 7.97 4.45 10.93
3/21/2021 9:30:00 AM 8.62 47.516 0.814 7.99 4.4 11.16
3/21/2021 9:45:00 AM 8.72 47.696 0.814 8.01 4.42 11.4
3/21/2021 10:00:00 AM 8.85 47.93 0.814 8.03 4.51 11.65
3/21/2021 10:15:00 AM 9 48.2 0.813 8.05 4.32 11.92
3/21/2021 10:30:00 AM 9.18 48.524 0.814 8.08 4.43 12.18
3/21/2021 10:45:00 AM 9.38 48.884 0.815 8.1 4.27 12.45
3/21/2021 11:00:00 AM 9.6 49.28 0.82 8.13 4.15 12.72
3/21/2021 11:15:00 AM 9.85 49.73 0.828 8.16 4.51 12.96
3/21/2021 11:30:00 AM 10.13 50.234 0.843 8.18 4.31 13.21
3/21/2021 11:45:00 AM 10.44 50.792 0.864 8.21 4.02 13.47
3/21/2021 12:00:00 PM 10.75 51.35 0.875 8.24 4.13 13.72
3/21/2021 12:15:00 PM 11.06 51.908 0.877 8.27 4.07 13.97
3/21/2021 12:30:00 PM 11.37 52.466 0.878 8.31 4.35 14.22
3/21/2021 12:45:00 PM 11.67 53.006 0.873 8.35 4.11 14.45
3/21/2021 1:00:00 PM 11.96 53.528 0.869 8.38 4.21 14.63
3/21/2021 1:15:00 PM 12.26 54.068 0.873 8.41 4.14 14.81
3/21/2021 1:30:00 PM 12.54 54.572 0.877 8.44 4.08 14.91
3/21/2021 1:45:00 PM 12.81 55.058 0.88 8.46 4.28 15.01
3/21/2021 2:00:00 PM 13.05 55.49 0.88 8.48 4.02 15.07
3/21/2021 2:15:00 PM 13.28 55.904 0.878 8.5 4.16 15.09
3/21/2021 2:30:00 PM 13.5 56.3 0.879 8.51 4.1 15.12
3/21/2021 2:45:00 PM 13.7 56.66 0.882 8.52 4.17 15.09
3/21/2021 3:00:00 PM 13.87 56.966 0.885 8.53 4.34 15.04
3/21/2021 3:15:00 PM 14.02 57.236 0.886 8.54 3.93 14.99
3/21/2021 3:30:00 PM 14.15 57.47 0.888 8.54 4.14 14.9
3/21/2021 3:45:00 PM 14.26 57.668 0.892 8.54 4.22 14.78
3/21/2021 4:00:00 PM 14.33 57.794 0.893 8.54 4.54 14.63
3/21/2021 4:15:00 PM 14.38 57.884 0.891 8.53 4.38 14.45
3/21/2021 4:30:00 PM 14.41 57.938 0.888 8.52 4.68 14.25
3/21/2021 4:45:00 PM 14.42 57.956 0.885 8.51 4.67 14.03
3/21/2021 5:00:00 PM 14.4 57.92 0.884 8.5 4.66 13.8
3/21/2021 5:15:00 PM 14.37 57.866 0.883 8.48 4.37 13.52
3/21/2021 5:30:00 PM 14.33 57.794 0.882 8.46 4.46 13.23
3/21/2021 5:45:00 PM 14.28 57.704 0.881 8.43 4.82 12.93
3/21/2021 6:00:00 PM 14.22 57.596 0.88 8.4 4.67 12.59
3/21/2021 6:15:00 PM 14.15 57.47 0.879 8.36 4.56 12.26
3/21/2021 6:30:00 PM 14.05 57.29 0.88 8.33 5.06 11.95
3/21/2021 6:45:00 PM 13.95 57.11 0.881 8.3 5.25 11.65
3/21/2021 7:00:00 PM 13.83 56.894 0.881 8.26 6.01 11.36
3/21/2021 7:15:00 PM 13.7 56.66 0.88 8.22 5.34 11.1
3/21/2021 7:30:00 PM 13.58 56.444 0.857 8.19 5.31 10.86
3/21/2021 7:45:00 PM 13.45 56.21 0.879 8.17 5.76 10.65
3/21/2021 8:00:00 PM 13.32 55.976 0.881 8.14 5.96 10.46
3/21/2021 8:15:00 PM 13.19 55.742 0.88 8.11 6.23 10.27
3/21/2021 8:30:00 PM 13.05 55.49 0.879 8.09 6.07 10.1
3/21/2021 8:45:00 PM 12.9 55.22 0.877 8.06 6.01 9.93
3/21/2021 9:00:00 PM 12.76 54.968 0.875 8.04 6.16 9.77
3/21/2021 9:15:00 PM 12.6 54.68 0.875 8.02 6.08 9.6
3/21/2021 9:30:00 PM 12.44 54.392 0.876 8 5.99 9.46
3/21/2021 9:45:00 PM 12.29 54.122 0.876 7.98 5.83 9.35
3/21/2021 10:00:00 PM 12.14 53.852 0.875 7.96 5.86 9.25
3/21/2021 10:15:00 PM 12 53.6 0.875 7.95 5.96 9.17
3/21/2021 10:30:00 PM 11.85 53.33 0.877 7.94 6.05 9.11
3/21/2021 10:45:00 PM 11.72 53.096 0.88 7.92 5.93 9.07
3/21/2021 11:00:00 PM 11.59 52.862 0.883 7.92 5.68 9.04
3/21/2021 11:15:00 PM 11.47 52.646 0.885 7.91 5.79 9.03
3/21/2021 11:30:00 PM 11.35 52.43 0.886 7.9 6.11 9.02
3/21/2021 11:45:00 PM 11.24 52.232 0.888 7.9 5.9 9
3/22/2021 12:00:00 AM 11.13 52.034 0.891 7.89 5.92 9.01
3/22/2021 12:15:00 AM 11.02 51.836 0.893 7.89 6.05 9.02
3/22/2021 12:30:00 AM 10.91 51.638 0.895 7.88 5.57 9.02
3/22/2021 12:45:00 AM 10.82 51.476 0.897 7.88 5.67 9.04
3/22/2021 1:00:00 AM 10.72 51.296 0.897 7.88 5.52 9.04
3/22/2021 1:15:00 AM 10.62 51.116 0.897 7.88 6.03 9.06
3/22/2021 1:30:00 AM 10.53 50.954 0.894 7.88 6.29 9.08
3/22/2021 1:45:00 AM 10.43 50.774 0.891 7.88 6.15 9.11
3/22/2021 2:00:00 AM 10.34 50.612 0.886 7.88 6.77 9.14
3/22/2021 2:15:00 AM 10.25 50.45 0.882 7.88 6.33 9.17
3/22/2021 2:30:00 AM 10.17 50.306 0.878 7.88 6.62 9.2
3/22/2021 2:45:00 AM 10.08 50.144 0.874 7.88 6.14 9.23
3/22/2021 3:00:00 AM 10 50 0.871 7.88 5.85 9.26
3/22/2021 3:15:00 AM 9.92 49.856 0.866 7.89 6.32 9.29
3/22/2021 3:30:00 AM 9.84 49.712 0.862 7.89 6.2 9.33
3/22/2021 3:45:00 AM 9.76 49.568 0.857 7.89 6.2 9.36
3/22/2021 4:00:00 AM 9.68 49.424 0.852 7.89 6.32 9.41
3/22/2021 4:15:00 AM 9.61 49.298 0.848 7.9 6.42 9.44
3/22/2021 4:30:00 AM 9.54 49.172 0.844 7.9 6.62 9.47
3/22/2021 4:45:00 AM 9.47 49.046 0.84 7.9 6.49 9.5
3/22/2021 5:00:00 AM 9.4 48.92 0.836 7.91 6.45 9.53
3/22/2021 5:15:00 AM 9.33 48.794 0.833 7.91 6.54 9.56
3/22/2021 5:30:00 AM 9.27 48.686 0.83 7.91 6.8 9.59
3/22/2021 5:45:00 AM 9.21 48.578 0.828 7.91 6.55 9.61
3/22/2021 6:00:00 AM 9.16 48.488 0.826 7.91 6.52 9.64
3/22/2021 6:15:00 AM 9.11 48.398 0.825 7.91 7.31 9.67
3/22/2021 6:30:00 AM 9.06 48.308 0.824 7.92 7.27 9.69
3/22/2021 6:45:00 AM 9.01 48.218 0.823 7.92 6.25 9.72
3/22/2021 7:00:00 AM 8.97 48.146 0.822 7.92 6.28 9.74
3/22/2021 7:15:00 AM 8.93 48.074 0.823 7.92 5.92 9.77
3/22/2021 7:30:00 AM 8.9 48.02 0.824 7.92 5.86 9.83
3/22/2021 7:45:00 AM 8.88 47.984 0.826 7.93 5.73 9.91
3/22/2021 8:00:00 AM 8.86 47.948 0.828 7.93 5.44 10
3/22/2021 8:15:00 AM 8.86 47.948 0.832 7.94 5.13 10.1
3/22/2021 8:30:00 AM 8.86 47.948 0.835 7.94 5.09 10.23
3/22/2021 8:45:00 AM 8.89 48.002 0.836 7.95 4.8 10.39
3/22/2021 9:00:00 AM 8.94 48.092 0.836 7.97 4.57 10.59
3/22/2021 9:15:00 AM 9 48.2 0.834 7.99 4.33 10.84
3/22/2021 9:30:00 AM 9.08 48.344 0.833 8 4.24 11.08
3/22/2021 9:45:00 AM 9.19 48.542 0.832 8.03 4.52 11.35
3/22/2021 10:00:00 AM 9.32 48.776 0.833 8.05 4.46 11.62
3/22/2021 10:15:00 AM 9.47 49.046 0.836 8.07 4.42 11.91
3/22/2021 10:30:00 AM 9.64 49.352 0.84 8.1 4.96 12.22
3/22/2021 10:45:00 AM 9.84 49.712 0.845 8.13 4.33 12.5
3/22/2021 11:00:00 AM 10.05 50.09 0.852 8.15 4.42 12.78
3/22/2021 11:15:00 AM 10.28 50.504 0.86 8.18 4.14 13.08
3/22/2021 11:30:00 AM 10.53 50.954 0.868 8.22 4.19 13.39
3/22/2021 11:45:00 AM 10.81 51.458 0.875 8.25 4.27 13.7
3/22/2021 12:00:00 PM 11.1 51.98 0.88 8.29 4.67 14
3/22/2021 12:15:00 PM 11.39 52.502 0.881 8.33 4.48 14.3
3/22/2021 12:30:00 PM 11.69 53.042 0.881 8.37 3.87 14.61
3/22/2021 12:45:00 PM 11.99 53.582 0.878 8.41 3.97 14.85
3/22/2021 1:00:00 PM 12.29 54.122 0.873 8.45 3.88 15.1
3/22/2021 1:15:00 PM 12.58 54.644 0.87 8.49 4.13 15.28
3/22/2021 1:30:00 PM 12.85 55.13 0.87 8.52 4.2 15.45
3/22/2021 1:45:00 PM 13.11 55.598 0.87 8.55 4.28 15.56
3/22/2021 2:00:00 PM 13.35 56.03 0.872 8.57 4.04 15.64
3/22/2021 2:15:00 PM 13.58 56.444 0.873 8.59 4.11 15.68
3/22/2021 2:30:00 PM 13.79 56.822 0.873 8.61 4.13 15.69
3/22/2021 2:45:00 PM 13.99 57.182 0.872 8.62 4.22 15.69
3/22/2021 3:00:00 PM 14.15 57.47 0.872 8.63 4.66 15.65
3/22/2021 3:15:00 PM 14.3 57.74 0.871 8.64 5.05 15.56
3/22/2021 3:30:00 PM 14.43 57.974 0.871 8.64 4.6 15.46
3/22/2021 3:45:00 PM 14.52 58.136 0.873 8.64 4.46 15.32
3/22/2021 4:00:00 PM 14.6 58.28 0.875 8.64 4.35 15.18
3/22/2021 4:15:00 PM 14.64 58.352 0.875 8.63 4.89 14.99
3/22/2021 4:30:00 PM 14.65 58.37 0.873 8.62 4.44 14.78
3/22/2021 4:45:00 PM 14.65 58.37 0.871 8.61 4.7 14.56
3/22/2021 5:00:00 PM 14.63 58.334 0.871 8.6 4.89 14.3
3/22/2021 5:15:00 PM 14.61 58.298 0.871 8.58 5.33 14.01
3/22/2021 5:30:00 PM 14.56 58.208 0.872 8.56 5.28 13.7
3/22/2021 5:45:00 PM 14.5 58.1 0.871 8.53 4.74 13.37
3/22/2021 6:00:00 PM 14.44 57.992 0.869 8.5 5.8 13
3/22/2021 6:15:00 PM 14.36 57.848 0.867 8.47 5.37 12.65
3/22/2021 6:30:00 PM 14.28 57.704 0.865 8.43 5.03 12.32
3/22/2021 6:45:00 PM 14.17 57.506 0.864 8.39 5.25 12
3/22/2021 7:00:00 PM 14.06 57.308 0.863 8.35 8.72 11.7
3/22/2021 7:15:00 PM 13.94 57.092 0.863 8.32 5.17 11.41
3/22/2021 7:30:00 PM 13.82 56.876 0.863 8.28 5.33 11.12
3/22/2021 7:45:00 PM 13.69 56.642 0.864 8.25 5.45 10.88
3/22/2021 8:00:00 PM 13.56 56.408 0.866 8.21 5.79 10.66
3/22/2021 8:15:00 PM 13.42 56.156 0.868 8.18 5.83 10.46
3/22/2021 8:30:00 PM 13.27 55.886 0.871 8.15 6.43 10.26
3/22/2021 8:45:00 PM 13.13 55.634 0.873 8.12 6.09 10.04
3/22/2021 9:00:00 PM 12.97 55.346 0.875 8.09 5.68 9.86
3/22/2021 9:15:00 PM 12.82 55.076 0.876 8.06 5.86 9.68
3/22/2021 9:30:00 PM 12.66 54.788 0.878 8.03 6.01 9.52
3/22/2021 9:45:00 PM 12.5 54.5 0.879 8.01 5.96 9.38
3/22/2021 10:00:00 PM 12.35 54.23 0.882 7.99 6.01 9.27
3/22/2021 10:15:00 PM 12.2 53.96 0.885 7.97 5.58 9.18
3/22/2021 10:30:00 PM 12.06 53.708 0.888 7.96 5.74 9.11
3/22/2021 10:45:00 PM 11.92 53.456 0.893 7.95 5.64 9.04
3/22/2021 11:00:00 PM 11.79 53.222 0.897 7.93 5.8 9.01
3/22/2021 11:15:00 PM 11.67 53.006 0.9 7.93 6.13 8.99
3/22/2021 11:30:00 PM 11.55 52.79 0.903 7.92 6.25 8.97
3/22/2021 11:45:00 PM 11.43 52.574 0.906 7.91 6.29 8.97
3/23/2021 12:00:00 AM 11.33 52.394 0.908 7.91 6.34 8.96
3/23/2021 12:15:00 AM 11.22 52.196 0.91 7.9 6.03 8.96
3/23/2021 12:30:00 AM 11.12 52.016 0.911 7.9 5.82 8.97
3/23/2021 12:45:00 AM 11.03 51.854 0.913 7.9 5.75 8.98
3/23/2021 1:00:00 AM 10.94 51.692 0.913 7.89 6.27 9
3/23/2021 1:15:00 AM 10.86 51.548 0.912 7.89 5.79 9.01
3/23/2021 1:30:00 AM 10.77 51.386 0.91 7.89 6.03 9.03
3/23/2021 1:45:00 AM 10.69 51.242 0.907 7.89 6.18 9.04
3/23/2021 2:00:00 AM 10.6 51.08 0.903 7.89 5.66 9.06
3/23/2021 2:15:00 AM 10.52 50.936 0.899 7.89 6.02 9.08
3/23/2021 2:30:00 AM 10.44 50.792 0.894 7.89 6.18 9.11
3/23/2021 2:45:00 AM 10.36 50.648 0.89 7.89 6.55 9.14
3/23/2021 3:00:00 AM 10.28 50.504 0.886 7.89 6.39 9.16
3/23/2021 3:15:00 AM 10.21 50.378 0.882 7.9 6.49 9.2
3/23/2021 3:30:00 AM 10.14 50.252 0.877 7.9 6.8 9.22
3/23/2021 3:45:00 AM 10.07 50.126 0.873 7.9 6.94 9.24
3/23/2021 4:00:00 AM 10 50 0.868 7.9 6.59 9.26
3/23/2021 4:15:00 AM 9.93 49.874 0.863 7.9 7.02 9.29
3/23/2021 4:30:00 AM 9.87 49.766 0.858 7.9 7.17 9.32
3/23/2021 4:45:00 AM 9.8 49.64 0.853 7.91 6.97 9.35
3/23/2021 5:00:00 AM 9.75 49.55 0.849 7.91 6.26 9.37
3/23/2021 5:15:00 AM 9.69 49.442 0.845 7.91 6.37 9.4
3/23/2021 5:30:00 AM 9.64 49.352 0.84 7.91 6.19 9.43
3/23/2021 5:45:00 AM 9.59 49.262 0.837 7.91 6.81 9.46
3/23/2021 6:00:00 AM 9.54 49.172 0.833 7.91 7.46 9.48
3/23/2021 6:15:00 AM 9.5 49.1 0.83 7.92 7.21 9.5
3/23/2021 6:30:00 AM 9.46 49.028 0.827 7.92 6.59 9.52
3/23/2021 6:45:00 AM 9.42 48.956 0.826 7.92 6.59 9.53
3/23/2021 7:00:00 AM 9.38 48.884 0.826 7.92 6.2 9.55
3/23/2021 7:15:00 AM 9.34 48.812 0.827 7.92 5.81 9.57
3/23/2021 7:30:00 AM 9.32 48.776 0.828 7.92 5.83 9.64
3/23/2021 7:45:00 AM 9.3 48.74 0.827 7.93 5.77 9.73
3/23/2021 8:00:00 AM 9.29 48.722 0.827 7.94 5.35 9.84
3/23/2021 8:15:00 AM 9.28 48.704 0.828 7.94 5.03 9.96
3/23/2021 8:30:00 AM 9.31 48.758 0.83 7.95 4.95 10.13
3/23/2021 8:45:00 AM 9.35 48.83 0.832 7.97 4.63 10.33
3/23/2021 9:00:00 AM 9.41 48.938 0.834 7.98 4.35 10.54
3/23/2021 9:15:00 AM 9.49 49.082 0.835 8 4.31 10.81
3/23/2021 9:30:00 AM 9.58 49.244 0.835 8.02 4.33 11.09
3/23/2021 9:45:00 AM 9.69 49.442 0.836 8.04 4.47 11.35
3/23/2021 10:00:00 AM 9.82 49.676 0.837 8.07 4.55 11.64
3/23/2021 10:15:00 AM 9.99 49.982 0.839 8.1 4.18 11.97
3/23/2021 10:30:00 AM 10.18 50.324 0.842 8.13 4.29 12.33
3/23/2021 10:45:00 AM 10.39 50.702 0.846 8.16 4.7 12.67
3/23/2021 11:00:00 AM 10.62 51.116 0.855 8.19 4.45 12.96
3/23/2021 11:15:00 AM 10.85 51.53 0.865 8.22 4.08 13.27
3/23/2021 11:30:00 AM 11.12 52.016 0.875 8.26 4.48 13.59
3/23/2021 11:45:00 AM 11.41 52.538 0.881 8.3 4.31 13.94
3/23/2021 12:00:00 PM 11.71 53.078 0.884 8.34 4.35 14.3
3/23/2021 12:15:00 PM 12.01 53.618 0.886 8.39 4.06 14.6
3/23/2021 12:30:00 PM 12.31 54.158 0.89 8.43 3.91 14.9
3/23/2021 12:45:00 PM 12.63 54.734 0.895 8.47 4.09 15.16
3/23/2021 1:00:00 PM 12.94 55.292 0.901 8.5 3.75 15.42
3/23/2021 1:15:00 PM 13.24 55.832 0.905 8.54 3.86 15.6
3/23/2021 1:30:00 PM 13.46 56.228 0.907 8.57 3.99 15.68
3/23/2021 1:45:00 PM 13.69 56.642 0.907 8.59 4.21 15.81
3/23/2021 2:00:00 PM 13.94 57.092 0.906 8.63 3.87 16.06
3/23/2021 2:15:00 PM 14.18 57.524 0.904 8.65 4.06 16.13
3/23/2021 2:30:00 PM 14.37 57.866 0.901 8.67 4.25 16.07
3/23/2021 2:45:00 PM 14.51 58.118 0.896 8.68 4.15 15.96
3/23/2021 3:00:00 PM 14.62 58.316 0.889 8.69 4.02 15.89
3/23/2021 3:15:00 PM 14.71 58.478 0.885 8.7 4.36 15.78
3/23/2021 3:30:00 PM 14.8 58.64 0.884 8.71 18.96 15.75
3/23/2021 3:45:00 PM 14.9 58.82 0.886 8.72 4.86 15.77
3/23/2021 4:00:00 PM 15 59 0.889 8.72 4.85 15.71
3/23/2021 4:15:00 PM 15.03 59.054 0.891 8.7 5.41 15.31
3/23/2021 4:30:00 PM 15.04 59.072 0.891 8.69 4.29 14.96
3/23/2021 4:45:00 PM 15.08 59.144 0.887 8.68 4.54 14.82
3/23/2021 5:00:00 PM 15.07 59.126 0.883 8.67 4.57 14.66
3/23/2021 5:15:00 PM 15.06 59.108 0.879 8.66 4.89 14.42
3/23/2021 5:30:00 PM 15.01 59.018 0.878 8.63 4.81 14.04
3/23/2021 5:45:00 PM 14.96 58.928 0.878 8.59 4.71 13.59
3/23/2021 6:00:00 PM 14.92 58.856 0.88 8.56 4.73 13.27
3/23/2021 6:15:00 PM 14.85 58.73 0.881 8.53 4.84 12.94
3/23/2021 6:30:00 PM 14.79 58.622 0.878 8.5 4.61 12.66
3/23/2021 6:45:00 PM 14.73 58.514 0.873 8.47 4.81 12.33
3/23/2021 7:00:00 PM 14.66 58.388 0.868 8.42 5.16 11.97
3/23/2021 7:15:00 PM 14.56 58.208 0.864 8.39 5.34 11.65
3/23/2021 7:30:00 PM 14.45 58.01 0.863 8.34 5.5 11.3
3/23/2021 7:45:00 PM 14.34 57.812 0.862 8.3 5.82 10.99
3/23/2021 8:00:00 PM 14.22 57.596 0.861 8.26 6.11 10.71
3/23/2021 8:15:00 PM 14.09 57.362 0.861 8.22 6.16 10.44
3/23/2021 8:30:00 PM 13.95 57.11 0.862 8.17 5.85 10.18
3/23/2021 8:45:00 PM 13.82 56.876 0.863 8.14 6.21 9.92
3/23/2021 9:00:00 PM 13.69 56.642 0.864 8.1 5.55 9.7
3/23/2021 9:15:00 PM 13.56 56.408 0.866 8.07 5.62 9.5
3/23/2021 9:30:00 PM 13.44 56.192 0.867 8.04 5.53 9.32
3/23/2021 9:45:00 PM 13.32 55.976 0.869 8.02 5.5 9.16
3/23/2021 10:00:00 PM 13.19 55.742 0.871 7.99 5.56 9.02
3/23/2021 10:15:00 PM 13.07 55.526 0.875 7.97 5.59 8.91
3/23/2021 10:30:00 PM 12.95 55.31 0.878 7.96 5.81 8.83
3/23/2021 10:45:00 PM 12.84 55.112 0.881 7.94 5.21 8.76
3/23/2021 11:00:00 PM 12.74 54.932 0.883 7.93 5.51 8.7
3/23/2021 11:15:00 PM 12.63 54.734 0.885 7.92 5.72 8.66
3/23/2021 11:30:00 PM 12.53 54.554 0.888 7.91 5.68 8.63
3/23/2021 11:45:00 PM 12.45 54.41 0.891 7.91 5.38 8.62
3/24/2021 12:00:00 AM 12.37 54.266 0.894 7.9 5.4 8.61
3/24/2021 12:15:00 AM 12.29 54.122 0.896 7.9 5.44 8.61
3/24/2021 12:30:00 AM 12.23 54.014 0.899 7.89 5.43 8.61
3/24/2021 12:45:00 AM 12.18 53.924 0.901 7.89 5.73 8.61
3/24/2021 1:00:00 AM 12.15 53.87 0.904 7.89 5.99 8.61
3/24/2021 1:15:00 AM 12.11 53.798 0.904 7.88 5.61 8.62
3/24/2021 1:30:00 AM 12.07 53.726 0.903 7.88 5.56 8.61
3/24/2021 1:45:00 AM 12.04 53.672 0.901 7.88 5.78 8.63
3/24/2021 2:00:00 AM 12.01 53.618 0.899 7.88 5.97 8.64
3/24/2021 2:15:00 AM 11.98 53.564 0.897 7.88 6.5 8.65
3/24/2021 2:30:00 AM 11.96 53.528 0.894 7.89 5.98 8.65
3/24/2021 2:45:00 AM 11.94 53.492 0.89 7.89 5.64 8.66
3/24/2021 3:00:00 AM 11.92 53.456 0.886 7.89 5.58 8.67
3/24/2021 3:15:00 AM 11.9 53.42 0.881 7.89 5.87 8.68
3/24/2021 3:30:00 AM 11.89 53.402 0.878 7.89 5.79 8.69
3/24/2021 3:45:00 AM 11.88 53.384 0.874 7.89 6.48 8.7
3/24/2021 4:00:00 AM 11.87 53.366 0.87 7.89 6.25 8.7
3/24/2021 4:15:00 AM 11.85 53.33 0.865 7.9 6.87 8.71
3/24/2021 4:30:00 AM 11.84 53.312 0.86 7.9 6.48 8.72
3/24/2021 4:45:00 AM 11.82 53.276 0.855 7.9 6.04 8.73
3/24/2021 5:00:00 AM 11.81 53.258 0.85 7.9 5.78 8.75
3/24/2021 5:15:00 AM 11.8 53.24 0.845 7.9 5.56 8.75
3/24/2021 5:30:00 AM 11.78 53.204 0.84 7.9 5.63 8.77
3/24/2021 5:45:00 AM 11.77 53.186 0.836 7.91 6.23 8.78
3/24/2021 6:00:00 AM 11.76 53.168 0.834 7.91 6.23 8.79
3/24/2021 6:15:00 AM 11.76 53.168 0.831 7.91 6.37 8.79
3/24/2021 6:30:00 AM 11.75 53.15 0.828 7.91 6.09 8.8
3/24/2021 6:45:00 AM 11.75 53.15 0.826 7.91 5.87 8.8
3/24/2021 7:00:00 AM 11.75 53.15 0.825 7.91 5.58 8.81
3/24/2021 7:15:00 AM 11.75 53.15 0.825 7.91 5.36 8.81
3/24/2021 7:30:00 AM 11.76 53.168 0.826 7.91 5.08 8.82
3/24/2021 7:45:00 AM 11.76 53.168 0.826 7.91 5.21 8.83
3/24/2021 8:00:00 AM 11.76 53.168 0.825 7.91 5.2 8.86
3/24/2021 8:15:00 AM 11.76 53.168 0.826 7.92 5.15 8.9
3/24/2021 8:30:00 AM 11.77 53.186 0.827 7.92 5.59 8.95
3/24/2021 8:45:00 AM 11.78 53.204 0.828 7.92 4.95 9.01
3/24/2021 9:00:00 AM 11.79 53.222 0.827 7.93 5.1 9.14
3/24/2021 9:15:00 AM 11.79 53.222 0.826 7.93 5.05 9.16
3/24/2021 9:30:00 AM 11.8 53.24 0.824 7.94 4.77 9.2
3/24/2021 9:45:00 AM 11.81 53.258 0.823 7.94 5 9.27
3/24/2021 10:00:00 AM 11.82 53.276 0.824 7.94 4.97 9.35
3/24/2021 10:15:00 AM 11.84 53.312 0.826 7.95 4.94 9.39
3/24/2021 10:30:00 AM 11.86 53.348 0.828 7.95 4.81 9.43
3/24/2021 10:45:00 AM 11.88 53.384 0.832 7.96 4.84 9.55
3/24/2021 11:00:00 AM 11.91 53.438 0.838 7.96 5.03 9.6
3/24/2021 11:15:00 AM 11.94 53.492 0.845 7.96 5.41 9.62
3/24/2021 11:30:00 AM 11.98 53.564 0.853 7.96 5.05 9.68
3/24/2021 11:45:00 AM 12.03 53.654 0.86 7.97 5.57 9.76
3/24/2021 12:00:00 PM 12.08 53.744 0.862 7.98 4.97 9.94
3/24/2021 12:15:00 PM 12.11 53.798 0.858 7.97 6.13 9.93
3/24/2021 12:30:00 PM 12.12 53.816 0.849 7.97 6.87 9.9
3/24/2021 12:45:00 PM 12.14 53.852 0.846 7.96 6.9 9.89
3/24/2021 1:00:00 PM 12.15 53.87 0.842 7.96 8.17 9.93
3/24/2021 1:15:00 PM 12.17 53.906 0.834 7.96 8.25 9.95
3/24/2021 1:30:00 PM 12.19 53.942 0.829 7.95 9.94 9.98
3/24/2021 1:45:00 PM 12.22 53.996 0.831 7.94 12.92 9.97
3/24/2021 2:00:00 PM 12.26 54.068 0.832 7.93 19.13 9.94
3/24/2021 2:15:00 PM 12.27 54.086 0.817 7.91 67.35 9.9
3/24/2021 2:30:00 PM 12.27 54.086 0.798 7.86 17.38 9.84
3/24/2021 2:45:00 PM 12.27 54.086 0.773 7.86 84.04 9.77
3/24/2021 3:00:00 PM 12.27 54.086 0.732 7.85 29.27 9.71
3/24/2021 3:15:00 PM 12.27 54.086 0.693 7.82 30.79 9.66
3/24/2021 3:30:00 PM 12.3 54.14 0.666 7.8 35.88 9.61
3/24/2021 3:45:00 PM 12.35 54.23 0.629 7.79 28.46 9.59
3/24/2021 4:00:00 PM 12.4 54.32 0.592 7.78 29.82 9.57
3/24/2021 4:15:00 PM 12.42 54.356 0.56 7.77 28.72 9.56
3/24/2021 4:30:00 PM 12.43 54.374 0.538 7.76 32.48 9.54
3/24/2021 4:45:00 PM 12.45 54.41 0.525 7.76 28.64 9.52
3/24/2021 5:00:00 PM 12.48 54.464 0.521 7.75 24.85 9.53
3/24/2021 5:15:00 PM 12.48 54.464 0.519 7.75 24.14 9.53
3/24/2021 5:30:00 PM 12.47 54.446 0.521 7.75 21.4 9.55
3/24/2021 5:45:00 PM 12.46 54.428 0.529 7.75 20.37 9.55
3/24/2021 6:00:00 PM 12.47 54.446 0.539 7.75 20.51 9.55
3/24/2021 6:15:00 PM 12.48 54.464 0.547 7.75 18.51 9.51
3/24/2021 6:30:00 PM 12.49 54.482 0.554 7.74 16.99 9.47
3/24/2021 6:45:00 PM 12.5 54.5 0.564 7.74 16.77 9.41
3/24/2021 7:00:00 PM 12.52 54.536 0.575 7.74 15.87 9.36
3/24/2021 7:15:00 PM 12.53 54.554 0.588 7.73 15.58 9.31
3/24/2021 7:30:00 PM 12.54 54.572 0.6 7.73 15.4 9.26
3/24/2021 7:45:00 PM 12.54 54.572 0.611 7.73 15.23 9.22
3/24/2021 8:00:00 PM 12.53 54.554 0.623 7.74 14.91 9.19
3/24/2021 8:15:00 PM 12.52 54.536 0.639 7.74 14.54 9.17
3/24/2021 8:30:00 PM 12.51 54.518 0.656 7.75 14.27 9.14
3/24/2021 8:45:00 PM 12.5 54.5 0.673 7.75 14.32 9.12
3/24/2021 9:00:00 PM 12.5 54.5 0.69 7.76 13.51 9.09
3/24/2021 9:15:00 PM 12.49 54.482 0.706 7.77 12.67 9.07
3/24/2021 9:30:00 PM 12.49 54.482 0.721 7.78 12.2 9.04
3/24/2021 9:45:00 PM 12.49 54.482 0.735 7.78 11.95 9.02
3/24/2021 10:00:00 PM 12.48 54.464 0.744 7.79 11.3 9.01
3/24/2021 10:15:00 PM 12.48 54.464 0.753 7.79 10.7 8.99
3/24/2021 10:30:00 PM 12.47 54.446 0.761 7.8 10.36 8.98
3/24/2021 10:45:00 PM 12.47 54.446 0.769 7.8 10.48 8.98
3/24/2021 11:00:00 PM 12.47 54.446 0.776 7.81 10.2 8.97
3/24/2021 11:15:00 PM 12.46 54.428 0.783 7.81 9.96 8.96
3/24/2021 11:30:00 PM 12.45 54.41 0.787 7.81 9.41 8.96
3/24/2021 11:45:00 PM 12.45 54.41 0.788 7.82 10.06 8.96
3/25/2021 12:00:00 AM 12.44 54.392 0.789 7.82 9.17 8.96
3/25/2021 12:15:00 AM 12.43 54.374 0.79 7.82 9.19 8.96
3/25/2021 12:30:00 AM 12.42 54.356 0.791 7.82 8.91 8.97
3/25/2021 12:45:00 AM 12.41 54.338 0.791 7.82 8.95 8.97
3/25/2021 1:00:00 AM 12.4 54.32 0.79 7.82 8.64 8.97
3/25/2021 1:15:00 AM 12.39 54.302 0.791 7.83 8.65 8.98
3/25/2021 1:30:00 AM 12.38 54.284 0.79 7.83 8.49 8.99
3/25/2021 1:45:00 AM 12.36 54.248 0.788 7.83 8.37 8.99
3/25/2021 2:00:00 AM 12.34 54.212 0.787 7.83 8.28 9
3/25/2021 2:15:00 AM 12.33 54.194 0.786 7.83 7.91 9.01
3/25/2021 2:30:00 AM 12.31 54.158 0.783 7.83 8.07 9.02
3/25/2021 2:45:00 AM 12.29 54.122 0.78 7.84 7.97 9.03
3/25/2021 3:00:00 AM 12.27 54.086 0.779 7.84 7.78 9.04
3/25/2021 3:15:00 AM 12.26 54.068 0.778 7.84 7.77 9.05
3/25/2021 3:30:00 AM 12.24 54.032 0.776 7.84 7.69 9.05
3/25/2021 3:45:00 AM 12.23 54.014 0.774 7.84 7.48 9.06
3/25/2021 4:00:00 AM 12.22 53.996 0.772 7.84 8.05 9.07
3/25/2021 4:15:00 AM 12.2 53.96 0.77 7.85 7.6 9.07
3/25/2021 4:30:00 AM 12.19 53.942 0.769 7.85 7.27 9.08
3/25/2021 4:45:00 AM 12.18 53.924 0.768 7.85 8.01 9.08
3/25/2021 5:00:00 AM 12.17 53.906 0.768 7.85 7.79 9.09
3/25/2021 5:15:00 AM 12.16 53.888 0.767 7.85 7.74 9.1
3/25/2021 5:30:00 AM 12.15 53.87 0.764 7.85 7.81 9.11
3/25/2021 5:45:00 AM 12.14 53.852 0.763 7.85 7.52 9.12
3/25/2021 6:00:00 AM 12.13 53.834 0.764 7.85 7.34 9.13
3/25/2021 6:15:00 AM 12.12 53.816 0.766 7.85 7.09 9.13
3/25/2021 6:30:00 AM 12.12 53.816 0.769 7.86 7.61 9.13
3/25/2021 6:45:00 AM 12.12 53.816 0.772 7.85 7.2 9.14
3/25/2021 7:00:00 AM 12.12 53.816 0.775 7.86 7.27 9.14
3/25/2021 7:15:00 AM 12.12 53.816 0.777 7.86 6.82 9.14
3/25/2021 7:30:00 AM 12.12 53.816 0.779 7.86 6.41 9.16
3/25/2021 7:45:00 AM 12.12 53.816 0.78 7.86 6.52 9.2
3/25/2021 8:00:00 AM 12.13 53.834 0.782 7.87 5.97 9.24
3/25/2021 8:15:00 AM 12.14 53.852 0.784 7.87 5.93 9.29
3/25/2021 8:30:00 AM 12.15 53.87 0.785 7.87 5.7 9.32
3/25/2021 8:45:00 AM 12.17 53.906 0.786 7.88 5.52 9.39
3/25/2021 9:00:00 AM 12.19 53.942 0.789 7.89 5.24 9.47
3/25/2021 9:15:00 AM 12.22 53.996 0.792 7.89 5.3 9.6
3/25/2021 9:30:00 AM 12.27 54.086 0.796 7.91 5.61 9.75
3/25/2021 9:45:00 AM 12.31 54.158 0.798 7.92 5.06 9.86
3/25/2021 10:00:00 AM 12.35 54.23 0.8 7.93 5.96 9.98
3/25/2021 10:15:00 AM 12.4 54.32 0.807 7.94 5.57 10.1
3/25/2021 10:30:00 AM 12.45 54.41 0.816 7.94 5.11 10.13
3/25/2021 10:45:00 AM 12.51 54.518 0.828 7.95 5.7 10.25
3/25/2021 11:00:00 AM 12.58 54.644 0.84 7.96 5.06 10.35
3/25/2021 11:15:00 AM 12.66 54.788 0.859 7.97 4.98 10.47
3/25/2021 11:30:00 AM 12.76 54.968 0.879 7.99 5.1 10.7
3/25/2021 11:45:00 AM 12.87 55.166 0.893 8.01 5.07 10.87
3/25/2021 12:00:00 PM 12.96 55.328 0.899 8.02 4.9 11.02
3/25/2021 12:15:00 PM 13.04 55.472 0.899 8.04 4.86 11.18
3/25/2021 12:30:00 PM 13.11 55.598 0.893 8.06 5.22 11.31
3/25/2021 12:45:00 PM 13.16 55.688 0.886 8.07 5.13 11.41
3/25/2021 1:00:00 PM 13.21 55.778 0.879 8.08 5 11.38
3/25/2021 1:15:00 PM 13.25 55.85 0.876 8.09 4.8 11.47
3/25/2021 1:30:00 PM 13.3 55.94 0.873 8.1 5.38 11.57
3/25/2021 1:45:00 PM 13.36 56.048 0.87 8.12 4.75 11.68
3/25/2021 2:00:00 PM 13.43 56.174 0.867 8.14 5.06 11.85
3/25/2021 2:15:00 PM 13.5 56.3 0.862 8.16 4.8 11.95
3/25/2021 2:30:00 PM 13.56 56.408 0.855 8.17 5.04 11.99
3/25/2021 2:45:00 PM 13.62 56.516 0.847 8.18 4.85 12.02
3/25/2021 3:00:00 PM 13.73 56.714 0.842 8.21 4.92 12.34
3/25/2021 3:15:00 PM 13.83 56.894 0.839 8.23 4.93 12.46
3/25/2021 3:30:00 PM 13.93 57.074 0.837 8.25 5.25 12.55
3/25/2021 3:45:00 PM 14.03 57.254 0.837 8.27 5.11 12.7
3/25/2021 4:00:00 PM 14.1 57.38 0.836 8.27 5.48 12.58
3/25/2021 4:15:00 PM 14.14 57.452 0.836 8.27 4.97 12.42
3/25/2021 4:30:00 PM 14.18 57.524 0.837 8.27 5.39 12.4
3/25/2021 4:45:00 PM 14.19 57.542 0.837 8.26 5.47 12.26
3/25/2021 5:00:00 PM 14.2 57.56 0.837 8.25 5.49 12
3/25/2021 5:15:00 PM 14.2 57.56 0.837 8.23 6.13 11.78
3/25/2021 5:30:00 PM 14.21 57.578 0.836 8.22 5.84 11.69
3/25/2021 5:45:00 PM 14.22 57.596 0.835 8.22 6.02 11.58
3/25/2021 6:00:00 PM 14.22 57.596 0.834 8.2 5.46 11.42
3/25/2021 6:15:00 PM 14.21 57.578 0.833 8.19 5.53 11.25
3/25/2021 6:30:00 PM 14.19 57.542 0.832 8.17 5.44 11.04
3/25/2021 6:45:00 PM 14.16 57.488 0.829 8.16 5.65 10.83
3/25/2021 7:00:00 PM 14.11 57.398 0.827 8.13 5.7 10.6
3/25/2021 7:15:00 PM 14.06 57.308 0.826 8.11 6.08 10.4
3/25/2021 7:30:00 PM 14.01 57.218 0.824 8.09 6 10.2
3/25/2021 7:45:00 PM 13.95 57.11 0.825 8.07 6.21 10.01
3/25/2021 8:00:00 PM 13.89 57.002 0.827 8.05 6.74 9.84
3/25/2021 8:15:00 PM 13.84 56.912 0.829 8.03 6.87 9.67
3/25/2021 8:30:00 PM 13.79 56.822 0.83 8.01 6.78 9.53
3/25/2021 8:45:00 PM 13.74 56.732 0.831 7.99 6.47 9.4
3/25/2021 9:00:00 PM 13.7 56.66 0.832 7.97 6.73 9.29
3/25/2021 9:15:00 PM 13.65 56.57 0.832 7.96 6.4 9.19
3/25/2021 9:30:00 PM 13.59 56.462 0.832 7.94 6.46 9.1
3/25/2021 9:45:00 PM 13.54 56.372 0.834 7.93 6.79 9.01
3/25/2021 10:00:00 PM 13.49 56.282 0.836 7.92 6.89 8.95
3/25/2021 10:15:00 PM 13.44 56.192 0.838 7.91 6.77 8.89
3/25/2021 10:30:00 PM 13.39 56.102 0.842 7.9 6.6 8.84
3/25/2021 10:45:00 PM 13.35 56.03 0.844 7.9 6.42 8.81
3/25/2021 11:00:00 PM 13.31 55.958 0.846 7.89 6.5 8.78
3/25/2021 11:15:00 PM 13.27 55.886 0.847 7.88 6.68 8.76
3/25/2021 11:30:00 PM 13.23 55.814 0.849 7.88 7.43 8.74
3/25/2021 11:45:00 PM 13.2 55.76 0.851 7.87 6.91 8.72
3/26/2021 12:00:00 AM 13.16 55.688 0.852 7.87 7.17 8.71
3/26/2021 12:15:00 AM 13.13 55.634 0.852 7.87 6.58 8.71
3/26/2021 12:30:00 AM 13.1 55.58 0.851 7.86 6.19 8.71
3/26/2021 12:45:00 AM 13.07 55.526 0.848 7.86 6.22 8.7
3/26/2021 1:00:00 AM 13.04 55.472 0.845 7.86 6.35 8.7
3/26/2021 1:15:00 AM 13.01 55.418 0.842 7.86 6.31 8.7
3/26/2021 1:30:00 AM 12.98 55.364 0.838 7.85 6.46 8.68
3/26/2021 1:45:00 AM 12.95 55.31 0.835 7.85 6.4 8.69
3/26/2021 2:00:00 AM 12.93 55.274 0.833 7.85 6.06 8.68
3/26/2021 2:15:00 AM 12.91 55.238 0.83 7.85 6.57 8.69
3/26/2021 2:30:00 AM 12.88 55.184 0.825 7.85 6.29 8.69
3/26/2021 2:45:00 AM 12.86 55.148 0.821 7.85 6.04 8.69
3/26/2021 3:00:00 AM 12.85 55.13 0.819 7.85 6.38 8.71
3/26/2021 3:15:00 AM 12.83 55.094 0.817 7.85 6.94 8.71
3/26/2021 3:30:00 AM 12.81 55.058 0.814 7.85 7.51 8.72
3/26/2021 3:45:00 AM 12.8 55.04 0.81 7.85 6.28 8.73
3/26/2021 4:00:00 AM 12.78 55.004 0.805 7.85 6.38 8.73
3/26/2021 4:15:00 AM 12.77 54.986 0.801 7.86 6.51 8.74
3/26/2021 4:30:00 AM 12.75 54.95 0.798 7.86 6.33 8.74
3/26/2021 4:45:00 AM 12.74 54.932 0.794 7.86 6.25 8.75
3/26/2021 5:00:00 AM 12.73 54.914 0.79 7.86 6.1 8.75
3/26/2021 5:15:00 AM 12.7 54.86 0.784 7.87 6.22 8.77
3/26/2021 5:30:00 AM 12.68 54.824 0.781 7.87 6.53 8.78
3/26/2021 5:45:00 AM 12.66 54.788 0.779 7.87 6.29 8.78
3/26/2021 6:00:00 AM 12.63 54.734 0.777 7.87 6.1 8.79
3/26/2021 6:15:00 AM 12.61 54.698 0.775 7.87 6.25 8.79
3/26/2021 6:30:00 AM 12.59 54.662 0.775 7.87 6.33 8.79
3/26/2021 6:45:00 AM 12.59 54.662 0.775 7.88 5.99 8.8
3/26/2021 7:00:00 AM 12.59 54.662 0.774 7.88 6 8.79
3/26/2021 7:15:00 AM 12.6 54.68 0.775 7.88 5.83 8.81
3/26/2021 7:30:00 AM 12.59 54.662 0.776 7.88 5.89 8.86
3/26/2021 7:45:00 AM 12.6 54.68 0.777 7.89 5.48 8.94
3/26/2021 8:00:00 AM 12.61 54.698 0.778 7.89 5.16 9.02
3/26/2021 8:15:00 AM 12.64 54.752 0.779 7.9 5.12 9.06
3/26/2021 8:30:00 AM 12.66 54.788 0.78 7.9 5.02 9.1
3/26/2021 8:45:00 AM 12.69 54.842 0.78 7.91 4.94 9.22
3/26/2021 9:00:00 AM 12.73 54.914 0.779 7.92 5.29 9.45
3/26/2021 9:15:00 AM 12.81 55.058 0.779 7.94 4.92 9.71
3/26/2021 9:30:00 AM 12.9 55.22 0.78 7.96 5.51 9.93
3/26/2021 9:45:00 AM 13.04 55.472 0.781 7.98 4.93 10.19
3/26/2021 10:00:00 AM 13.17 55.706 0.783 8 4.99 10.4
3/26/2021 10:15:00 AM 13.34 56.012 0.787 8.02 5.34 10.65
3/26/2021 10:30:00 AM 13.53 56.354 0.794 8.05 5.19 10.91
3/26/2021 10:45:00 AM 13.73 56.714 0.802 8.07 5.13 11.13
3/26/2021 11:00:00 AM 13.93 57.074 0.811 8.09 5.46 11.31
3/26/2021 11:15:00 AM 14.13 57.434 0.818 8.12 5.02 11.54
3/26/2021 11:30:00 AM 14.36 57.848 0.824 8.14 4.36 11.78
3/26/2021 11:45:00 AM 14.61 58.298 0.829 8.17 4.4 12.03
3/26/2021 12:00:00 PM 14.84 58.712 0.833 8.2 5.83 12.18
3/26/2021 12:15:00 PM 15.05 59.09 0.835 8.22 4.56 12.27
3/26/2021 12:30:00 PM 15.28 59.504 0.836 8.25 4.52 12.47
3/26/2021 12:45:00 PM 15.51 59.918 0.837 8.29 4.98 12.73
3/26/2021 1:00:00 PM 15.76 60.368 0.838 8.32 4.52 12.92
3/26/2021 1:15:00 PM 16 60.8 0.839 8.34 4.86 13.04
3/26/2021 1:30:00 PM 16.2 61.16 0.841 8.36 5.14 13.11
3/26/2021 1:45:00 PM 16.35 61.43 0.843 8.37 4.69 13.09
3/26/2021 2:00:00 PM 16.51 61.718 0.843 8.39 4.84 13.13
3/26/2021 2:15:00 PM 16.67 62.006 0.843 8.41 5.26 13.16
3/26/2021 2:30:00 PM 16.83 62.294 0.844 8.42 4.86 13.19
3/26/2021 2:45:00 PM 16.98 62.564 0.843 8.43 5.09 13.16
3/26/2021 3:00:00 PM 17.09 62.762 0.843 8.43 4.92 13.07
3/26/2021 3:15:00 PM 17.17 62.906 0.843 8.44 5.08 12.98
3/26/2021 3:30:00 PM 17.24 63.032 0.844 8.44 5.3 12.91
3/26/2021 3:45:00 PM 17.27 63.086 0.844 8.44 4.92 12.78
3/26/2021 4:00:00 PM 17.28 63.104 0.844 8.43 5.28 12.64
3/26/2021 4:15:00 PM 17.27 63.086 0.843 8.43 5.22 12.53
3/26/2021 4:30:00 PM 17.24 63.032 0.842 8.42 5.1 12.36
3/26/2021 4:45:00 PM 17.19 62.942 0.843 8.4 5.46 12.18
3/26/2021 5:00:00 PM 17.14 62.852 0.844 8.39 5.57 11.98
3/26/2021 5:15:00 PM 17.05 62.69 0.845 8.37 5.59 11.75
3/26/2021 5:30:00 PM 16.94 62.492 0.846 8.35 5.68 11.52
3/26/2021 5:45:00 PM 16.81 62.258 0.847 8.32 6.39 11.25
3/26/2021 6:00:00 PM 16.69 62.042 0.847 8.29 6.23 10.99
3/26/2021 6:15:00 PM 16.53 61.754 0.847 8.26 6.73 10.71
3/26/2021 6:30:00 PM 16.37 61.466 0.848 8.24 6.47 10.48
3/26/2021 6:45:00 PM 16.21 61.178 0.848 8.21 6.6 10.29
3/26/2021 7:00:00 PM 16.05 60.89 0.847 8.19 5.88 10.1
3/26/2021 7:15:00 PM 15.9 60.62 0.848 8.16 6.26 9.92
3/26/2021 7:30:00 PM 15.73 60.314 0.849 8.14 6.13 9.75
3/26/2021 7:45:00 PM 15.57 60.026 0.85 8.12 6.46 9.61
3/26/2021 8:00:00 PM 15.41 59.738 0.851 8.09 6.79 9.49
3/26/2021 8:15:00 PM 15.24 59.432 0.853 8.07 7.24 9.39
3/26/2021 8:30:00 PM 15.07 59.126 0.856 8.06 8.78 9.27
3/26/2021 8:45:00 PM 14.9 58.82 0.858 8.04 7.12 9.17
3/26/2021 9:00:00 PM 14.72 58.496 0.86 8.02 6.92 9.06
3/26/2021 9:15:00 PM 14.55 58.19 0.861 8 6.69 8.96
3/26/2021 9:30:00 PM 14.38 57.884 0.863 7.98 6.55 8.86
3/26/2021 9:45:00 PM 14.21 57.578 0.864 7.97 6.8 8.79
3/26/2021 10:00:00 PM 14.05 57.29 0.864 7.96 6.48 8.74
3/26/2021 10:15:00 PM 13.9 57.02 0.864 7.95 6.82 8.69
3/26/2021 10:30:00 PM 13.75 56.75 0.863 7.94 6.49 8.65
3/26/2021 10:45:00 PM 13.61 56.498 0.864 7.93 6.98 8.64
3/26/2021 11:00:00 PM 13.48 56.264 0.865 7.92 6.51 8.62
3/26/2021 11:15:00 PM 13.35 56.03 0.866 7.91 6.2 8.62
3/26/2021 11:30:00 PM 13.22 55.796 0.868 7.91 6.43 8.61
3/26/2021 11:45:00 PM 13.1 55.58 0.868 7.9 7.29 8.62
3/27/2021 12:00:00 AM 12.98 55.364 0.867 7.9 6.64 8.63
3/27/2021 12:15:00 AM 12.87 55.166 0.865 7.9 8.22 8.66
3/27/2021 12:30:00 AM 12.77 54.986 0.864 7.89 7.45 8.68
3/27/2021 12:45:00 AM 12.67 54.806 0.863 7.89 6.57 8.69
3/27/2021 1:00:00 AM 12.57 54.626 0.864 7.89 6.81 8.71
3/27/2021 1:15:00 AM 12.48 54.464 0.864 7.89 6.91 8.73
3/27/2021 1:30:00 AM 12.39 54.302 0.864 7.89 6.15 8.75
3/27/2021 1:45:00 AM 12.31 54.158 0.864 7.89 6.37 8.77
3/27/2021 2:00:00 AM 12.23 54.014 0.863 7.88 6.57 8.79
3/27/2021 2:15:00 AM 12.14 53.852 0.861 7.88 6.29 8.81
3/27/2021 2:30:00 AM 12.07 53.726 0.86 7.88 7.27 8.84
3/27/2021 2:45:00 AM 11.99 53.582 0.857 7.89 6.88 8.85
3/27/2021 3:00:00 AM 11.92 53.456 0.855 7.88 6.17 8.87
3/27/2021 3:15:00 AM 11.85 53.33 0.85 7.89 6.65 8.89
3/27/2021 3:30:00 AM 11.77 53.186 0.846 7.89 6.71 8.92
3/27/2021 3:45:00 AM 11.7 53.06 0.841 7.89 6.38 8.94
3/27/2021 4:00:00 AM 11.63 52.934 0.837 7.89 6.56 8.96
3/27/2021 4:15:00 AM 11.56 52.808 0.834 7.89 5.98 8.99
3/27/2021 4:30:00 AM 11.5 52.7 0.83 7.89 6.02 9.01
3/27/2021 4:45:00 AM 11.44 52.592 0.827 7.89 6.57 9.03
3/27/2021 5:00:00 AM 11.38 52.484 0.823 7.9 6.06 9.04
3/27/2021 5:15:00 AM 11.31 52.358 0.819 7.9 6.32 9.06
3/27/2021 5:30:00 AM 11.26 52.268 0.817 7.9 6.27 9.08
3/27/2021 5:45:00 AM 11.2 52.16 0.813 7.9 6.44 9.1
3/27/2021 6:00:00 AM 11.14 52.052 0.81 7.9 6.88 9.12
3/27/2021 6:15:00 AM 11.09 51.962 0.807 7.9 6.45 9.14
3/27/2021 6:30:00 AM 11.03 51.854 0.805 7.9 6.42 9.16
3/27/2021 6:45:00 AM 10.98 51.764 0.804 7.9 6.32 9.2
3/27/2021 7:00:00 AM 10.93 51.674 0.805 7.9 6.31 9.22
3/27/2021 7:15:00 AM 10.89 51.602 0.806 7.9 5.58 9.26
3/27/2021 7:30:00 AM 10.85 51.53 0.807 7.91 5.72 9.31
3/27/2021 7:45:00 AM 10.82 51.476 0.808 7.91 5.84 9.38
3/27/2021 8:00:00 AM 10.81 51.458 0.81 7.91 5.48 9.47
3/27/2021 8:15:00 AM 10.8 51.44 0.812 7.92 5.49 9.57
3/27/2021 8:30:00 AM 10.82 51.476 0.812 7.93 5.52 9.72
3/27/2021 8:45:00 AM 10.86 51.548 0.811 7.94 5.33 9.93
3/27/2021 9:00:00 AM 10.91 51.638 0.809 7.96 4.97 10.15
3/27/2021 9:15:00 AM 10.97 51.746 0.808 7.98 5.28 10.35
3/27/2021 9:30:00 AM 11.04 51.872 0.806 7.99 5.25 10.52
3/27/2021 9:45:00 AM 11.14 52.052 0.805 8.01 5.37 10.82
3/27/2021 10:00:00 AM 11.26 52.268 0.805 8.04 5.02 11.1
3/27/2021 10:15:00 AM 11.41 52.538 0.804 8.06 5.01 11.36
3/27/2021 10:30:00 AM 11.56 52.808 0.804 8.09 5.04 11.57
3/27/2021 10:45:00 AM 11.74 53.132 0.806 8.11 4.87 11.8
3/27/2021 11:00:00 AM 11.95 53.51 0.811 8.14 5.26 12.01
3/27/2021 11:15:00 AM 12.18 53.924 0.817 8.16 5.25 12.25
3/27/2021 11:30:00 AM 12.44 54.392 0.824 8.19 5.39 12.49
3/27/2021 11:45:00 AM 12.72 54.896 0.833 8.22 4.87 12.71
3/27/2021 12:00:00 PM 13.01 55.418 0.844 8.25 4.95 12.92
3/27/2021 12:15:00 PM 13.31 55.958 0.855 8.28 4.84 13.11
3/27/2021 12:30:00 PM 13.61 56.498 0.866 8.31 4.94 13.29
3/27/2021 12:45:00 PM 13.91 57.038 0.874 8.33 5 13.43
3/27/2021 1:00:00 PM 14.19 57.542 0.88 8.36 5.03 13.58
3/27/2021 1:15:00 PM 14.46 58.028 0.886 8.38 4.78 13.7
3/27/2021 1:30:00 PM 14.73 58.514 0.89 8.41 5.3 13.81
3/27/2021 1:45:00 PM 14.96 58.928 0.894 8.42 5.27 13.82
3/27/2021 2:00:00 PM 15.15 59.27 0.898 8.44 4.98 13.82
3/27/2021 2:15:00 PM 15.33 59.594 0.902 8.45 5.33 13.86
3/27/2021 2:30:00 PM 15.5 59.9 0.902 8.46 5.57 13.83
3/27/2021 2:45:00 PM 15.63 60.134 0.9 8.47 5.79 13.78
3/27/2021 3:00:00 PM 15.75 60.35 0.897 8.48 5.53 13.71
3/27/2021 3:15:00 PM 15.86 60.548 0.895 8.48 5.14 13.67
3/27/2021 3:30:00 PM 15.94 60.692 0.893 8.48 5.15 13.55
3/27/2021 3:45:00 PM 16 60.8 0.893 8.48 5.19 13.42
3/27/2021 4:00:00 PM 16.03 60.854 0.892 8.47 5.73 13.21
3/27/2021 4:15:00 PM 16.04 60.872 0.892 8.46 5.56 12.98
3/27/2021 4:30:00 PM 16.03 60.854 0.891 8.44 5.58 12.76
3/27/2021 4:45:00 PM 16 60.8 0.891 8.43 5.31 12.57
3/27/2021 5:00:00 PM 15.96 60.728 0.891 8.41 5.14 12.37
3/27/2021 5:15:00 PM 15.93 60.674 0.891 8.4 5.46 12.2
3/27/2021 5:30:00 PM 15.89 60.602 0.89 8.38 5.23 11.99
3/27/2021 5:45:00 PM 15.84 60.512 0.889 8.36 5.39 11.78
3/27/2021 6:00:00 PM 15.78 60.404 0.887 8.34 5.52 11.52
3/27/2021 6:15:00 PM 15.7 60.26 0.887 8.31 5.35 11.26
3/27/2021 6:30:00 PM 15.61 60.098 0.887 8.28 5.36 11.03
3/27/2021 6:45:00 PM 15.49 59.882 0.886 8.25 5.48 10.78
3/27/2021 7:00:00 PM 15.38 59.684 0.885 8.22 5.54 10.54
3/27/2021 7:15:00 PM 15.26 59.468 0.885 8.19 5.38 10.28
3/27/2021 7:30:00 PM 15.14 59.252 0.885 8.16 5.55 10.06
3/27/2021 7:45:00 PM 15.01 59.018 0.885 8.13 5.76 9.85
3/27/2021 8:00:00 PM 14.88 58.784 0.883 8.1 6.12 9.69
3/27/2021 8:15:00 PM 14.75 58.55 0.881 8.08 6.83 9.53
3/27/2021 8:30:00 PM 14.62 58.316 0.879 8.06 6.31 9.39
3/27/2021 8:45:00 PM 14.5 58.1 0.877 8.04 6.42 9.25
3/27/2021 9:00:00 PM 14.36 57.848 0.878 8.02 6.43 9.12
3/27/2021 9:15:00 PM 14.24 57.632 0.88 8 6.31 9.02
3/27/2021 9:30:00 PM 14.11 57.398 0.881 7.98 6.28 8.93
3/27/2021 9:45:00 PM 13.99 57.182 0.881 7.97 6.37 8.85
3/27/2021 10:00:00 PM 13.86 56.948 0.88 7.96 5.97 8.76
3/27/2021 10:15:00 PM 13.74 56.732 0.88 7.94 6.55 8.71
3/27/2021 10:30:00 PM 13.62 56.516 0.882 7.93 6.14 8.67
3/27/2021 10:45:00 PM 13.51 56.318 0.885 7.92 6.42 8.64
3/27/2021 11:00:00 PM 13.4 56.12 0.887 7.92 6.62 8.61
3/27/2021 11:15:00 PM 13.31 55.958 0.887 7.91 6.29 8.6
3/27/2021 11:30:00 PM 13.22 55.796 0.887 7.9 6.25 8.59
3/27/2021 11:45:00 PM 13.13 55.634 0.886 7.9 8.08 8.58
3/28/2021 12:00:00 AM 13.05 55.49 0.886 7.9 5.92 8.58
3/28/2021 12:15:00 AM 12.96 55.328 0.886 7.89 5.69 8.6
3/28/2021 12:30:00 AM 12.88 55.184 0.885 7.89 6.01 8.6
3/28/2021 12:45:00 AM 12.8 55.04 0.882 7.89 5.92 8.62
3/28/2021 1:00:00 AM 12.72 54.896 0.88 7.89 5.65 8.62
3/28/2021 1:15:00 AM 12.65 54.77 0.877 7.89 5.99 8.64
3/28/2021 1:30:00 AM 12.59 54.662 0.873 7.89 5.51 8.65
3/28/2021 1:45:00 AM 12.53 54.554 0.868 7.89 5.86 8.66
3/28/2021 2:00:00 AM 12.47 54.446 0.864 7.89 5.99 8.67
3/28/2021 2:15:00 AM 12.42 54.356 0.861 7.89 6.26 8.68
3/28/2021 2:30:00 AM 12.37 54.266 0.859 7.89 6.4 8.71
3/28/2021 2:45:00 AM 12.34 54.212 0.857 7.89 6.55 8.73
3/28/2021 3:00:00 AM 12.3 54.14 0.854 7.89 5.84 8.73
3/28/2021 3:15:00 AM 12.26 54.068 0.85 7.89 5.9 8.75
3/28/2021 3:30:00 AM 12.24 54.032 0.845 7.89 5.74 8.77
3/28/2021 3:45:00 AM 12.2 53.96 0.841 7.89 6.3 8.78
3/28/2021 4:00:00 AM 12.17 53.906 0.837 7.9 6.4 8.78
3/28/2021 4:15:00 AM 12.15 53.87 0.832 7.9 6.02 8.79
3/28/2021 4:30:00 AM 12.13 53.834 0.827 7.9 6.32 8.81
3/28/2021 4:45:00 AM 12.12 53.816 0.824 7.9 6.03 8.82
3/28/2021 5:00:00 AM 12.11 53.798 0.821 7.9 6.61 8.83
3/28/2021 5:15:00 AM 12.1 53.78 0.818 7.9 6.23 8.82
3/28/2021 5:30:00 AM 12.09 53.762 0.815 7.9 6.23 8.84
3/28/2021 5:45:00 AM 12.08 53.744 0.813 7.9 6.06 8.85
3/28/2021 6:00:00 AM 12.07 53.726 0.811 7.9 6.52 8.85
3/28/2021 6:15:00 AM 12.06 53.708 0.809 7.91 6.16 8.86
3/28/2021 6:30:00 AM 12.05 53.69 0.808 7.91 5.85 8.85
3/28/2021 6:45:00 AM 12.05 53.69 0.808 7.91 5.76 8.85
3/28/2021 7:00:00 AM 12.05 53.69 0.808 7.91 5.65 8.85
3/28/2021 7:15:00 AM 12.04 53.672 0.808 7.91 5.59 8.86
3/28/2021 7:30:00 AM 12.04 53.672 0.808 7.91 5.46 8.86
3/28/2021 7:45:00 AM 12.04 53.672 0.808 7.91 5.49 8.87
3/28/2021 8:00:00 AM 12.04 53.672 0.807 7.91 5.28 8.88
3/28/2021 8:15:00 AM 12.04 53.672 0.806 7.91 5.43 8.93
3/28/2021 8:30:00 AM 12.04 53.672 0.804 7.92 7.02 8.95
3/28/2021 8:45:00 AM 12.04 53.672 0.802 7.92 6.3 8.98
3/28/2021 9:00:00 AM 12.04 53.672 0.8 7.92 5.86 9.04
3/28/2021 9:15:00 AM 12.05 53.69 0.796 7.93 6.4 9.12
3/28/2021 9:30:00 AM 12.06 53.708 0.793 7.93 7.31 9.14
3/28/2021 9:45:00 AM 12.07 53.726 0.791 7.93 6.84 9.21
3/28/2021 10:00:00 AM 12.08 53.744 0.789 7.93 7.39 9.23
3/28/2021 10:15:00 AM 12.08 53.744 0.786 7.93 9.27 9.25
3/28/2021 10:30:00 AM 12.09 53.762 0.786 7.93 10.46 9.27
3/28/2021 10:45:00 AM 12.12 53.816 0.799 7.92 10.65 9.31
3/28/2021 11:00:00 AM 12.18 53.924 0.817 7.92 10.78 9.36
3/28/2021 11:15:00 AM 12.23 54.014 0.824 7.92 10.56 9.35
3/28/2021 11:30:00 AM 12.27 54.086 0.815 7.91 11.74 9.37
3/28/2021 11:45:00 AM 12.3 54.14 0.8 7.91 10.61 9.42
3/28/2021 12:00:00 PM 12.32 54.176 0.784 7.9 10 9.42
3/28/2021 12:15:00 PM 12.34 54.212 0.772 7.89 9.5 9.39
3/28/2021 12:30:00 PM 12.38 54.284 0.757 7.87 9.45 9.32
3/28/2021 12:45:00 PM 12.42 54.356 0.736 7.85 10.49 9.28
3/28/2021 1:00:00 PM 12.46 54.428 0.72 7.82 11.41 9.22
3/28/2021 1:15:00 PM 12.5 54.5 0.712 7.81 12.09 9.19
3/28/2021 1:30:00 PM 12.54 54.572 0.71 7.8 13.19 9.21
3/28/2021 1:45:00 PM 12.57 54.626 0.713 7.8 14.18 9.25
3/28/2021 2:00:00 PM 12.6 54.68 0.718 7.8 12.05 9.32
3/28/2021 2:15:00 PM 12.63 54.734 0.722 7.81 12.19 9.41
3/28/2021 2:30:00 PM 12.67 54.806 0.724 7.81 12.34 9.49
3/28/2021 2:45:00 PM 12.72 54.896 0.725 7.83 10.53 9.57
3/28/2021 3:00:00 PM 12.78 55.004 0.724 7.84 9.87 9.74
3/28/2021 3:15:00 PM 12.82 55.076 0.72 7.84 9.42 9.71
3/28/2021 3:30:00 PM 12.88 55.184 0.713 7.85 9.31 9.71
3/28/2021 3:45:00 PM 12.93 55.274 0.706 7.85 8.85 9.72
3/28/2021 4:00:00 PM 12.98 55.364 0.698 7.84 8.79 9.67
3/28/2021 4:15:00 PM 13.03 55.454 0.692 7.85 9.61 9.69
3/28/2021 4:30:00 PM 13.09 55.562 0.691 7.85 9.46 9.79
3/28/2021 4:45:00 PM 13.15 55.67 0.696 7.86 9.34 9.82
3/28/2021 5:00:00 PM 13.18 55.724 0.703 7.86 8.77 9.77
3/28/2021 5:15:00 PM 13.2 55.76 0.714 7.87 8.59 9.75
3/28/2021 5:30:00 PM 13.22 55.796 0.729 7.87 8.28 9.74
3/28/2021 5:45:00 PM 13.23 55.814 0.742 7.88 9.53 9.71
3/28/2021 6:00:00 PM 13.22 55.796 0.746 7.89 8.96 9.69
3/28/2021 6:15:00 PM 13.22 55.796 0.743 7.9 11.96 9.65
3/28/2021 6:30:00 PM 13.2 55.76 0.752 7.91 11.75 9.63
3/28/2021 6:45:00 PM 13.19 55.742 0.762 7.91 11.11 9.61
3/28/2021 7:00:00 PM 13.18 55.724 0.769 7.91 10.13 9.58
3/28/2021 7:15:00 PM 13.18 55.724 0.772 7.91 14.02 9.55
3/28/2021 7:30:00 PM 13.15 55.67 0.779 7.91 14.58 9.47
3/28/2021 7:45:00 PM 13.11 55.598 0.783 7.9 18.53 9.36
3/28/2021 8:00:00 PM 13.07 55.526 0.781 7.89 22.1 9.27
3/28/2021 8:15:00 PM 13.04 55.472 0.792 7.88 22.51 9.18
3/28/2021 8:30:00 PM 13.01 55.418 0.792 7.87 20.31 9.12
3/28/2021 8:45:00 PM 13 55.4 0.765 7.86 20.83 9.08
3/28/2021 9:00:00 PM 12.97 55.346 0.727 7.85 20.68 9.05
3/28/2021 9:15:00 PM 12.93 55.274 0.691 7.83 18.8 8.99
3/28/2021 9:30:00 PM 12.91 55.238 0.659 7.81 19.67 8.91
3/28/2021 9:45:00 PM 12.89 55.202 0.635 7.79 18.31 8.81
3/28/2021 10:00:00 PM 12.86 55.148 0.622 7.76 18.02 8.73
3/28/2021 10:15:00 PM 12.81 55.058 0.616 7.75 16.36 8.69
3/28/2021 10:30:00 PM 12.73 54.914 0.614 7.73 15.64 8.69
3/28/2021 10:45:00 PM 12.63 54.734 0.618 7.73 14.72 8.69
3/28/2021 11:00:00 PM 12.52 54.536 0.627 7.73 14.4 8.71
3/28/2021 11:15:00 PM 12.4 54.32 0.637 7.73 13.88 8.74
3/28/2021 11:30:00 PM 12.27 54.086 0.65 7.73 14.06 8.77
3/28/2021 11:45:00 PM 12.15 53.87 0.665 7.74 14.71 8.8
3/29/2021 12:00:00 AM 12.03 53.654 0.679 7.74 13.61 8.83
3/29/2021 12:15:00 AM 11.91 53.438 0.693 7.75 12.32 8.86
3/29/2021 12:30:00 AM 11.78 53.204 0.706 7.76 11.9 8.89
3/29/2021 12:45:00 AM 11.67 53.006 0.716 7.76 11.63 8.93
3/29/2021 1:00:00 AM 11.56 52.808 0.724 7.77 11.77 8.98
3/29/2021 1:15:00 AM 11.45 52.61 0.731 7.78 10.83 9.02
3/29/2021 1:30:00 AM 11.36 52.448 0.736 7.79 10.61 9.06
3/29/2021 1:45:00 AM 11.26 52.268 0.74 7.79 10.57 9.09
3/29/2021 2:00:00 AM 11.15 52.07 0.744 7.8 9.37 9.13
3/29/2021 2:15:00 AM 11.05 51.89 0.746 7.81 9.79 9.17
3/29/2021 2:30:00 AM 10.96 51.728 0.746 7.81 8.95 9.21
3/29/2021 2:45:00 AM 10.89 51.602 0.746 7.82 10.05 9.25
3/29/2021 3:00:00 AM 10.84 51.512 0.747 7.82 8.26 9.28
3/29/2021 3:15:00 AM 10.78 51.404 0.746 7.83 9.07 9.3
3/29/2021 3:30:00 AM 10.71 51.278 0.747 7.83 8.54 9.34
3/29/2021 3:45:00 AM 10.65 51.17 0.746 7.84 8.08 9.35
3/29/2021 4:00:00 AM 10.58 51.044 0.744 7.84 8.35 9.38
3/29/2021 4:15:00 AM 10.53 50.954 0.743 7.84 8.3 9.42
3/29/2021 4:30:00 AM 10.47 50.846 0.741 7.85 7.92 9.44
3/29/2021 4:45:00 AM 10.42 50.756 0.74 7.85 7.79 9.47
3/29/2021 5:00:00 AM 10.35 50.63 0.739 7.86 7.61 9.5
3/29/2021 5:15:00 AM 10.29 50.522 0.738 7.86 7.87 9.53
3/29/2021 5:30:00 AM 10.23 50.414 0.737 7.86 8.18 9.55
3/29/2021 5:45:00 AM 10.2 50.36 0.736 7.86 8.06 9.57
3/29/2021 6:00:00 AM 10.16 50.288 0.735 7.87 7.8 9.59
3/29/2021 6:15:00 AM 10.13 50.234 0.735 7.87 7.82 9.61
3/29/2021 6:30:00 AM 10.09 50.162 0.736 7.87 7.13 9.62
3/29/2021 6:45:00 AM 10.06 50.108 0.738 7.87 7.44 9.63
3/29/2021 7:00:00 AM 10.03 50.054 0.74 7.87 7.34 9.65
3/29/2021 7:15:00 AM 10 50 0.743 7.88 7.44 9.67
3/29/2021 7:30:00 AM 9.97 49.946 0.747 7.88 7.39 9.72
3/29/2021 7:45:00 AM 9.96 49.928 0.751 7.88 7.2 9.75
3/29/2021 8:00:00 AM 9.94 49.892 0.755 7.89 6.77 9.81
3/29/2021 8:15:00 AM 9.92 49.856 0.758 7.89 6.31 9.9
3/29/2021 8:30:00 AM 9.91 49.838 0.757 7.9 7.68 10.01
3/29/2021 8:45:00 AM 9.9 49.82 0.756 7.91 6.15 10.16
3/29/2021 9:00:00 AM 9.93 49.874 0.756 7.93 6.05 10.32
3/29/2021 9:15:00 AM 9.97 49.946 0.758 7.94 5.83 10.51
3/29/2021 9:30:00 AM 10.01 50.018 0.761 7.95 5.99 10.65
3/29/2021 9:45:00 AM 10.01 50.018 0.765 7.96 5.7 10.71
3/29/2021 10:00:00 AM 10.04 50.072 0.769 7.97 5.84 10.84
3/29/2021 10:15:00 AM 10.09 50.162 0.773 7.99 5.74 11.02
3/29/2021 10:30:00 AM 10.2 50.36 0.777 8.01 5.85 11.26
3/29/2021 10:45:00 AM 10.32 50.576 0.782 8.02 5.58 11.47
3/29/2021 11:00:00 AM 10.47 50.846 0.788 8.05 5.47 11.73
3/29/2021 11:15:00 AM 10.66 51.188 0.794 8.07 5.65 11.94
3/29/2021 11:30:00 AM 10.85 51.53 0.8 8.1 5.9 12.14
3/29/2021 11:45:00 AM 10.99 51.782 0.801 8.11 5.59 12.23
3/29/2021 12:00:00 PM 11.19 52.142 0.8 8.14 5.9 12.46
3/29/2021 12:15:00 PM 11.41 52.538 0.797 8.17 5.77 12.65
3/29/2021 12:30:00 PM 11.63 52.934 0.794 8.2 6.54 12.79
3/29/2021 12:45:00 PM 11.87 53.366 0.792 8.22 6.07 12.96
3/29/2021 1:00:00 PM 12.07 53.726 0.791 8.25 6.07 13.07
3/29/2021 1:15:00 PM 12.28 54.104 0.791 8.27 6.57 13.18
3/29/2021 1:30:00 PM 12.49 54.482 0.792 8.29 5.65 13.23
3/29/2021 1:45:00 PM 12.71 54.878 0.794 8.3 5.89 13.29
3/29/2021 2:00:00 PM 12.9 55.22 0.798 8.32 5.67 13.31
3/29/2021 2:15:00 PM 13.09 55.562 0.801 8.33 5.72 13.34
3/29/2021 2:30:00 PM 13.29 55.922 0.802 8.34 6.07 13.35
3/29/2021 2:45:00 PM 13.45 56.21 0.802 8.35 5.77 13.34
3/29/2021 3:00:00 PM 13.6 56.48 0.801 8.36 5.66 13.31
3/29/2021 3:15:00 PM 13.71 56.678 0.8 8.36 5.5 13.25
3/29/2021 3:30:00 PM 13.81 56.858 0.799 8.37 5.24 13.16
3/29/2021 3:45:00 PM 13.88 56.984 0.798 8.37 5.59 13.08
3/29/2021 4:00:00 PM 13.94 57.092 0.798 8.36 5.35 12.98
3/29/2021 4:15:00 PM 13.97 57.146 0.8 8.36 5.86 12.86
3/29/2021 4:30:00 PM 13.98 57.164 0.802 8.35 6.34 12.74
3/29/2021 4:45:00 PM 13.98 57.164 0.804 8.34 5.79 12.58
3/29/2021 5:00:00 PM 13.97 57.146 0.804 8.33 5.76 12.42
3/29/2021 5:15:00 PM 13.93 57.074 0.804 8.31 5.76 12.23
3/29/2021 5:30:00 PM 13.89 57.002 0.804 8.29 5.69 12.03
3/29/2021 5:45:00 PM 13.82 56.876 0.804 8.27 5.92 11.81
3/29/2021 6:00:00 PM 13.76 56.768 0.806 8.25 6.21 11.57
3/29/2021 6:15:00 PM 13.68 56.624 0.805 8.22 5.92 11.35
3/29/2021 6:30:00 PM 13.59 56.462 0.803 8.2 5.93 11.15
3/29/2021 6:45:00 PM 13.49 56.282 0.802 8.18 6.45 10.96
3/29/2021 7:00:00 PM 13.38 56.084 0.8 8.15 5.65 10.79
3/29/2021 7:15:00 PM 13.27 55.886 0.799 8.13 5.88 10.62
3/29/2021 7:30:00 PM 13.16 55.688 0.799 8.11 6 10.46
3/29/2021 7:45:00 PM 13.05 55.49 0.799 8.09 5.96 10.32
3/29/2021 8:00:00 PM 12.93 55.274 0.799 8.07 6.31 10.21
3/29/2021 8:15:00 PM 12.81 55.058 0.801 8.05 6.28 10.1
3/29/2021 8:30:00 PM 12.69 54.842 0.804 8.04 6.95 9.99
3/29/2021 8:45:00 PM 12.56 54.608 0.806 8.02 7.1 9.88
3/29/2021 9:00:00 PM 12.43 54.374 0.808 8 7.01 9.77
3/29/2021 9:15:00 PM 12.29 54.122 0.81 7.98 8.36 9.66
3/29/2021 9:30:00 PM 12.15 53.87 0.811 7.97 6.64 9.58
3/29/2021 9:45:00 PM 12.02 53.636 0.814 7.95 6.99 9.5
3/29/2021 10:00:00 PM 11.89 53.402 0.817 7.94 6.61 9.42
3/29/2021 10:15:00 PM 11.77 53.186 0.819 7.93 7.2 9.37
3/29/2021 10:30:00 PM 11.64 52.952 0.821 7.92 6.8 9.34
3/29/2021 10:45:00 PM 11.53 52.754 0.823 7.91 6.45 9.31
3/29/2021 11:00:00 PM 11.41 52.538 0.826 7.9 6.68 9.3
3/29/2021 11:15:00 PM 11.31 52.358 0.829 7.9 6.87 9.27
3/29/2021 11:30:00 PM 11.2 52.16 0.833 7.89 6.57 9.26
3/29/2021 11:45:00 PM 11.11 51.998 0.837 7.89 7.11 9.26
3/30/2021 12:00:00 AM 11.02 51.836 0.841 7.88 6.78 9.27
3/30/2021 12:15:00 AM 10.93 51.674 0.845 7.88 6.53 9.27
3/30/2021 12:30:00 AM 10.85 51.53 0.848 7.87 6.64 9.27
3/30/2021 12:45:00 AM 10.77 51.386 0.849 7.87 6.54 9.29
3/30/2021 1:00:00 AM 10.7 51.26 0.847 7.87 6.96 9.29
3/30/2021 1:15:00 AM 10.62 51.116 0.845 7.87 6.65 9.31
3/30/2021 1:30:00 AM 10.54 50.972 0.842 7.87 7.23 9.33
3/30/2021 1:45:00 AM 10.46 50.828 0.839 7.87 6.51 9.36
3/30/2021 2:00:00 AM 10.39 50.702 0.836 7.87 6.63 9.38
3/30/2021 2:15:00 AM 10.32 50.576 0.833 7.87 6.1 9.41
3/30/2021 2:30:00 AM 10.25 50.45 0.829 7.87 6.34 9.43
3/30/2021 2:45:00 AM 10.18 50.324 0.825 7.87 6.19 9.46
3/30/2021 3:00:00 AM 10.11 50.198 0.822 7.88 6.49 9.49
3/30/2021 3:15:00 AM 10.04 50.072 0.818 7.88 6.52 9.51
3/30/2021 3:30:00 AM 9.97 49.946 0.814 7.88 6.16 9.53
3/30/2021 3:45:00 AM 9.91 49.838 0.808 7.88 6.46 9.55
3/30/2021 4:00:00 AM 9.85 49.73 0.803 7.88 6.2 9.59
3/30/2021 4:15:00 AM 9.79 49.622 0.799 7.89 6.27 9.62
3/30/2021 4:30:00 AM 9.73 49.514 0.796 7.89 6.48 9.65
3/30/2021 4:45:00 AM 9.68 49.424 0.793 7.89 6.8 9.68
3/30/2021 5:00:00 AM 9.63 49.334 0.791 7.89 6.8 9.7
3/30/2021 5:15:00 AM 9.58 49.244 0.791 7.89 9.09 9.72
3/30/2021 5:30:00 AM 9.54 49.172 0.79 7.89 6.78 9.74
3/30/2021 5:45:00 AM 9.5 49.1 0.788 7.9 6.62 9.76
3/30/2021 6:00:00 AM 9.45 49.01 0.785 7.9 6.42 9.78
3/30/2021 6:15:00 AM 9.41 48.938 0.783 7.9 6.29 9.8
3/30/2021 6:30:00 AM 9.38 48.884 0.784 7.9 6.54 9.81
3/30/2021 6:45:00 AM 9.34 48.812 0.784 7.9 6.35 9.83
3/30/2021 7:00:00 AM 9.32 48.776 0.784 7.9 6.05 9.85
3/30/2021 7:15:00 AM 9.29 48.722 0.785 7.9 5.91 9.89
3/30/2021 7:30:00 AM 9.28 48.704 0.786 7.91 5.96 9.94
3/30/2021 7:45:00 AM 9.27 48.686 0.787 7.91 5.47 10.01
3/30/2021 8:00:00 AM 9.27 48.686 0.789 7.92 5.78 10.07
3/30/2021 8:15:00 AM 9.28 48.704 0.79 7.92 5.83 10.16
3/30/2021 8:30:00 AM 9.32 48.776 0.791 7.93 7.06 10.28
3/30/2021 8:45:00 AM 9.37 48.866 0.79 7.94 5.57 10.41
3/30/2021 9:00:00 AM 9.44 48.992 0.789 7.95 5.82 10.56
3/30/2021 9:15:00 AM 9.54 49.172 0.789 7.96 6.66 10.72
3/30/2021 9:30:00 AM 9.65 49.37 0.79 7.98 5.6 10.9
3/30/2021 9:45:00 AM 9.78 49.604 0.791 7.99 5.95 11.07
3/30/2021 10:00:00 AM 9.93 49.874 0.793 8.01 5.61 11.24
3/30/2021 10:15:00 AM 10.12 50.216 0.797 8.03 5.82 11.43
3/30/2021 10:30:00 AM 10.33 50.594 0.803 8.05 5.76 11.61
3/30/2021 10:45:00 AM 10.56 51.008 0.811 8.07 5.52 11.79
3/30/2021 11:00:00 AM 10.82 51.476 0.823 8.09 5.2 11.97
3/30/2021 11:15:00 AM 11.11 51.998 0.835 8.11 5.51 12.15
3/30/2021 11:30:00 AM 11.42 52.556 0.845 8.13 6.96 12.34
3/30/2021 11:45:00 AM 11.74 53.132 0.85 8.15 5.55 12.51
3/30/2021 12:00:00 PM 12.05 53.69 0.853 8.18 5.52 12.69
3/30/2021 12:15:00 PM 12.36 54.248 0.852 8.21 4.93 12.85
3/30/2021 12:30:00 PM 12.67 54.806 0.851 8.23 5.13 12.98
3/30/2021 12:45:00 PM 12.97 55.346 0.849 8.26 4.91 13.12
3/30/2021 1:00:00 PM 13.27 55.886 0.848 8.28 5.33 13.21
3/30/2021 1:15:00 PM 13.56 56.408 0.846 8.31 4.95 13.31
3/30/2021 1:30:00 PM 13.83 56.894 0.844 8.33 4.83 13.36
3/30/2021 1:45:00 PM 14.09 57.362 0.843 8.34 4.67 13.4
3/30/2021 2:00:00 PM 14.33 57.794 0.84 8.36 4.74 13.41
3/30/2021 2:15:00 PM 14.55 58.19 0.838 8.37 4.96 13.39
3/30/2021 2:30:00 PM 14.75 58.55 0.837 8.39 4.56 13.37
3/30/2021 2:45:00 PM 14.94 58.892 0.836 8.39 4.74 13.34
3/30/2021 3:00:00 PM 15.1 59.18 0.835 8.4 5.12 13.27
3/30/2021 3:15:00 PM 15.24 59.432 0.832 8.41 4.53 13.18
3/30/2021 3:30:00 PM 15.36 59.648 0.829 8.41 4.99 13.11
3/30/2021 3:45:00 PM 15.46 59.828 0.827 8.41 5.03 13
3/30/2021 4:00:00 PM 15.53 59.954 0.825 8.41 4.52 12.86
3/30/2021 4:15:00 PM 15.57 60.026 0.823 8.4 5.2 12.73
3/30/2021 4:30:00 PM 15.58 60.044 0.824 8.4 5.03 12.57
3/30/2021 4:45:00 PM 15.58 60.044 0.825 8.38 5.38 12.39
3/30/2021 5:00:00 PM 15.57 60.026 0.826 8.37 5.07 12.23
3/30/2021 5:15:00 PM 15.55 59.99 0.827 8.36 5.5 12.03
3/30/2021 5:30:00 PM 15.49 59.882 0.828 8.34 5.6 11.8
3/30/2021 5:45:00 PM 15.42 59.756 0.828 8.31 5.56 11.58
3/30/2021 6:00:00 PM 15.34 59.612 0.83 8.29 5.33 11.36
3/30/2021 6:15:00 PM 15.26 59.468 0.833 8.27 5.57 11.16
3/30/2021 6:30:00 PM 15.16 59.288 0.837 8.24 6.21 10.92
3/30/2021 6:45:00 PM 15.07 59.126 0.838 8.22 5.81 10.7
3/30/2021 7:00:00 PM 14.96 58.928 0.839 8.19 5.93 10.51
3/30/2021 7:15:00 PM 14.83 58.694 0.84 8.17 5.65 10.33
3/30/2021 7:30:00 PM 14.71 58.478 0.842 8.14 5.46 10.17
3/30/2021 7:45:00 PM 14.58 58.244 0.845 8.12 7.14 10.02
3/30/2021 8:00:00 PM 14.45 58.01 0.847 8.1 6.56 9.87
3/30/2021 8:15:00 PM 14.32 57.776 0.849 8.08 6.7 9.75
3/30/2021 8:30:00 PM 14.18 57.524 0.85 8.06 7.17 9.64
3/30/2021 8:45:00 PM 14.03 57.254 0.852 8.04 6.93 9.53
3/30/2021 9:00:00 PM 13.89 57.002 0.854 8.02 6.95 9.41
3/30/2021 9:15:00 PM 13.74 56.732 0.856 8.01 7.41 9.31
3/30/2021 9:30:00 PM 13.59 56.462 0.859 7.99 6.75 9.23
3/30/2021 9:45:00 PM 13.45 56.21 0.861 7.98 6.68 9.14
3/30/2021 10:00:00 PM 13.31 55.958 0.864 7.96 7.49 9.07
3/30/2021 10:15:00 PM 13.18 55.724 0.867 7.95 6.73 9
3/30/2021 10:30:00 PM 13.06 55.508 0.87 7.94 6.95 8.96
3/30/2021 10:45:00 PM 12.93 55.274 0.871 7.93 7 8.92
3/30/2021 11:00:00 PM 12.82 55.076 0.873 7.92 7.14 8.91
3/30/2021 11:15:00 PM 12.71 54.878 0.875 7.91 6.85 8.89
3/30/2021 11:30:00 PM 12.61 54.698 0.877 7.91 6.98 8.88
3/30/2021 11:45:00 PM 12.52 54.536 0.879 7.9 6.44 8.87
3/31/2021 12:00:00 AM 12.43 54.374 0.88 7.9 6.74 8.87
3/31/2021 12:15:00 AM 12.34 54.212 0.879 7.89 6.54 8.88
3/31/2021 12:30:00 AM 12.26 54.068 0.878 7.89 6.9 8.88
3/31/2021 12:45:00 AM 12.18 53.924 0.878 7.89 6.87 8.9
3/31/2021 1:00:00 AM 12.11 53.798 0.878 7.89 6.61 8.91
3/31/2021 1:15:00 AM 12.05 53.69 0.876 7.88 7.2 8.92
3/31/2021 1:30:00 AM 11.98 53.564 0.873 7.88 6.7 8.93
3/31/2021 1:45:00 AM 11.92 53.456 0.869 7.88 7.4 8.94
3/31/2021 2:00:00 AM 11.86 53.348 0.865 7.88 6.53 8.94
3/31/2021 2:15:00 AM 11.81 53.258 0.86 7.88 6.39 8.96
3/31/2021 2:30:00 AM 11.76 53.168 0.855 7.88 6.69 8.98
3/31/2021 2:45:00 AM 11.7 53.06 0.851 7.88 6.23 9
3/31/2021 3:00:00 AM 11.65 52.97 0.845 7.88 6.19 9.02
3/31/2021 3:15:00 AM 11.6 52.88 0.839 7.89 6.39 9.03
3/31/2021 3:30:00 AM 11.55 52.79 0.833 7.89 6.49 9.06
3/31/2021 3:45:00 AM 11.5 52.7 0.827 7.89 7.12 9.08
3/31/2021 4:00:00 AM 11.45 52.61 0.82 7.89 6.41 9.1
3/31/2021 4:15:00 AM 11.4 52.52 0.815 7.89 6.24 9.11
3/31/2021 4:30:00 AM 11.36 52.448 0.81 7.89 6.64 9.13
3/31/2021 4:45:00 AM 11.32 52.376 0.806 7.89 6.29 9.14
3/31/2021 5:00:00 AM 11.28 52.304 0.803 7.9 6.75 9.15
3/31/2021 5:15:00 AM 11.25 52.25 0.8 7.9 6.85 9.16
3/31/2021 5:30:00 AM 11.22 52.196 0.798 7.9 6.57 9.18
3/31/2021 5:45:00 AM 11.2 52.16 0.796 7.9 7.38 9.19
3/31/2021 6:00:00 AM 11.17 52.106 0.794 7.9 6.69 9.2
3/31/2021 6:15:00 AM 11.15 52.07 0.792 7.9 6.81 9.22
3/31/2021 6:30:00 AM 11.14 52.052 0.791 7.9 6.68 9.23
3/31/2021 6:45:00 AM 11.12 52.016 0.792 7.9 6.2 9.24
3/31/2021 7:00:00 AM 11.1 51.98 0.792 7.9 6.07 9.25
3/31/2021 7:15:00 AM 11.1 51.98 0.792 7.9 5.97 9.28
3/31/2021 7:30:00 AM 11.1 51.98 0.792 7.9 6.07 9.32
3/31/2021 7:45:00 AM 11.13 52.034 0.793 7.91 5.95 9.39
3/31/2021 8:00:00 AM 11.18 52.124 0.796 7.91 5.74 9.45
3/31/2021 8:15:00 AM 11.22 52.196 0.799 7.91 5.45 9.47
3/31/2021 8:30:00 AM 11.27 52.286 0.8 7.92 5.52 9.52
3/31/2021 8:45:00 AM 11.31 52.358 0.799 7.92 5.35 9.58
3/31/2021 9:00:00 AM 11.36 52.448 0.799 7.93 5.4 9.66
3/31/2021 9:15:00 AM 11.41 52.538 0.803 7.93 5.17 9.73
3/31/2021 9:30:00 AM 11.49 52.682 0.809 7.94 5.83 9.81
3/31/2021 9:45:00 AM 11.56 52.808 0.814 7.94 5.22 9.9
3/31/2021 10:00:00 AM 11.63 52.934 0.818 7.95 5.15 9.9
3/31/2021 10:15:00 AM 11.7 53.06 0.82 7.95 5.35 9.95
3/31/2021 10:30:00 AM 11.78 53.204 0.822 7.96 5.97 10.07
3/31/2021 10:45:00 AM 11.87 53.366 0.825 7.97 5.07 10.16
3/31/2021 11:00:00 AM 11.98 53.564 0.83 7.98 5.26 10.27
3/31/2021 11:15:00 AM 12.1 53.78 0.834 8 4.99 10.46
3/31/2021 11:30:00 AM 12.22 53.996 0.84 8.01 4.81 10.6
3/31/2021 11:45:00 AM 12.36 54.248 0.845 8.03 5.58 10.73
3/31/2021 12:00:00 PM 12.46 54.428 0.848 8.04 5.32 10.76
3/31/2021 12:15:00 PM 12.55 54.59 0.85 8.03 4.9 10.71
3/31/2021 12:30:00 PM 12.65 54.77 0.855 8.05 4.96 10.8